PWSweather.com
Personal Weather Stations
Station Observations
DW0493
Castlewood Ranch, Castle Rock, CO

Castlewood RanchCastle Rock, CO

Lat: 39.36264, Lon: -104.79156

Elevation: 6608

Station Type: Davis Pro Vantage 2

http://www.castlerockweather.org

Latest ConditionsUpdated 2:00:06 PM MDT Tuesday, Jul 7, 2015
Currently Today's Max Today's Min Today's Average
Temperature 60.4°F15.8°C 61.2°F16.2°C 52.2°F11.2°C 55.2°F12.9°C
Dew Point 53.5°F11.9°C 54.9°F12.7°C 49.8°F9.9°C 51.9°F11.1°C
Winds 10.0 mph SE16.1 kmh SE 21.0 mph SE33.8 kmh SE - 8.2 mph 13.2 kmh
Wind Gusts 17.0 mph27.4 kmh 24.0 mph38.6 kmh - -
Humidity 78% 94% 77% 89%
Pressure 23.73 in803.6 mb 23.74 in803.9 mb 19.43 in658.0 mb -
Hour Temp Dew Point Humidity Winds Wind Gusts Pressure Precip Precip Rate Daily Precip Total
02:00 PM 60.4°F15.8°C 53.5°F11.9°C 78% 10.0 mph SE16.1 kmh SE 17.0 mph27.4 kmh 23.73 in803.6 mb 0.00 in0.0 mm 0.00 in0.0 mm 0.00 in0.0 mm
01:59 PM 60.4°F15.8°C 53.9°F12.2°C 79% 10.0 mph S16.1 kmh S 19.0 mph30.6 kmh 23.73 in803.6 mb 0.00 in0.0 mm 0.00 in0.0 mm 0.00 in0.0 mm
01:58 PM 60.5°F15.8°C 54.0°F12.2°C 79% 13.0 mph SSE20.9 kmh SSE 19.0 mph30.6 kmh 23.73 in803.6 mb 0.00 in0.0 mm 0.00 in0.0 mm 0.00 in0.0 mm
01:57 PM 60.5°F15.8°C 54.0°F12.2°C 79% 10.0 mph SE16.1 kmh SE 19.0 mph30.6 kmh 23.73 in803.6 mb 0.00 in0.0 mm 0.00 in0.0 mm 0.00 in0.0 mm
01:56 PM 60.4°F15.8°C 54.2°F12.3°C 80% 7.0 mph SSE11.3 kmh SSE 16.0 mph25.7 kmh 23.73 in803.6 mb 0.00 in0.0 mm 0.00 in0.0 mm 0.00 in0.0 mm
01:55 PM 60.2°F15.7°C 53.7°F12.1°C 79% 10.0 mph S16.1 kmh S 16.0 mph25.7 kmh 23.73 in803.6 mb 0.00 in0.0 mm 0.00 in0.0 mm 0.00 in0.0 mm
01:54 PM 60.1°F15.6°C 53.9°F12.2°C 80% 17.0 mph SE27.4 kmh SE 21.0 mph33.8 kmh 23.73 in803.6 mb 0.00 in0.0 mm 0.00 in0.0 mm 0.00 in0.0 mm
01:53 PM 60.0°F15.6°C 53.8°F12.1°C 80% 12.0 mph SE19.3 kmh SE 19.0 mph30.6 kmh 23.73 in803.6 mb 0.00 in0.0 mm 0.00 in0.0 mm 0.00 in0.0 mm
01:52 PM 59.9°F15.5°C 53.4°F11.9°C 79% 7.0 mph SE11.3 kmh SE 19.0 mph30.6 kmh 23.73 in803.6 mb 0.00 in0.0 mm 0.00 in0.0 mm 0.00 in0.0 mm
01:51 PM 60.0°F15.6°C 53.1°F11.7°C 78% 10.0 mph SE16.1 kmh SE 19.0 mph30.6 kmh 23.73 in803.6 mb 0.00 in0.0 mm 0.00 in0.0 mm 0.00 in0.0 mm
01:50 PM 60.3°F15.7°C 53.8°F12.1°C 79% 13.0 mph SSE20.9 kmh SSE 19.0 mph30.6 kmh 23.73 in803.6 mb 0.00 in0.0 mm 0.00 in0.0 mm 0.00 in0.0 mm
01:49 PM 60.5°F15.8°C 54.0°F12.2°C 79% 11.0 mph SE17.7 kmh SE 22.0 mph35.4 kmh 23.73 in803.6 mb 0.00 in0.0 mm 0.00 in0.0 mm 0.00 in0.0 mm
01:48 PM 60.6°F15.9°C 53.7°F12.1°C 78% 12.0 mph SE19.3 kmh SE 22.0 mph35.4 kmh 23.73 in803.6 mb 0.00 in0.0 mm 0.00 in0.0 mm 0.00 in0.0 mm
01:47 PM 60.8°F16.0°C 53.6°F12.0°C 77% 9.0 mph S14.5 kmh S 22.0 mph35.4 kmh 23.73 in803.6 mb 0.00 in0.0 mm 0.00 in0.0 mm 0.00 in0.0 mm
01:46 PM 61.0°F16.1°C 54.1°F12.3°C 78% 15.0 mph S24.1 kmh S 21.0 mph33.8 kmh 23.73 in803.6 mb 0.00 in0.0 mm 0.00 in0.0 mm 0.00 in0.0 mm
01:45 PM 61.1°F16.2°C 54.6°F12.6°C 79% 13.0 mph SSE20.9 kmh SSE 20.0 mph32.2 kmh 23.73 in803.6 mb 0.00 in0.0 mm 0.00 in0.0 mm 0.00 in0.0 mm
01:44 PM 61.2°F16.2°C 54.6°F12.6°C 79% 14.0 mph SSE22.5 kmh SSE 20.0 mph32.2 kmh 23.73 in803.6 mb 0.00 in0.0 mm 0.00 in0.0 mm 0.00 in0.0 mm
01:43 PM 61.2°F16.2°C 54.6°F12.6°C 79% 10.0 mph SSE16.1 kmh SSE 20.0 mph32.2 kmh 23.73 in803.6 mb 0.00 in0.0 mm 0.00 in0.0 mm 0.00 in0.0 mm
01:42 PM 61.0°F16.1°C 54.8°F12.7°C 80% 6.0 mph SSE9.7 kmh SSE 18.0 mph29.0 kmh 23.73 in803.6 mb 0.00 in0.0 mm 0.00 in0.0 mm 0.00 in0.0 mm
01:41 PM 60.9°F16.1°C 54.4°F12.4°C 79% 13.0 mph S20.9 kmh S 18.0 mph29.0 kmh 23.73 in803.6 mb 0.00 in0.0 mm 0.00 in0.0 mm 0.00 in0.0 mm
01:40 PM 60.8°F16.0°C 54.3°F12.4°C 79% 12.0 mph S19.3 kmh S 18.0 mph29.0 kmh 23.73 in803.6 mb 0.00 in0.0 mm 0.00 in0.0 mm 0.00 in0.0 mm
01:39 PM 60.8°F16.0°C 54.3°F12.4°C 79% 12.0 mph SSE19.3 kmh SSE 20.0 mph32.2 kmh 23.73 in803.6 mb 0.00 in0.0 mm 0.00 in0.0 mm 0.00 in0.0 mm
01:38 PM 60.7°F15.9°C 54.2°F12.3°C 79% 10.0 mph S16.1 kmh S 20.0 mph32.2 kmh 23.73 in803.6 mb 0.00 in0.0 mm 0.00 in0.0 mm 0.00 in0.0 mm
01:37 PM 60.6°F15.9°C 54.4°F12.4°C 80% 14.0 mph SSW22.5 kmh SSW 20.0 mph32.2 kmh 23.73 in803.6 mb 0.00 in0.0 mm 0.00 in0.0 mm 0.00 in0.0 mm
01:36 PM 60.4°F15.8°C 53.5°F11.9°C 78% 13.0 mph SSE20.9 kmh SSE 20.0 mph32.2 kmh 23.73 in803.6 mb 0.00 in0.0 mm 0.00 in0.0 mm 0.00 in0.0 mm
01:35 PM 60.4°F15.8°C 53.9°F12.2°C 79% 19.0 mph ESE30.6 kmh ESE 19.0 mph30.6 kmh 23.73 in803.6 mb 0.00 in0.0 mm 0.00 in0.0 mm 0.00 in0.0 mm
01:34 PM 60.3°F15.7°C 53.4°F11.9°C 78% 13.0 mph SE20.9 kmh SE 22.0 mph35.4 kmh 23.73 in803.6 mb 0.00 in0.0 mm 0.00 in0.0 mm 0.00 in0.0 mm
01:33 PM 60.4°F15.8°C 53.9°F12.2°C 79% 11.0 mph SSE17.7 kmh SSE 22.0 mph35.4 kmh 23.73 in803.6 mb 0.00 in0.0 mm 0.00 in0.0 mm 0.00 in0.0 mm
01:32 PM 60.5°F15.8°C 53.3°F11.8°C 77% 13.0 mph S20.9 kmh S 19.0 mph30.6 kmh 23.73 in803.6 mb 0.00 in0.0 mm 0.00 in0.0 mm 0.00 in0.0 mm
01:31 PM 60.8°F16.0°C 53.6°F12.0°C 77% 14.0 mph ESE22.5 kmh ESE 19.0 mph30.6 kmh 23.73 in803.6 mb 0.00 in0.0 mm 0.00 in0.0 mm 0.00 in0.0 mm
01:30 PM 60.9°F16.1°C 54.4°F12.4°C 79% 14.0 mph SE22.5 kmh SE 18.0 mph29.0 kmh 23.73 in803.6 mb 0.00 in0.0 mm 0.00 in0.0 mm 0.00 in0.0 mm
01:29 PM 60.9°F16.1°C 54.4°F12.4°C 79% 10.0 mph SE16.1 kmh SE 20.0 mph32.2 kmh 23.73 in803.6 mb 0.00 in0.0 mm 0.00 in0.0 mm 0.00 in0.0 mm
01:28 PM 60.8°F16.0°C 54.6°F12.6°C 80% 14.0 mph ESE22.5 kmh ESE 20.0 mph32.2 kmh 23.73 in803.6 mb 0.00 in0.0 mm 0.00 in0.0 mm 0.00 in0.0 mm
01:27 PM 60.6°F15.9°C 54.8°F12.7°C 81% 13.0 mph SE20.9 kmh SE 20.0 mph32.2 kmh 23.73 in803.6 mb 0.00 in0.0 mm 0.00 in0.0 mm 0.00 in0.0 mm
01:26 PM 60.4°F15.8°C 54.2°F12.3°C 80% 10.0 mph SE16.1 kmh SE 20.0 mph32.2 kmh 23.73 in803.6 mb 0.00 in0.0 mm 0.00 in0.0 mm 0.00 in0.0 mm
01:25 PM 60.1°F15.6°C 53.9°F12.2°C 80% 16.0 mph ESE25.7 kmh ESE 16.0 mph25.7 kmh 23.73 in803.6 mb 0.00 in0.0 mm 0.00 in0.0 mm 0.00 in0.0 mm
01:24 PM 59.9°F15.5°C 53.7°F12.1°C 80% 10.0 mph SE16.1 kmh SE 20.0 mph32.2 kmh 23.73 in803.6 mb 0.00 in0.0 mm 0.00 in0.0 mm 0.00 in0.0 mm
01:23 PM 59.8°F15.4°C 53.6°F12.0°C 80% 15.0 mph SE24.1 kmh SE 20.0 mph32.2 kmh 23.73 in803.6 mb 0.00 in0.0 mm 0.00 in0.0 mm 0.00 in0.0 mm
01:22 PM 59.8°F15.4°C 53.6°F12.0°C 80% 14.0 mph SE22.5 kmh SE 20.0 mph32.2 kmh 23.73 in803.6 mb 0.00 in0.0 mm 0.00 in0.0 mm 0.00 in0.0 mm
01:21 PM 59.7°F15.4°C 53.5°F11.9°C 80% 13.0 mph ESE20.9 kmh ESE 19.0 mph30.6 kmh 23.73 in803.6 mb 0.00 in0.0 mm 0.00 in0.0 mm 0.00 in0.0 mm
01:20 PM 59.8°F15.4°C 54.0°F12.2°C 81% 15.0 mph SE24.1 kmh SE 19.0 mph30.6 kmh 23.73 in803.6 mb 0.00 in0.0 mm 0.00 in0.0 mm 0.00 in0.0 mm
01:19 PM 59.7°F15.4°C 53.9°F12.2°C 81% 15.0 mph SE24.1 kmh SE 24.0 mph38.6 kmh 23.73 in803.6 mb 0.00 in0.0 mm 0.00 in0.0 mm 0.00 in0.0 mm
01:18 PM 59.6°F15.3°C 53.8°F12.1°C 81% 16.0 mph SE25.7 kmh SE 24.0 mph38.6 kmh 23.73 in803.6 mb 0.00 in0.0 mm 0.00 in0.0 mm 0.00 in0.0 mm
01:17 PM 59.6°F15.3°C 53.8°F12.1°C 81% 14.0 mph SSE22.5 kmh SSE 24.0 mph38.6 kmh 23.73 in803.6 mb 0.00 in0.0 mm 0.00 in0.0 mm 0.00 in0.0 mm
01:16 PM 59.5°F15.3°C 53.3°F11.8°C 80% 13.0 mph SSE20.9 kmh SSE 24.0 mph38.6 kmh 23.73 in803.6 mb 0.00 in0.0 mm 0.00 in0.0 mm 0.00 in0.0 mm
01:15 PM 59.5°F15.3°C 53.3°F11.8°C 80% 17.0 mph SE27.4 kmh SE 24.0 mph38.6 kmh 23.73 in803.6 mb 0.00 in0.0 mm 0.00 in0.0 mm 0.00 in0.0 mm
01:14 PM 59.5°F15.3°C 53.0°F11.7°C 79% 12.0 mph SE19.3 kmh SE 20.0 mph32.2 kmh 23.73 in803.6 mb 0.00 in0.0 mm 0.00 in0.0 mm 0.00 in0.0 mm
01:13 PM 59.5°F15.3°C 53.3°F11.8°C 80% 18.0 mph ESE29.0 kmh ESE 20.0 mph32.2 kmh 23.73 in803.6 mb 0.00 in0.0 mm 0.00 in0.0 mm 0.00 in0.0 mm
01:12 PM 59.4°F15.2°C 52.9°F11.6°C 79% 18.0 mph SE29.0 kmh SE 20.0 mph32.2 kmh 23.73 in803.6 mb 0.00 in0.0 mm 0.00 in0.0 mm 0.00 in0.0 mm
01:11 PM 59.4°F15.2°C 53.6°F12.0°C 81% 15.0 mph SSE24.1 kmh SSE 18.0 mph29.0 kmh 23.73 in803.6 mb 0.00 in0.0 mm 0.00 in0.0 mm 0.00 in0.0 mm
01:10 PM 59.3°F15.2°C 53.1°F11.7°C 80% 14.0 mph SE22.5 kmh SE 16.0 mph25.7 kmh 23.73 in803.6 mb 0.00 in0.0 mm 0.00 in0.0 mm 0.00 in0.0 mm
01:09 PM 59.4°F15.2°C 53.2°F11.8°C 80% 18.0 mph ESE29.0 kmh ESE 21.0 mph33.8 kmh 23.73 in803.6 mb 0.00 in0.0 mm 0.00 in0.0 mm 0.00 in0.0 mm
01:08 PM 59.6°F15.3°C 53.1°F11.7°C 79% 13.0 mph SE20.9 kmh SE 21.0 mph33.8 kmh 23.73 in803.6 mb 0.00 in0.0 mm 0.00 in0.0 mm 0.00 in0.0 mm
01:07 PM 59.6°F15.3°C 53.4°F11.9°C 80% 17.0 mph SE27.4 kmh SE 21.0 mph33.8 kmh 23.73 in803.6 mb 0.00 in0.0 mm 0.00 in0.0 mm 0.00 in0.0 mm
01:06 PM 59.6°F15.3°C 53.8°F12.1°C 81% 19.0 mph ESE30.6 kmh ESE 19.0 mph30.6 kmh 23.73 in803.6 mb 0.00 in0.0 mm 0.00 in0.0 mm 0.00 in0.0 mm
01:05 PM 59.5°F15.3°C 53.7°F12.1°C 81% 12.0 mph ESE19.3 kmh ESE 16.0 mph25.7 kmh 23.73 in803.6 mb 0.00 in0.0 mm 0.00 in0.0 mm 0.00 in0.0 mm
01:04 PM 59.4°F15.2°C 53.6°F12.0°C 81% 15.0 mph SE24.1 kmh SE 21.0 mph33.8 kmh 23.73 in803.6 mb 0.00 in0.0 mm 0.00 in0.0 mm 0.00 in0.0 mm
01:03 PM 59.5°F15.3°C 53.3°F11.8°C 80% 15.0 mph ESE24.1 kmh ESE 21.0 mph33.8 kmh 23.73 in803.6 mb 0.00 in0.0 mm 0.00 in0.0 mm 0.00 in0.0 mm
01:02 PM 59.6°F15.3°C 53.4°F11.9°C 80% 14.0 mph SSE22.5 kmh SSE 21.0 mph33.8 kmh 23.73 in803.6 mb 0.00 in0.0 mm 0.00 in0.0 mm 0.00 in0.0 mm
01:01 PM 59.6°F15.3°C 53.4°F11.9°C 80% 12.0 mph ESE19.3 kmh ESE 19.0 mph30.6 kmh 23.73 in803.6 mb 0.00 in0.0 mm 0.00 in0.0 mm 0.00 in0.0 mm
01:00 PM 59.6°F15.3°C 53.8°F12.1°C 81% 17.0 mph E27.4 kmh E 19.0 mph30.6 kmh 23.73 in803.6 mb 0.00 in0.0 mm 0.00 in0.0 mm 0.00 in0.0 mm
12:59 PM 59.5°F15.3°C 54.0°F12.2°C 82% 13.0 mph SE20.9 kmh SE 20.0 mph32.2 kmh 23.73 in803.6 mb 0.00 in0.0 mm 0.00 in0.0 mm 0.00 in0.0 mm
12:58 PM 59.3°F15.2°C 53.8°F12.1°C 82% 14.0 mph SE22.5 kmh SE 20.0 mph32.2 kmh 23.73 in803.6 mb 0.00 in0.0 mm 0.00 in0.0 mm 0.00 in0.0 mm
12:57 PM 59.2°F15.1°C 53.7°F12.1°C 82% 12.0 mph SE19.3 kmh SE 20.0 mph32.2 kmh 23.73 in803.6 mb 0.00 in0.0 mm 0.00 in0.0 mm 0.00 in0.0 mm
12:56 PM 59.0°F15.0°C 53.5°F11.9°C 82% 15.0 mph SE24.1 kmh SE 20.0 mph32.2 kmh 23.73 in803.6 mb 0.00 in0.0 mm 0.00 in0.0 mm 0.00 in0.0 mm
12:55 PM 59.0°F15.0°C 53.5°F11.9°C 82% 19.0 mph ESE30.6 kmh ESE 19.0 mph30.6 kmh 23.73 in803.6 mb 0.00 in0.0 mm 0.00 in0.0 mm 0.00 in0.0 mm
12:54 PM 59.0°F15.0°C 53.2°F11.8°C 81% 16.0 mph SSE25.7 kmh SSE 23.0 mph37.0 kmh 23.73 in803.6 mb 0.00 in0.0 mm 0.00 in0.0 mm 0.00 in0.0 mm
12:53 PM 59.0°F15.0°C 54.2°F12.3°C 84% 13.0 mph SE20.9 kmh SE 23.0 mph37.0 kmh 23.73 in803.6 mb 0.00 in0.0 mm 0.00 in0.0 mm 0.00 in0.0 mm
12:52 PM 59.0°F15.0°C 53.5°F11.9°C 82% 6.0 mph SE9.7 kmh SE 23.0 mph37.0 kmh 23.73 in803.6 mb 0.00 in0.0 mm 0.00 in0.0 mm 0.00 in0.0 mm
12:51 PM 59.0°F15.0°C 53.5°F11.9°C 82% 9.0 mph SE14.5 kmh SE 23.0 mph37.0 kmh 23.73 in803.6 mb 0.00 in0.0 mm 0.00 in0.0 mm 0.00 in0.0 mm
12:50 PM 59.0°F15.0°C 53.2°F11.8°C 81% 18.0 mph ESE29.0 kmh ESE 23.0 mph37.0 kmh 23.73 in803.6 mb 0.00 in0.0 mm 0.00 in0.0 mm 0.00 in0.0 mm
12:49 PM 59.0°F15.0°C 53.2°F11.8°C 81% 18.0 mph SE29.0 kmh SE 23.0 mph37.0 kmh 23.73 in803.6 mb 0.00 in0.0 mm 0.00 in0.0 mm 0.00 in0.0 mm
12:48 PM 59.0°F15.0°C 52.9°F11.6°C 80% 15.0 mph SE24.1 kmh SE 23.0 mph37.0 kmh 23.73 in803.6 mb 0.00 in0.0 mm 0.00 in0.0 mm 0.00 in0.0 mm
12:47 PM 59.0°F15.0°C 52.9°F11.6°C 80% 14.0 mph SE22.5 kmh SE 20.0 mph32.2 kmh 23.73 in803.6 mb 0.00 in0.0 mm 0.00 in0.0 mm 0.00 in0.0 mm
12:46 PM 59.4°F15.2°C 53.6°F12.0°C 81% 19.0 mph SE30.6 kmh SE 20.0 mph32.2 kmh 23.73 in803.6 mb 0.00 in0.0 mm 0.00 in0.0 mm 0.00 in0.0 mm
12:45 PM 59.5°F15.3°C 54.0°F12.2°C 82% 12.0 mph SE19.3 kmh SE 20.0 mph32.2 kmh 23.73 in803.6 mb 0.00 in0.0 mm 0.00 in0.0 mm 0.00 in0.0 mm
12:44 PM 59.3°F15.2°C 53.8°F12.1°C 82% 16.0 mph ESE25.7 kmh ESE 19.0 mph30.6 kmh 23.73 in803.6 mb 0.00 in0.0 mm 0.00 in0.0 mm 0.00 in0.0 mm
12:43 PM 59.0°F15.0°C 53.9°F12.2°C 83% 15.0 mph SE24.1 kmh SE 17.0 mph27.4 kmh 23.73 in803.6 mb 0.00 in0.0 mm 0.00 in0.0 mm 0.00 in0.0 mm
12:42 PM 59.0°F15.0°C 53.5°F11.9°C 82% 8.0 mph SE12.9 kmh SE 16.0 mph25.7 kmh 23.73 in803.6 mb 0.00 in0.0 mm 0.00 in0.0 mm 0.00 in0.0 mm
12:41 PM 59.0°F15.0°C 53.5°F11.9°C 82% 12.0 mph SE19.3 kmh SE 16.0 mph25.7 kmh 23.73 in803.6 mb 0.00 in0.0 mm 0.00 in0.0 mm 0.00 in0.0 mm
12:40 PM 59.0°F15.0°C 53.2°F11.8°C 81% 9.0 mph SE14.5 kmh SE 14.0 mph22.5 kmh 23.73 in803.6 mb 0.00 in0.0 mm 0.00 in0.0 mm 0.00 in0.0 mm
12:39 PM 59.0°F15.0°C 53.2°F11.8°C 81% 12.0 mph ESE19.3 kmh ESE 20.0 mph32.2 kmh 23.73 in803.6 mb 0.00 in0.0 mm 0.00 in0.0 mm 0.00 in0.0 mm
12:38 PM 59.0°F15.0°C 53.5°F11.9°C 82% 14.0 mph SE22.5 kmh SE 19.0 mph30.6 kmh 23.73 in803.6 mb 0.00 in0.0 mm 0.00 in0.0 mm 0.00 in0.0 mm
12:37 PM 59.0°F15.0°C 54.2°F12.3°C 84% 13.0 mph SSE20.9 kmh SSE 19.0 mph30.6 kmh 23.73 in803.6 mb 0.00 in0.0 mm 0.00 in0.0 mm 0.00 in0.0 mm
12:36 PM 58.8°F14.9°C 53.7°F12.1°C 83% 11.0 mph E17.7 kmh E 19.0 mph30.6 kmh 23.73 in803.6 mb 0.00 in0.0 mm 0.00 in0.0 mm 0.00 in0.0 mm
12:35 PM 58.6°F14.8°C 52.8°F11.6°C 81% 8.0 mph SE12.9 kmh SE 19.0 mph30.6 kmh 23.73 in803.6 mb 0.00 in0.0 mm 0.00 in0.0 mm 0.00 in0.0 mm
12:34 PM 58.9°F14.9°C 53.1°F11.7°C 81% 15.0 mph SE24.1 kmh SE 22.0 mph35.4 kmh 23.73 in803.6 mb 0.00 in0.0 mm 0.00 in0.0 mm 0.00 in0.0 mm
12:33 PM 59.0°F15.0°C 53.2°F11.8°C 81% 12.0 mph SE19.3 kmh SE 22.0 mph35.4 kmh 23.73 in803.6 mb 0.00 in0.0 mm 0.00 in0.0 mm 0.00 in0.0 mm
12:32 PM 59.0°F15.0°C 53.2°F11.8°C 81% 13.0 mph E20.9 kmh E 22.0 mph35.4 kmh 23.73 in803.6 mb 0.00 in0.0 mm 0.00 in0.0 mm 0.00 in0.0 mm
12:31 PM 59.0°F15.0°C 53.5°F11.9°C 82% 19.0 mph SE30.6 kmh SE 19.0 mph30.6 kmh 23.73 in803.6 mb 0.00 in0.0 mm 0.00 in0.0 mm 0.00 in0.0 mm
12:30 PM 59.0°F15.0°C 53.2°F11.8°C 81% 15.0 mph SE24.1 kmh SE 15.0 mph24.1 kmh 23.73 in803.6 mb 0.00 in0.0 mm 0.00 in0.0 mm 0.00 in0.0 mm
12:29 PM 59.1°F15.1°C 52.9°F11.6°C 80% 16.0 mph SSE25.7 kmh SSE 23.0 mph37.0 kmh 23.73 in803.6 mb 0.00 in0.0 mm 0.00 in0.0 mm 0.00 in0.0 mm
12:28 PM 59.6°F15.3°C 53.4°F11.9°C 80% 16.0 mph ESE25.7 kmh ESE 23.0 mph37.0 kmh 23.73 in803.6 mb 0.00 in0.0 mm 0.00 in0.0 mm 0.00 in0.0 mm
12:27 PM 60.0°F15.6°C 53.8°F12.1°C 80% 14.0 mph SE22.5 kmh SE 19.0 mph30.6 kmh 23.73 in803.6 mb 0.00 in0.0 mm 0.00 in0.0 mm 0.00 in0.0 mm
12:26 PM 60.1°F15.6°C 54.3°F12.4°C 81% 11.0 mph SSE17.7 kmh SSE 18.0 mph29.0 kmh 23.73 in803.6 mb 0.00 in0.0 mm 0.00 in0.0 mm 0.00 in0.0 mm
12:25 PM 60.1°F15.6°C 54.6°F12.6°C 82% 13.0 mph ESE20.9 kmh ESE 14.0 mph22.5 kmh 23.73 in803.6 mb 0.00 in0.0 mm 0.00 in0.0 mm 0.00 in0.0 mm
12:24 PM 59.9°F15.5°C 54.4°F12.4°C 82% 13.0 mph SSE20.9 kmh SSE 19.0 mph30.6 kmh 23.73 in803.6 mb 0.00 in0.0 mm 0.00 in0.0 mm 0.00 in0.0 mm
12:23 PM 59.8°F15.4°C 54.3°F12.4°C 82% 11.0 mph SE17.7 kmh SE 18.0 mph29.0 kmh 23.73 in803.6 mb 0.00 in0.0 mm 0.00 in0.0 mm 0.00 in0.0 mm
12:22 PM 59.6°F15.3°C 54.4°F12.4°C 83% 13.0 mph S20.9 kmh S 18.0 mph29.0 kmh 23.73 in803.6 mb 0.00 in0.0 mm 0.00 in0.0 mm 0.00 in0.0 mm
12:21 PM 59.4°F15.2°C 53.6°F12.0°C 81% 9.0 mph SSE14.5 kmh SSE 18.0 mph29.0 kmh 23.73 in803.6 mb 0.00 in0.0 mm 0.00 in0.0 mm 0.00 in0.0 mm
12:20 PM 59.4°F15.2°C 53.6°F12.0°C 81% 15.0 mph ESE24.1 kmh ESE 16.0 mph25.7 kmh 23.73 in803.6 mb 0.00 in0.0 mm 0.00 in0.0 mm 0.00 in0.0 mm
12:19 PM 59.3°F15.2°C 53.5°F11.9°C 81% 16.0 mph SE25.7 kmh SE 22.0 mph35.4 kmh 23.73 in803.6 mb 0.00 in0.0 mm 0.00 in0.0 mm 0.00 in0.0 mm
12:18 PM 59.4°F15.2°C 53.9°F12.2°C 82% 15.0 mph SSE24.1 kmh SSE 22.0 mph35.4 kmh 23.73 in803.6 mb 0.00 in0.0 mm 0.00 in0.0 mm 0.00 in0.0 mm
12:17 PM 59.4°F15.2°C 53.6°F12.0°C 81% 4.0 mph S6.4 kmh S 22.0 mph35.4 kmh 23.73 in803.6 mb 0.00 in0.0 mm 0.00 in0.0 mm 0.00 in0.0 mm
12:16 PM 59.3°F15.2°C 54.2°F12.3°C 83% 10.0 mph SE16.1 kmh SE 18.0 mph29.0 kmh 23.73 in803.6 mb 0.00 in0.0 mm 0.00 in0.0 mm 0.00 in0.0 mm
12:15 PM 59.0°F15.0°C 53.5°F11.9°C 82% 8.0 mph ESE12.9 kmh ESE 18.0 mph29.0 kmh 23.73 in803.6 mb 0.00 in0.0 mm 0.00 in0.0 mm 0.00 in0.0 mm
12:14 PM 59.0°F15.0°C 53.9°F12.2°C 83% 15.0 mph SE24.1 kmh SE 21.0 mph33.8 kmh 23.73 in803.6 mb 0.00 in0.0 mm 0.00 in0.0 mm 0.00 in0.0 mm
12:13 PM 58.9°F14.9°C 53.4°F11.9°C 82% 11.0 mph SE17.7 kmh SE 19.0 mph30.6 kmh 23.73 in803.6 mb 0.00 in0.0 mm 0.00 in0.0 mm 0.00 in0.0 mm
12:12 PM 58.8°F14.9°C 53.3°F11.8°C 82% 12.0 mph SE19.3 kmh SE 19.0 mph30.6 kmh 23.73 in803.6 mb 0.00 in0.0 mm 0.00 in0.0 mm 0.00 in0.0 mm
12:11 PM 58.8°F14.9°C 53.3°F11.8°C 82% 13.0 mph ESE20.9 kmh ESE 16.0 mph25.7 kmh 23.73 in803.6 mb 0.00 in0.0 mm 0.00 in0.0 mm 0.00 in0.0 mm
12:10 PM 58.9°F14.9°C 53.4°F11.9°C 82% 8.0 mph SE12.9 kmh SE 13.0 mph20.9 kmh 23.73 in803.6 mb 0.00 in0.0 mm 0.00 in0.0 mm 0.00 in0.0 mm
12:09 PM 58.9°F14.9°C 53.4°F11.9°C 82% 9.0 mph ESE14.5 kmh ESE 16.0 mph25.7 kmh 23.73 in803.6 mb 0.00 in0.0 mm 0.00 in0.0 mm 0.00 in0.0 mm
12:08 PM 59.0°F15.0°C 53.2°F11.8°C 81% 12.0 mph SE19.3 kmh SE 16.0 mph25.7 kmh 23.73 in803.6 mb 0.00 in0.0 mm 0.00 in0.0 mm 0.00 in0.0 mm
12:07 PM 59.0°F15.0°C 53.5°F11.9°C 82% 13.0 mph S20.9 kmh S 16.0 mph25.7 kmh 23.73 in803.6 mb 0.00 in0.0 mm 0.00 in0.0 mm 0.00 in0.0 mm
12:06 PM 59.0°F15.0°C 53.2°F11.8°C 81% 9.0 mph SE14.5 kmh SE 13.0 mph20.9 kmh 23.73 in803.6 mb 0.00 in0.0 mm 0.00 in0.0 mm 0.00 in0.0 mm
12:05 PM 59.0°F15.0°C 53.2°F11.8°C 81% 5.0 mph SE8.0 kmh SE 10.0 mph16.1 kmh 23.73 in803.6 mb 0.00 in0.0 mm 0.00 in0.0 mm 0.00 in0.0 mm
12:04 PM 59.2°F15.1°C 53.0°F11.7°C 80% 14.0 mph SSE22.5 kmh SSE 19.0 mph30.6 kmh 23.73 in803.6 mb 0.00 in0.0 mm 0.00 in0.0 mm 0.00 in0.0 mm
12:03 PM 59.7°F15.4°C 53.5°F11.9°C 80% 16.0 mph S25.7 kmh S 18.0 mph29.0 kmh 23.73 in803.6 mb 0.00 in0.0 mm 0.00 in0.0 mm 0.00 in0.0 mm
12:02 PM 59.8°F15.4°C 53.6°F12.0°C 80% 10.0 mph ESE16.1 kmh ESE 18.0 mph29.0 kmh 23.73 in803.6 mb 0.00 in0.0 mm 0.00 in0.0 mm 0.00 in0.0 mm
12:01 PM 59.9°F15.5°C 53.7°F12.1°C 80% 14.0 mph SE22.5 kmh SE 18.0 mph29.0 kmh 23.73 in803.6 mb 0.00 in0.0 mm 0.00 in0.0 mm 0.00 in0.0 mm
12:00 PM 60.0°F15.6°C 53.5°F11.9°C 79% 10.0 mph S16.1 kmh S 13.0 mph20.9 kmh 23.73 in803.6 mb 0.00 in0.0 mm 0.00 in0.0 mm 0.00 in0.0 mm
11:59 AM 60.3°F15.7°C 54.5°F12.5°C 81% 17.0 mph SE27.4 kmh SE 17.0 mph27.4 kmh 23.73 in803.6 mb 0.00 in0.0 mm 0.00 in0.0 mm 0.00 in0.0 mm
11:58 AM 60.3°F15.7°C 53.8°F12.1°C 79% 6.0 mph S9.7 kmh S 17.0 mph27.4 kmh 23.73 in803.6 mb 0.00 in0.0 mm 0.00 in0.0 mm 0.00 in0.0 mm
11:57 AM 60.5°F15.8°C 54.3°F12.4°C 80% 9.0 mph SE14.5 kmh SE 17.0 mph27.4 kmh 23.73 in803.6 mb 0.00 in0.0 mm 0.00 in0.0 mm 0.00 in0.0 mm
11:56 AM 60.5°F15.8°C 54.7°F12.6°C 81% 12.0 mph SSE19.3 kmh SSE 16.0 mph25.7 kmh 23.73 in803.6 mb 0.00 in0.0 mm 0.00 in0.0 mm 0.00 in0.0 mm
11:55 AM 60.4°F15.8°C 54.9°F12.7°C 82% 6.0 mph SE9.7 kmh SE 15.0 mph24.1 kmh 23.73 in803.6 mb 0.00 in0.0 mm 0.00 in0.0 mm 0.00 in0.0 mm
11:54 AM 60.1°F15.6°C 54.9°F12.7°C 83% 10.0 mph SSE16.1 kmh SSE 23.0 mph37.0 kmh 23.73 in803.6 mb 0.00 in0.0 mm 0.00 in0.0 mm 0.00 in0.0 mm
11:53 AM 59.8°F15.4°C 54.6°F12.6°C 83% 16.0 mph SE25.7 kmh SE 23.0 mph37.0 kmh 23.73 in803.6 mb 0.00 in0.0 mm 0.00 in0.0 mm 0.00 in0.0 mm
11:52 AM 59.4°F15.2°C 54.2°F12.3°C 83% 12.0 mph S19.3 kmh S 17.0 mph27.4 kmh 23.73 in803.6 mb 0.00 in0.0 mm 0.00 in0.0 mm 0.00 in0.0 mm
11:51 AM 59.0°F15.0°C 54.2°F12.3°C 84% 11.0 mph SSE17.7 kmh SSE 14.0 mph22.5 kmh 23.73 in803.6 mb 0.00 in0.0 mm 0.00 in0.0 mm 0.00 in0.0 mm
11:50 AM 59.0°F15.0°C 53.9°F12.2°C 83% 6.0 mph S9.7 kmh S 14.0 mph22.5 kmh 23.73 in803.6 mb 0.00 in0.0 mm 0.00 in0.0 mm 0.00 in0.0 mm
11:49 AM 59.0°F15.0°C 53.9°F12.2°C 83% 10.0 mph SSE16.1 kmh SSE 18.0 mph29.0 kmh 23.73 in803.6 mb 0.00 in0.0 mm 0.00 in0.0 mm 0.00 in0.0 mm
11:48 AM 58.9°F14.9°C 53.8°F12.1°C 83% 15.0 mph SSE24.1 kmh SSE 18.0 mph29.0 kmh 23.73 in803.6 mb 0.00 in0.0 mm 0.00 in0.0 mm 0.00 in0.0 mm
11:47 AM 58.7°F14.8°C 53.6°F12.0°C 83% 14.0 mph SE22.5 kmh SE 18.0 mph29.0 kmh 23.73 in803.6 mb 0.00 in0.0 mm 0.00 in0.0 mm 0.00 in0.0 mm
11:46 AM 58.6°F14.8°C 53.1°F11.7°C 82% 10.0 mph SE16.1 kmh SE 18.0 mph29.0 kmh 23.73 in803.6 mb 0.00 in0.0 mm 0.00 in0.0 mm 0.00 in0.0 mm
11:45 AM 58.5°F14.7°C 53.0°F11.7°C 82% 9.0 mph SE14.5 kmh SE 16.0 mph25.7 kmh 23.73 in803.6 mb 0.00 in0.0 mm 0.00 in0.0 mm 0.00 in0.0 mm
11:44 AM 58.6°F14.8°C 53.1°F11.7°C 82% 14.0 mph SSE22.5 kmh SSE 19.0 mph30.6 kmh 23.73 in803.6 mb 0.00 in0.0 mm 0.00 in0.0 mm 0.00 in0.0 mm
11:43 AM 58.6°F14.8°C 53.1°F11.7°C 82% 18.0 mph S29.0 kmh S 19.0 mph30.6 kmh 23.73 in803.6 mb 0.00 in0.0 mm 0.00 in0.0 mm 0.00 in0.0 mm
11:42 AM 58.6°F14.8°C 53.5°F11.9°C 83% 8.0 mph SSE12.9 kmh SSE 19.0 mph30.6 kmh 23.73 in803.6 mb 0.00 in0.0 mm 0.00 in0.0 mm 0.00 in0.0 mm
11:41 AM 58.6°F14.8°C 53.1°F11.7°C 82% 12.0 mph SE19.3 kmh SE 19.0 mph30.6 kmh 23.73 in803.6 mb 0.00 in0.0 mm 0.00 in0.0 mm 0.00 in0.0 mm
11:40 AM 58.5°F14.7°C 53.0°F11.7°C 82% 13.0 mph SE20.9 kmh SE 19.0 mph30.6 kmh 23.73 in803.6 mb 0.00 in0.0 mm 0.00 in0.0 mm 0.00 in0.0 mm
11:39 AM 58.5°F14.7°C 53.4°F11.9°C 83% 12.0 mph SE19.3 kmh SE 22.0 mph35.4 kmh 23.73 in803.6 mb 0.00 in0.0 mm 0.00 in0.0 mm 0.00 in0.0 mm
11:38 AM 58.4°F14.7°C 53.3°F11.8°C 83% 15.0 mph SE24.1 kmh SE 22.0 mph35.4 kmh 23.73 in803.6 mb 0.00 in0.0 mm 0.00 in0.0 mm 0.00 in0.0 mm
11:37 AM 58.3°F14.6°C 53.8°F12.1°C 85% 17.0 mph SSE27.4 kmh SSE 22.0 mph35.4 kmh 23.73 in803.6 mb 0.00 in0.0 mm 0.00 in0.0 mm 0.00 in0.0 mm
11:36 AM 58.0°F14.4°C 53.2°F11.8°C 84% 13.0 mph SSE20.9 kmh SSE 20.0 mph32.2 kmh 23.73 in803.6 mb 0.00 in0.0 mm 0.00 in0.0 mm 0.00 in0.0 mm
11:35 AM 57.8°F14.3°C 53.3°F11.8°C 85% 17.0 mph SSE27.4 kmh SSE 17.0 mph27.4 kmh 23.73 in803.6 mb 0.00 in0.0 mm 0.00 in0.0 mm 0.00 in0.0 mm
11:34 AM 57.5°F14.2°C 52.7°F11.5°C 84% 13.0 mph SE20.9 kmh SE 20.0 mph32.2 kmh 23.73 in803.6 mb 0.00 in0.0 mm 0.00 in0.0 mm 0.00 in0.0 mm
11:33 AM 57.2°F14.0°C 52.4°F11.3°C 84% 8.0 mph SSE12.9 kmh SSE 20.0 mph32.2 kmh 23.73 in803.6 mb 0.00 in0.0 mm 0.00 in0.0 mm 0.00 in0.0 mm
11:32 AM 57.1°F13.9°C 52.3°F11.3°C 84% 12.0 mph SSE19.3 kmh SSE 20.0 mph32.2 kmh 23.73 in803.6 mb 0.00 in0.0 mm 0.00 in0.0 mm 0.00 in0.0 mm
11:31 AM 57.0°F13.9°C 52.2°F11.2°C 84% 13.0 mph SE20.9 kmh SE 20.0 mph32.2 kmh 23.73 in803.6 mb 0.00 in0.0 mm 0.00 in0.0 mm 0.00 in0.0 mm
11:30 AM 56.9°F13.8°C 52.4°F11.3°C 85% 17.0 mph SE27.4 kmh SE 17.0 mph27.4 kmh 23.73 in803.6 mb 0.00 in0.0 mm 0.00 in0.0 mm 0.00 in0.0 mm
11:29 AM 56.7°F13.7°C 51.9°F11.1°C 84% 13.0 mph SE20.9 kmh SE 21.0 mph33.8 kmh 23.73 in803.6 mb 0.00 in0.0 mm 0.00 in0.0 mm 0.00 in0.0 mm
11:28 AM 56.7°F13.7°C 51.9°F11.1°C 84% 10.0 mph ESE16.1 kmh ESE 21.0 mph33.8 kmh 23.73 in803.6 mb 0.00 in0.0 mm 0.00 in0.0 mm 0.00 in0.0 mm
11:27 AM 56.7°F13.7°C 51.9°F11.1°C 84% 11.0 mph ESE17.7 kmh ESE 21.0 mph33.8 kmh 23.73 in803.6 mb 0.00 in0.0 mm 0.00 in0.0 mm 0.00 in0.0 mm
11:26 AM 56.8°F13.8°C 52.4°F11.3°C 85% 16.0 mph E25.7 kmh E 18.0 mph29.0 kmh 23.73 in803.6 mb 0.00 in0.0 mm 0.00 in0.0 mm 0.00 in0.0 mm
11:25 AM 56.8°F13.8°C 52.0°F11.1°C 84% 11.0 mph SE17.7 kmh SE 13.0 mph20.9 kmh 23.73 in803.6 mb 0.00 in0.0 mm 0.00 in0.0 mm 0.00 in0.0 mm
11:24 AM 56.9°F13.8°C 52.1°F11.2°C 84% 11.0 mph SE17.7 kmh SE 18.0 mph29.0 kmh 23.73 in803.6 mb 0.00 in0.0 mm 0.00 in0.0 mm 0.00 in0.0 mm
11:23 AM 57.0°F13.9°C 52.2°F11.2°C 84% 13.0 mph SE20.9 kmh SE 18.0 mph29.0 kmh 23.73 in803.6 mb 0.00 in0.0 mm 0.00 in0.0 mm 0.00 in0.0 mm
11:22 AM 57.2°F14.0°C 52.4°F11.3°C 84% 11.0 mph ESE17.7 kmh ESE 18.0 mph29.0 kmh 23.73 in803.6 mb 0.00 in0.0 mm 0.00 in0.0 mm 0.00 in0.0 mm
11:21 AM 57.3°F14.1°C 52.2°F11.2°C 83% 14.0 mph SSE22.5 kmh SSE 17.0 mph27.4 kmh 23.73 in803.6 mb 0.00 in0.0 mm 0.00 in0.0 mm 0.00 in0.0 mm
11:20 AM 57.4°F14.1°C 52.6°F11.4°C 84% 15.0 mph SE24.1 kmh SE 16.0 mph25.7 kmh 23.73 in803.6 mb 0.00 in0.0 mm 0.00 in0.0 mm 0.00 in0.0 mm
11:19 AM 57.7°F14.3°C 52.9°F11.6°C 84% 11.0 mph SSE17.7 kmh SSE 17.0 mph27.4 kmh 23.73 in803.6 mb 0.00 in0.0 mm 0.00 in0.0 mm 0.00 in0.0 mm
11:18 AM 57.8°F14.3°C 53.0°F11.7°C 84% 16.0 mph SSE25.7 kmh SSE 17.0 mph27.4 kmh 23.73 in803.6 mb 0.00 in0.0 mm 0.00 in0.0 mm 0.00 in0.0 mm
11:17 AM 58.0°F14.4°C 53.2°F11.8°C 84% 14.0 mph SE22.5 kmh SE 17.0 mph27.4 kmh 23.73 in803.6 mb 0.00 in0.0 mm 0.00 in0.0 mm 0.00 in0.0 mm
11:16 AM 58.0°F14.4°C 53.5°F11.9°C 85% 13.0 mph SSE20.9 kmh SSE 17.0 mph27.4 kmh 23.73 in803.6 mb 0.00 in0.0 mm 0.00 in0.0 mm 0.00 in0.0 mm
11:15 AM 57.8°F14.3°C 53.0°F11.7°C 84% 7.0 mph SE11.3 kmh SE 10.0 mph16.1 kmh 23.73 in803.6 mb 0.00 in0.0 mm 0.00 in0.0 mm 0.00 in0.0 mm
11:14 AM 57.7°F14.3°C 52.9°F11.6°C 84% 12.0 mph SE19.3 kmh SE 18.0 mph29.0 kmh 23.73 in803.6 mb 0.00 in0.0 mm 0.00 in0.0 mm 0.00 in0.0 mm
11:13 AM 57.7°F14.3°C 52.9°F11.6°C 84% 12.0 mph S19.3 kmh S 18.0 mph29.0 kmh 23.73 in803.6 mb 0.00 in0.0 mm 0.00 in0.0 mm 0.00 in0.0 mm
11:12 AM 57.8°F14.3°C 53.0°F11.7°C 84% 13.0 mph SSW20.9 kmh SSW 18.0 mph29.0 kmh 23.73 in803.6 mb 0.00 in0.0 mm 0.00 in0.0 mm 0.00 in0.0 mm
11:11 AM 57.8°F14.3°C 52.7°F11.5°C 83% 11.0 mph S17.7 kmh S 18.0 mph29.0 kmh 23.73 in803.6 mb 0.00 in0.0 mm 0.00 in0.0 mm 0.00 in0.0 mm
11:10 AM 57.8°F14.3°C 52.7°F11.5°C 83% 11.0 mph SE17.7 kmh SE 18.0 mph29.0 kmh 23.73 in803.6 mb 0.00 in0.0 mm 0.00 in0.0 mm 0.00 in0.0 mm
11:09 AM 57.8°F14.3°C 53.0°F11.7°C 84% 15.0 mph SSE24.1 kmh SSE 18.0 mph29.0 kmh 23.73 in803.6 mb 0.00 in0.0 mm 0.00 in0.0 mm 0.00 in0.0 mm
11:08 AM 57.8°F14.3°C 53.3°F11.8°C 85% 9.0 mph SE14.5 kmh SE 16.0 mph25.7 kmh 23.73 in803.6 mb 0.00 in0.0 mm 0.00 in0.0 mm 0.00 in0.0 mm
11:07 AM 57.7°F14.3°C 53.6°F12.0°C 86% 14.0 mph S22.5 kmh S 15.0 mph24.1 kmh 23.73 in803.6 mb 0.00 in0.0 mm 0.00 in0.0 mm 0.00 in0.0 mm
11:06 AM 57.5°F14.2°C 53.4°F11.9°C 86% 10.0 mph SE16.1 kmh SE 15.0 mph24.1 kmh 23.73 in803.6 mb 0.00 in0.0 mm 0.00 in0.0 mm 0.00 in0.0 mm
11:05 AM 57.2°F14.0°C 52.7°F11.5°C 85% 12.0 mph SSE19.3 kmh SSE 15.0 mph24.1 kmh 23.73 in803.6 mb 0.00 in0.0 mm 0.00 in0.0 mm 0.00 in0.0 mm
11:04 AM 57.1°F13.9°C 52.6°F11.4°C 85% 10.0 mph SE16.1 kmh SE 20.0 mph32.2 kmh 23.73 in803.6 mb 0.00 in0.0 mm 0.00 in0.0 mm 0.00 in0.0 mm
11:03 AM 56.9°F13.8°C 52.4°F11.3°C 85% 12.0 mph S19.3 kmh S 20.0 mph32.2 kmh 23.73 in803.6 mb 0.00 in0.0 mm 0.00 in0.0 mm 0.00 in0.0 mm
11:02 AM 56.9°F13.8°C 52.4°F11.3°C 85% 10.0 mph SSE16.1 kmh SSE 20.0 mph32.2 kmh 23.73 in803.6 mb 0.00 in0.0 mm 0.00 in0.0 mm 0.00 in0.0 mm
11:01 AM 56.9°F13.8°C 52.8°F11.6°C 86% 7.0 mph SSE11.3 kmh SSE 18.0 mph29.0 kmh 23.73 in803.6 mb 0.00 in0.0 mm 0.00 in0.0 mm 0.00 in0.0 mm
11:00 AM 56.8°F13.8°C 52.4°F11.3°C 85% 7.0 mph S11.3 kmh S 10.0 mph16.1 kmh 23.73 in803.6 mb 0.00 in0.0 mm 0.00 in0.0 mm 0.00 in0.0 mm
10:59 AM 56.7°F13.7°C 52.3°F11.3°C 85% 11.0 mph SE17.7 kmh SE 17.0 mph27.4 kmh 23.73 in803.6 mb 0.00 in0.0 mm 0.00 in0.0 mm 0.00 in0.0 mm
10:58 AM 56.7°F13.7°C 52.3°F11.3°C 85% 10.0 mph SSE16.1 kmh SSE 17.0 mph27.4 kmh 23.73 in803.6 mb 0.00 in0.0 mm 0.00 in0.0 mm 0.00 in0.0 mm
10:57 AM 56.8°F13.8°C 52.4°F11.3°C 85% 12.0 mph SE19.3 kmh SE 17.0 mph27.4 kmh 23.73 in803.6 mb 0.00 in0.0 mm 0.00 in0.0 mm 0.00 in0.0 mm
10:56 AM 56.8°F13.8°C 52.4°F11.3°C 85% 17.0 mph S27.4 kmh S 17.0 mph27.4 kmh 23.73 in803.6 mb 0.00 in0.0 mm 0.00 in0.0 mm 0.00 in0.0 mm
10:55 AM 56.8°F13.8°C 52.4°F11.3°C 85% 11.0 mph S17.7 kmh S 13.0 mph20.9 kmh 23.73 in803.6 mb 0.00 in0.0 mm 0.00 in0.0 mm 0.00 in0.0 mm
10:54 AM 56.8°F13.8°C 52.4°F11.3°C 85% 7.0 mph SSE11.3 kmh SSE 18.0 mph29.0 kmh 23.73 in803.6 mb 0.00 in0.0 mm 0.00 in0.0 mm 0.00 in0.0 mm
10:53 AM 56.8°F13.8°C 52.4°F11.3°C 85% 11.0 mph SSE17.7 kmh SSE 18.0 mph29.0 kmh 23.73 in803.6 mb 0.00 in0.0 mm 0.00 in0.0 mm 0.00 in0.0 mm
10:52 AM 56.8°F13.8°C 52.4°F11.3°C 85% 10.0 mph SSE16.1 kmh SSE 18.0 mph29.0 kmh 23.73 in803.6 mb 0.00 in0.0 mm 0.00 in0.0 mm 0.00 in0.0 mm
10:51 AM 56.7°F13.7°C 52.3°F11.3°C 85% 10.0 mph S16.1 kmh S 18.0 mph29.0 kmh 23.73 in803.6 mb 0.00 in0.0 mm 0.00 in0.0 mm 0.00 in0.0 mm
10:50 AM 56.7°F13.7°C 51.9°F11.1°C 84% 13.0 mph SE20.9 kmh SE 17.0 mph27.4 kmh 23.73 in803.6 mb 0.00 in0.0 mm 0.00 in0.0 mm 0.00 in0.0 mm
10:49 AM 56.8°F13.8°C 52.0°F11.1°C 84% 14.0 mph SE22.5 kmh SE 19.0 mph30.6 kmh 23.73 in803.6 mb 0.00 in0.0 mm 0.00 in0.0 mm 0.00 in0.0 mm
10:48 AM 56.8°F13.8°C 52.4°F11.3°C 85% 17.0 mph ESE27.4 kmh ESE 19.0 mph30.6 kmh 23.73 in803.6 mb 0.00 in0.0 mm 0.00 in0.0 mm 0.00 in0.0 mm
10:47 AM 56.9°F13.8°C 52.4°F11.3°C 85% 14.0 mph SE22.5 kmh SE 19.0 mph30.6 kmh 23.73 in803.6 mb 0.00 in0.0 mm 0.00 in0.0 mm 0.00 in0.0 mm
10:46 AM 56.9°F13.8°C 52.8°F11.6°C 86% 17.0 mph SE27.4 kmh SE 19.0 mph30.6 kmh 23.73 in803.6 mb 0.00 in0.0 mm 0.00 in0.0 mm 0.00 in0.0 mm
10:45 AM 56.7°F13.7°C 52.6°F11.4°C 86% 7.0 mph SSE11.3 kmh SSE 16.0 mph25.7 kmh 23.73 in803.6 mb 0.00 in0.0 mm 0.00 in0.0 mm 0.00 in0.0 mm
10:44 AM 56.6°F13.7°C 52.2°F11.2°C 85% 14.0 mph SE22.5 kmh SE 17.0 mph27.4 kmh 23.73 in803.6 mb 0.00 in0.0 mm 0.00 in0.0 mm 0.00 in0.0 mm
10:43 AM 56.5°F13.6°C 52.4°F11.3°C 86% 9.0 mph SE14.5 kmh SE 17.0 mph27.4 kmh 20.88 in707.1 mb 0.00 in0.0 mm 0.00 in0.0 mm 0.00 in0.0 mm
10:42 AM 56.5°F13.6°C 52.4°F11.3°C 86% 8.0 mph E12.9 kmh E 17.0 mph27.4 kmh 20.88 in707.1 mb 0.00 in0.0 mm 0.00 in0.0 mm 0.00 in0.0 mm
10:41 AM 56.4°F13.6°C 52.0°F11.1°C 85% 5.0 mph S8.0 kmh S 17.0 mph27.4 kmh 20.88 in707.1 mb 0.00 in0.0 mm 0.00 in0.0 mm 0.00 in0.0 mm
10:40 AM 56.5°F13.6°C 52.1°F11.2°C 85% 15.0 mph SE24.1 kmh SE 15.0 mph24.1 kmh 20.88 in707.1 mb 0.00 in0.0 mm 0.00 in0.0 mm 0.00 in0.0 mm
10:39 AM 56.5°F13.6°C 52.4°F11.3°C 86% 13.0 mph SE20.9 kmh SE 17.0 mph27.4 kmh 20.88 in707.1 mb 0.00 in0.0 mm 0.00 in0.0 mm 0.00 in0.0 mm
10:38 AM 56.5°F13.6°C 52.1°F11.2°C 85% 9.0 mph SE14.5 kmh SE 17.0 mph27.4 kmh 20.88 in707.1 mb 0.00 in0.0 mm 0.00 in0.0 mm 0.00 in0.0 mm
10:37 AM 56.5°F13.6°C 52.1°F11.2°C 85% 11.0 mph SSE17.7 kmh SSE 17.0 mph27.4 kmh 20.88 in707.1 mb 0.00 in0.0 mm 0.00 in0.0 mm 0.00 in0.0 mm
10:36 AM 56.6°F13.7°C 52.2°F11.2°C 85% 15.0 mph S24.1 kmh S 17.0 mph27.4 kmh 20.88 in707.1 mb 0.00 in0.0 mm 0.00 in0.0 mm 0.00 in0.0 mm
10:35 AM 56.6°F13.7°C 52.2°F11.2°C 85% 12.0 mph SSE19.3 kmh SSE 17.0 mph27.4 kmh 20.88 in707.1 mb 0.00 in0.0 mm 0.00 in0.0 mm 0.00 in0.0 mm
10:34 AM 56.6°F13.7°C 52.2°F11.2°C 85% 15.0 mph SSE24.1 kmh SSE 20.0 mph32.2 kmh 20.88 in707.1 mb 0.00 in0.0 mm 0.00 in0.0 mm 0.00 in0.0 mm
10:33 AM 56.6°F13.7°C 52.2°F11.2°C 85% 13.0 mph E20.9 kmh E 20.0 mph32.2 kmh 20.88 in707.1 mb 0.00 in0.0 mm 0.00 in0.0 mm 0.00 in0.0 mm
10:32 AM 56.6°F13.7°C 51.8°F11.0°C 84% 13.0 mph SE20.9 kmh SE 20.0 mph32.2 kmh 20.88 in707.1 mb 0.00 in0.0 mm 0.00 in0.0 mm 0.00 in0.0 mm
10:31 AM 56.7°F13.7°C 51.9°F11.1°C 84% 17.0 mph SSE27.4 kmh SSE 20.0 mph32.2 kmh 20.88 in707.1 mb 0.00 in0.0 mm 0.00 in0.0 mm 0.00 in0.0 mm
10:30 AM 56.9°F13.8°C 52.1°F11.2°C 84% 20.0 mph SE32.2 kmh SE 20.0 mph32.2 kmh 20.88 in707.1 mb 0.00 in0.0 mm 0.00 in0.0 mm 0.00 in0.0 mm
10:29 AM 56.9°F13.8°C 52.1°F11.2°C 84% 12.0 mph S19.3 kmh S 21.0 mph33.8 kmh 20.88 in707.1 mb 0.00 in0.0 mm 0.00 in0.0 mm 0.00 in0.0 mm
10:28 AM 57.1°F13.9°C 52.3°F11.3°C 84% 16.0 mph SE25.7 kmh SE 21.0 mph33.8 kmh 20.88 in707.1 mb 0.00 in0.0 mm 0.00 in0.0 mm 0.00 in0.0 mm
10:27 AM 57.2°F14.0°C 52.1°F11.2°C 83% 12.0 mph SSE19.3 kmh SSE 21.0 mph33.8 kmh 20.88 in707.1 mb 0.00 in0.0 mm 0.00 in0.0 mm 0.00 in0.0 mm
10:26 AM 57.4°F14.1°C 52.9°F11.6°C 85% 17.0 mph SE27.4 kmh SE 18.0 mph29.0 kmh 20.88 in707.1 mb 0.00 in0.0 mm 0.00 in0.0 mm 0.00 in0.0 mm
10:25 AM 57.3°F14.1°C 52.5°F11.4°C 84% 17.0 mph SSE27.4 kmh SSE 17.0 mph27.4 kmh 20.88 in707.1 mb 0.00 in0.0 mm 0.00 in0.0 mm 0.00 in0.0 mm
10:24 AM 57.3°F14.1°C 52.8°F11.6°C 85% 13.0 mph SE20.9 kmh SE 19.0 mph30.6 kmh 20.88 in707.1 mb 0.00 in0.0 mm 0.00 in0.0 mm 0.00 in0.0 mm
10:23 AM 57.3°F14.1°C 53.2°F11.8°C 86% 14.0 mph SE22.5 kmh SE 18.0 mph29.0 kmh 20.88 in707.1 mb 0.00 in0.0 mm 0.00 in0.0 mm 0.00 in0.0 mm
10:22 AM 57.2°F14.0°C 53.1°F11.7°C 86% 14.0 mph SSE22.5 kmh SSE 17.0 mph27.4 kmh 20.88 in707.1 mb 0.00 in0.0 mm 0.00 in0.0 mm 0.00 in0.0 mm
10:21 AM 57.0°F13.9°C 52.9°F11.6°C 86% 17.0 mph SSE27.4 kmh SSE 17.0 mph27.4 kmh 20.88 in707.1 mb 0.00 in0.0 mm 0.00 in0.0 mm 0.00 in0.0 mm
10:20 AM 56.9°F13.8°C 52.4°F11.3°C 85% 9.0 mph SE14.5 kmh SE 17.0 mph27.4 kmh 20.88 in707.1 mb 0.00 in0.0 mm 0.00 in0.0 mm 0.00 in0.0 mm
10:19 AM 56.8°F13.8°C 52.4°F11.3°C 85% 10.0 mph SE16.1 kmh SE 18.0 mph29.0 kmh 20.88 in707.1 mb 0.00 in0.0 mm 0.00 in0.0 mm 0.00 in0.0 mm
10:18 AM 56.8°F13.8°C 52.7°F11.5°C 86% 13.0 mph SSE20.9 kmh SSE 18.0 mph29.0 kmh 20.88 in707.1 mb 0.00 in0.0 mm 0.00 in0.0 mm 0.00 in0.0 mm
10:17 AM 56.8°F13.8°C 52.4°F11.3°C 85% 10.0 mph S16.1 kmh S 18.0 mph29.0 kmh 20.88 in707.1 mb 0.00 in0.0 mm 0.00 in0.0 mm 0.00 in0.0 mm
10:16 AM 56.9°F13.8°C 52.4°F11.3°C 85% 11.0 mph S17.7 kmh S 14.0 mph22.5 kmh 20.88 in707.1 mb 0.00 in0.0 mm 0.00 in0.0 mm 0.00 in0.0 mm
10:15 AM 57.0°F13.9°C 52.2°F11.2°C 84% 6.0 mph E9.7 kmh E 13.0 mph20.9 kmh 20.88 in707.1 mb 0.00 in0.0 mm 0.00 in0.0 mm 0.00 in0.0 mm
10:14 AM 57.2°F14.0°C 52.7°F11.5°C 85% 16.0 mph S25.7 kmh S 20.0 mph32.2 kmh 20.88 in707.1 mb 0.00 in0.0 mm 0.00 in0.0 mm 0.00 in0.0 mm
10:13 AM 57.3°F14.1°C 52.5°F11.4°C 84% 9.0 mph SSE14.5 kmh SSE 20.0 mph32.2 kmh 20.88 in707.1 mb 0.00 in0.0 mm 0.00 in0.0 mm 0.00 in0.0 mm
10:12 AM 57.4°F14.1°C 52.6°F11.4°C 84% 12.0 mph ESE19.3 kmh ESE 20.0 mph32.2 kmh 20.88 in707.1 mb 0.00 in0.0 mm 0.00 in0.0 mm 0.00 in0.0 mm
10:11 AM 57.5°F14.2°C 52.7°F11.5°C 84% 7.0 mph SE11.3 kmh SE 17.0 mph27.4 kmh 20.88 in707.1 mb 0.00 in0.0 mm 0.00 in0.0 mm 0.00 in0.0 mm
10:10 AM 57.6°F14.2°C 53.1°F11.7°C 85% 11.0 mph SE17.7 kmh SE 11.0 mph17.7 kmh 20.88 in707.1 mb 0.00 in0.0 mm 0.00 in0.0 mm 0.00 in0.0 mm
10:09 AM 57.7°F14.3°C 53.2°F11.8°C 85% 12.0 mph SSE19.3 kmh SSE 18.0 mph29.0 kmh 20.88 in707.1 mb 0.00 in0.0 mm 0.00 in0.0 mm 0.00 in0.0 mm
10:08 AM 57.7°F14.3°C 52.9°F11.6°C 84% 10.0 mph SE16.1 kmh SE 18.0 mph29.0 kmh 20.88 in707.1 mb 0.00 in0.0 mm 0.00 in0.0 mm 0.00 in0.0 mm
10:07 AM 57.8°F14.3°C 53.0°F11.7°C 84% 15.0 mph ESE24.1 kmh ESE 17.0 mph27.4 kmh 20.88 in707.1 mb 0.00 in0.0 mm 0.00 in0.0 mm 0.00 in0.0 mm
10:06 AM 57.9°F14.4°C 53.4°F11.9°C 85% 11.0 mph SE17.7 kmh SE 17.0 mph27.4 kmh 20.88 in707.1 mb 0.00 in0.0 mm 0.00 in0.0 mm 0.00 in0.0 mm
10:05 AM 57.9°F14.4°C 53.4°F11.9°C 85% 15.0 mph SE24.1 kmh SE 17.0 mph27.4 kmh 20.88 in707.1 mb 0.00 in0.0 mm 0.00 in0.0 mm 0.00 in0.0 mm
10:04 AM 57.8°F14.3°C 53.3°F11.8°C 85% 10.0 mph SE16.1 kmh SE 15.0 mph24.1 kmh 20.88 in707.1 mb 0.00 in0.0 mm 0.00 in0.0 mm 0.00 in0.0 mm
10:03 AM 57.7°F14.3°C 53.2°F11.8°C 85% 11.0 mph SSE17.7 kmh SSE 15.0 mph24.1 kmh 20.88 in707.1 mb 0.00 in0.0 mm 0.00 in0.0 mm 0.00 in0.0 mm
10:02 AM 57.7°F14.3°C 53.2°F11.8°C 85% 12.0 mph S19.3 kmh S 15.0 mph24.1 kmh 20.88 in707.1 mb 0.00 in0.0 mm 0.00 in0.0 mm 0.00 in0.0 mm
10:01 AM 57.8°F14.3°C 53.0°F11.7°C 84% 9.0 mph SE14.5 kmh SE 14.0 mph22.5 kmh 20.88 in707.1 mb 0.00 in0.0 mm 0.00 in0.0 mm 0.00 in0.0 mm
10:00 AM 58.0°F14.4°C 53.2°F11.8°C 84% 14.0 mph SE22.5 kmh SE 14.0 mph22.5 kmh 20.88 in707.1 mb 0.00 in0.0 mm 0.00 in0.0 mm 0.00 in0.0 mm
09:59 AM 58.0°F14.4°C 53.5°F11.9°C 85% 11.0 mph ESE17.7 kmh ESE 20.0 mph32.2 kmh 20.88 in707.1 mb 0.00 in0.0 mm 0.00 in0.0 mm 0.00 in0.0 mm
09:58 AM 58.0°F14.4°C 53.8°F12.1°C 86% 16.0 mph SSE25.7 kmh SSE 20.0 mph32.2 kmh 20.88 in707.1 mb 0.00 in0.0 mm 0.00 in0.0 mm 0.00 in0.0 mm
09:57 AM 57.8°F14.3°C 53.3°F11.8°C 85% 5.0 mph SE8.0 kmh SE 20.0 mph32.2 kmh 20.88 in707.1 mb 0.00 in0.0 mm 0.00 in0.0 mm 0.00 in0.0 mm
09:56 AM 57.7°F14.3°C 52.9°F11.6°C 84% 11.0 mph SE17.7 kmh SE 20.0 mph32.2 kmh 20.88 in707.1 mb 0.00 in0.0 mm 0.00 in0.0 mm 0.00 in0.0 mm
09:55 AM 57.8°F14.3°C 53.0°F11.7°C 84% 13.0 mph S20.9 kmh S 18.0 mph29.0 kmh 20.88 in707.1 mb 0.00 in0.0 mm 0.00 in0.0 mm 0.00 in0.0 mm
09:54 AM 58.0°F14.4°C 52.9°F11.6°C 83% 13.0 mph S20.9 kmh S 22.0 mph35.4 kmh 20.88 in707.1 mb 0.00 in0.0 mm 0.00 in0.0 mm 0.00 in0.0 mm
09:53 AM 58.1°F14.5°C 53.3°F11.8°C 84% 16.0 mph SE25.7 kmh SE 22.0 mph35.4 kmh 20.88 in707.1 mb 0.00 in0.0 mm 0.00 in0.0 mm 0.00 in0.0 mm
09:52 AM 58.2°F14.6°C 53.4°F11.9°C 84% 16.0 mph S25.7 kmh S 22.0 mph35.4 kmh 20.88 in707.1 mb 0.00 in0.0 mm 0.00 in0.0 mm 0.00 in0.0 mm
09:51 AM 58.2°F14.6°C 53.4°F11.9°C 84% 9.0 mph S14.5 kmh S 18.0 mph29.0 kmh 20.88 in707.1 mb 0.00 in0.0 mm 0.00 in0.0 mm 0.00 in0.0 mm
09:50 AM 58.2°F14.6°C 53.7°F12.1°C 85% 14.0 mph SSE22.5 kmh SSE 18.0 mph29.0 kmh 20.88 in707.1 mb 0.00 in0.0 mm 0.00 in0.0 mm 0.00 in0.0 mm
09:49 AM 58.0°F14.4°C 53.8°F12.1°C 86% 10.0 mph SSE16.1 kmh SSE 19.0 mph30.6 kmh 20.88 in707.1 mb 0.00 in0.0 mm 0.00 in0.0 mm 0.00 in0.0 mm
09:48 AM 57.9°F14.4°C 53.1°F11.7°C 84% 6.0 mph SSE9.7 kmh SSE 19.0 mph30.6 kmh 20.88 in707.1 mb 0.00 in0.0 mm 0.00 in0.0 mm 0.00 in0.0 mm
09:47 AM 58.1°F14.5°C 53.0°F11.7°C 83% 11.0 mph S17.7 kmh S 18.0 mph29.0 kmh 20.88 in707.1 mb 0.00 in0.0 mm 0.00 in0.0 mm 0.00 in0.0 mm
09:46 AM 58.3°F14.6°C 53.5°F11.9°C 84% 18.0 mph SE29.0 kmh SE 18.0 mph29.0 kmh 20.88 in707.1 mb 0.00 in0.0 mm 0.00 in0.0 mm 0.00 in0.0 mm
09:45 AM 58.4°F14.7°C 53.9°F12.2°C 85% 13.0 mph SE20.9 kmh SE 15.0 mph24.1 kmh 20.88 in707.1 mb 0.00 in0.0 mm 0.00 in0.0 mm 0.00 in0.0 mm
09:44 AM 58.4°F14.7°C 53.6°F12.0°C 84% 8.0 mph SSE12.9 kmh SSE 22.0 mph35.4 kmh 20.88 in707.1 mb 0.00 in0.0 mm 0.00 in0.0 mm 0.00 in0.0 mm
09:43 AM 58.3°F14.6°C 53.5°F11.9°C 84% 9.0 mph SE14.5 kmh SE 22.0 mph35.4 kmh 20.88 in707.1 mb 0.00 in0.0 mm 0.00 in0.0 mm 0.00 in0.0 mm
09:42 AM 58.3°F14.6°C 53.5°F11.9°C 84% 12.0 mph SE19.3 kmh SE 22.0 mph35.4 kmh 20.88 in707.1 mb 0.00 in0.0 mm 0.00 in0.0 mm 0.00 in0.0 mm
09:41 AM 58.3°F14.6°C 53.5°F11.9°C 84% 17.0 mph S27.4 kmh S 19.0 mph30.6 kmh 20.88 in707.1 mb 0.00 in0.0 mm 0.00 in0.0 mm 0.00 in0.0 mm
09:40 AM 58.4°F14.7°C 53.9°F12.2°C 85% 12.0 mph S19.3 kmh S 18.0 mph29.0 kmh 20.88 in707.1 mb 0.00 in0.0 mm 0.00 in0.0 mm 0.00 in0.0 mm
09:39 AM 58.4°F14.7°C 53.9°F12.2°C 85% 9.0 mph S14.5 kmh S 21.0 mph33.8 kmh 20.88 in707.1 mb 0.00 in0.0 mm 0.00 in0.0 mm 0.00 in0.0 mm
09:38 AM 58.4°F14.7°C 53.6°F12.0°C 84% 12.0 mph S19.3 kmh S 21.0 mph33.8 kmh 20.88 in707.1 mb 0.00 in0.0 mm 0.00 in0.0 mm 0.00 in0.0 mm
09:37 AM 58.4°F14.7°C 53.9°F12.2°C 85% 11.0 mph SSE17.7 kmh SSE 21.0 mph33.8 kmh 20.88 in707.1 mb 0.00 in0.0 mm 0.00 in0.0 mm 0.00 in0.0 mm
09:36 AM 58.3°F14.6°C 54.1°F12.3°C 86% 8.0 mph S12.9 kmh S 15.0 mph24.1 kmh 20.88 in707.1 mb 0.00 in0.0 mm 0.00 in0.0 mm 0.00 in0.0 mm
09:35 AM 58.1°F14.5°C 53.9°F12.2°C 86% 7.0 mph SE11.3 kmh SE 15.0 mph24.1 kmh 20.88 in707.1 mb 0.00 in0.0 mm 0.00 in0.0 mm 0.00 in0.0 mm
09:34 AM 57.9°F14.4°C 54.1°F12.3°C 87% 12.0 mph SE19.3 kmh SE 18.0 mph29.0 kmh 20.88 in707.1 mb 0.00 in0.0 mm 0.00 in0.0 mm 0.00 in0.0 mm
09:33 AM 57.6°F14.2°C 53.5°F11.9°C 86% 11.0 mph S17.7 kmh S 17.0 mph27.4 kmh 20.88 in707.1 mb 0.00 in0.0 mm 0.00 in0.0 mm 0.00 in0.0 mm
09:32 AM 57.4°F14.1°C 53.3°F11.8°C 86% 11.0 mph SSE17.7 kmh SSE 17.0 mph27.4 kmh 20.88 in707.1 mb 0.00 in0.0 mm 0.00 in0.0 mm 0.00 in0.0 mm
09:31 AM 57.2°F14.0°C 53.1°F11.7°C 86% 14.0 mph SSE22.5 kmh SSE 17.0 mph27.4 kmh 20.88 in707.1 mb 0.00 in0.0 mm 0.00 in0.0 mm 0.00 in0.0 mm
09:30 AM 57.1°F13.9°C 53.0°F11.7°C 86% 16.0 mph S25.7 kmh S 16.0 mph25.7 kmh 20.88 in707.1 mb 0.00 in0.0 mm 0.00 in0.0 mm 0.00 in0.0 mm
09:29 AM 57.0°F13.9°C 52.9°F11.6°C 86% 12.0 mph S19.3 kmh S 21.0 mph33.8 kmh 20.88 in707.1 mb 0.00 in0.0 mm 0.00 in0.0 mm 0.00 in0.0 mm
09:28 AM 56.9°F13.8°C 53.1°F11.7°C 87% 11.0 mph S17.7 kmh S 21.0 mph33.8 kmh 20.88 in707.1 mb 0.00 in0.0 mm 0.00 in0.0 mm 0.00 in0.0 mm
09:27 AM 56.7°F13.7°C 52.9°F11.6°C 87% 21.0 mph SE33.8 kmh SE 21.0 mph33.8 kmh 20.88 in707.1 mb 0.00 in0.0 mm 0.00 in0.0 mm 0.00 in0.0 mm
09:26 AM 56.5°F13.6°C 52.7°F11.5°C 87% 7.0 mph SSE11.3 kmh SSE 16.0 mph25.7 kmh 20.88 in707.1 mb 0.00 in0.0 mm 0.00 in0.0 mm 0.00 in0.0 mm
09:25 AM 56.2°F13.4°C 52.7°F11.5°C 88% 13.0 mph SSE20.9 kmh SSE 14.0 mph22.5 kmh 20.88 in707.1 mb 0.00 in0.0 mm 0.00 in0.0 mm 0.00 in0.0 mm
09:24 AM 56.0°F13.3°C 51.9°F11.1°C 86% 7.0 mph SE11.3 kmh SE 19.0 mph30.6 kmh 20.88 in707.1 mb 0.00 in0.0 mm 0.00 in0.0 mm 0.00 in0.0 mm
09:23 AM 55.9°F13.3°C 51.8°F11.0°C 86% 11.0 mph SSE17.7 kmh SSE 19.0 mph30.6 kmh 20.88 in707.1 mb 0.00 in0.0 mm 0.00 in0.0 mm 0.00 in0.0 mm
09:22 AM 55.9°F13.3°C 51.8°F11.0°C 86% 16.0 mph SE25.7 kmh SE 19.0 mph30.6 kmh 20.88 in707.1 mb 0.00 in0.0 mm 0.00 in0.0 mm 0.00 in0.0 mm
09:21 AM 56.0°F13.3°C 52.2°F11.2°C 87% 18.0 mph S29.0 kmh S 18.0 mph29.0 kmh 20.88 in707.1 mb 0.00 in0.0 mm 0.00 in0.0 mm 0.00 in0.0 mm
09:20 AM 56.0°F13.3°C 52.2°F11.2°C 87% 10.0 mph S16.1 kmh S 15.0 mph24.1 kmh 20.88 in707.1 mb 0.00 in0.0 mm 0.00 in0.0 mm 0.00 in0.0 mm
09:19 AM 55.9°F13.3°C 52.1°F11.2°C 87% 10.0 mph SSE16.1 kmh SSE 17.0 mph27.4 kmh 20.88 in707.1 mb 0.00 in0.0 mm 0.00 in0.0 mm 0.00 in0.0 mm
09:18 AM 55.9°F13.3°C 52.1°F11.2°C 87% 10.0 mph S16.1 kmh S 17.0 mph27.4 kmh 20.88 in707.1 mb 0.00 in0.0 mm 0.00 in0.0 mm 0.00 in0.0 mm
09:17 AM 55.8°F13.2°C 52.0°F11.1°C 87% 13.0 mph SSE20.9 kmh SSE 17.0 mph27.4 kmh 20.88 in707.1 mb 0.00 in0.0 mm 0.00 in0.0 mm 0.00 in0.0 mm
09:16 AM 55.8°F13.2°C 52.0°F11.1°C 87% 11.0 mph SE17.7 kmh SE 17.0 mph27.4 kmh 20.88 in707.1 mb 0.00 in0.0 mm 0.00 in0.0 mm 0.00 in0.0 mm
09:15 AM 55.8°F13.2°C 52.0°F11.1°C 87% 17.0 mph SE27.4 kmh SE 17.0 mph27.4 kmh 20.88 in707.1 mb 0.00 in0.0 mm 0.00 in0.0 mm 0.00 in0.0 mm
09:14 AM 55.9°F13.3°C 52.1°F11.2°C 87% 12.0 mph SSE19.3 kmh SSE 16.0 mph25.7 kmh 20.88 in707.1 mb 0.00 in0.0 mm 0.00 in0.0 mm 0.00 in0.0 mm
09:13 AM 55.9°F13.3°C 52.1°F11.2°C 87% 8.0 mph SSE12.9 kmh SSE 15.0 mph24.1 kmh 20.88 in707.1 mb 0.00 in0.0 mm 0.00 in0.0 mm 0.00 in0.0 mm
09:12 AM 55.9°F13.3°C 51.8°F11.0°C 86% 6.0 mph SSE9.7 kmh SSE 15.0 mph24.1 kmh 20.88 in707.1 mb 0.00 in0.0 mm 0.00 in0.0 mm 0.00 in0.0 mm
09:11 AM 56.0°F13.3°C 51.9°F11.1°C 86% 14.0 mph S22.5 kmh S 15.0 mph24.1 kmh 20.88 in707.1 mb 0.00 in0.0 mm 0.00 in0.0 mm 0.00 in0.0 mm
09:10 AM 56.0°F13.3°C 52.2°F11.2°C 87% 12.0 mph SE19.3 kmh SE 12.0 mph19.3 kmh 20.88 in707.1 mb 0.00 in0.0 mm 0.00 in0.0 mm 0.00 in0.0 mm
09:09 AM 56.1°F13.4°C 52.0°F11.1°C 86% 10.0 mph SSE16.1 kmh SSE 18.0 mph29.0 kmh 20.88 in707.1 mb 0.00 in0.0 mm 0.00 in0.0 mm 0.00 in0.0 mm
09:08 AM 56.2°F13.4°C 52.4°F11.3°C 87% 14.0 mph S22.5 kmh S 16.0 mph25.7 kmh 20.88 in707.1 mb 0.00 in0.0 mm 0.00 in0.0 mm 0.00 in0.0 mm
09:07 AM 56.3°F13.5°C 52.5°F11.4°C 87% 8.0 mph S12.9 kmh S 16.0 mph25.7 kmh 20.88 in707.1 mb 0.00 in0.0 mm 0.00 in0.0 mm 0.00 in0.0 mm
09:06 AM 56.3°F13.5°C 52.5°F11.4°C 87% 5.0 mph SSE8.0 kmh SSE 15.0 mph24.1 kmh 20.88 in707.1 mb 0.00 in0.0 mm 0.00 in0.0 mm 0.00 in0.0 mm
09:05 AM 56.4°F13.6°C 52.6°F11.4°C 87% 11.0 mph SSE17.7 kmh SSE 13.0 mph20.9 kmh 20.88 in707.1 mb 0.00 in0.0 mm 0.00 in0.0 mm 0.00 in0.0 mm
09:04 AM 56.4°F13.6°C 52.6°F11.4°C 87% 5.0 mph SSE8.0 kmh SSE 18.0 mph29.0 kmh 20.88 in707.1 mb 0.00 in0.0 mm 0.00 in0.0 mm 0.00 in0.0 mm
09:03 AM 56.5°F13.6°C 52.4°F11.3°C 86% 11.0 mph S17.7 kmh S 18.0 mph29.0 kmh 20.88 in707.1 mb 0.00 in0.0 mm 0.00 in0.0 mm 0.00 in0.0 mm
09:02 AM 56.5°F13.6°C 52.7°F11.5°C 87% 11.0 mph S17.7 kmh S 18.0 mph29.0 kmh 20.88 in707.1 mb 0.00 in0.0 mm 0.00 in0.0 mm 0.00 in0.0 mm
09:01 AM 56.5°F13.6°C 52.4°F11.3°C 86% 9.0 mph S14.5 kmh S 18.0 mph29.0 kmh 20.88 in707.1 mb 0.00 in0.0 mm 0.00 in0.0 mm 0.00 in0.0 mm
09:00 AM 56.5°F13.6°C 52.4°F11.3°C 86% 14.0 mph S22.5 kmh S 18.0 mph29.0 kmh 20.88 in707.1 mb 0.00 in0.0 mm 0.00 in0.0 mm 0.00 in0.0 mm
08:59 AM 56.6°F13.7°C 52.8°F11.6°C 87% 9.0 mph S14.5 kmh S 17.0 mph27.4 kmh 20.88 in707.1 mb 0.00 in0.0 mm 0.00 in0.0 mm 0.00 in0.0 mm
08:58 AM 56.7°F13.7°C 52.9°F11.6°C 87% 9.0 mph S14.5 kmh S 17.0 mph27.4 kmh 20.88 in707.1 mb 0.00 in0.0 mm 0.00 in0.0 mm 0.00 in0.0 mm
08:57 AM 56.7°F13.7°C 52.9°F11.6°C 87% 12.0 mph SSE19.3 kmh SSE 17.0 mph27.4 kmh 20.88 in707.1 mb 0.00 in0.0 mm 0.00 in0.0 mm 0.00 in0.0 mm
08:56 AM 56.6°F13.7°C 53.1°F11.7°C 88% 11.0 mph SE17.7 kmh SE 15.0 mph24.1 kmh 20.88 in707.1 mb 0.00 in0.0 mm 0.00 in0.0 mm 0.00 in0.0 mm
08:55 AM 56.4°F13.6°C 52.9°F11.6°C 88% 9.0 mph SSE14.5 kmh SSE 14.0 mph22.5 kmh 20.89 in707.4 mb 0.00 in0.0 mm 0.00 in0.0 mm 0.00 in0.0 mm
08:54 AM 56.2°F13.4°C 52.7°F11.5°C 88% 6.0 mph ESE9.7 kmh ESE 16.0 mph25.7 kmh 22.84 in773.5 mb 0.00 in0.0 mm 0.00 in0.0 mm 0.00 in0.0 mm
08:53 AM 56.1°F13.4°C 52.3°F11.3°C 87% 7.0 mph SE11.3 kmh SE 16.0 mph25.7 kmh 22.84 in773.5 mb 0.00 in0.0 mm 0.00 in0.0 mm 0.00 in0.0 mm
08:52 AM 55.9°F13.3°C 52.1°F11.2°C 87% 9.0 mph SE14.5 kmh SE 16.0 mph25.7 kmh 22.84 in773.5 mb 0.00 in0.0 mm 0.00 in0.0 mm 0.00 in0.0 mm
08:51 AM 55.9°F13.3°C 52.1°F11.2°C 87% 7.0 mph SE11.3 kmh SE 16.0 mph25.7 kmh 22.84 in773.5 mb 0.00 in0.0 mm 0.00 in0.0 mm 0.00 in0.0 mm
08:50 AM 56.0°F13.3°C 52.2°F11.2°C 87% 13.0 mph SSE20.9 kmh SSE 15.0 mph24.1 kmh 22.84 in773.5 mb 0.00 in0.0 mm 0.00 in0.0 mm 0.00 in0.0 mm
08:49 AM 56.0°F13.3°C 52.2°F11.2°C 87% 12.0 mph SSE19.3 kmh SSE 18.0 mph29.0 kmh 22.84 in773.5 mb 0.00 in0.0 mm 0.00 in0.0 mm 0.00 in0.0 mm
08:48 AM 56.1°F13.4°C 52.3°F11.3°C 87% 7.0 mph SSE11.3 kmh SSE 18.0 mph29.0 kmh 22.84 in773.5 mb 0.00 in0.0 mm 0.00 in0.0 mm 0.00 in0.0 mm
08:47 AM 56.2°F13.4°C 52.4°F11.3°C 87% 10.0 mph SSE16.1 kmh SSE 18.0 mph29.0 kmh 22.84 in773.5 mb 0.00 in0.0 mm 0.00 in0.0 mm 0.00 in0.0 mm
08:46 AM 56.4°F13.6°C 52.6°F11.4°C 87% 13.0 mph SSE20.9 kmh SSE 18.0 mph29.0 kmh 22.84 in773.5 mb 0.00 in0.0 mm 0.00 in0.0 mm 0.00 in0.0 mm
08:45 AM 56.4°F13.6°C 52.9°F11.6°C 88% 10.0 mph SE16.1 kmh SE 12.0 mph19.3 kmh 22.84 in773.5 mb 0.00 in0.0 mm 0.00 in0.0 mm 0.00 in0.0 mm
08:44 AM 56.5°F13.6°C 53.0°F11.7°C 88% 11.0 mph SSE17.7 kmh SSE 19.0 mph30.6 kmh 22.84 in773.5 mb 0.00 in0.0 mm 0.00 in0.0 mm 0.00 in0.0 mm
08:43 AM 56.4°F13.6°C 52.9°F11.6°C 88% 10.0 mph S16.1 kmh S 19.0 mph30.6 kmh 22.84 in773.5 mb 0.00 in0.0 mm 0.00 in0.0 mm 0.00 in0.0 mm
08:42 AM 56.3°F13.5°C 52.8°F11.6°C 88% 10.0 mph S16.1 kmh S 19.0 mph30.6 kmh 22.84 in773.5 mb 0.00 in0.0 mm 0.00 in0.0 mm 0.00 in0.0 mm
08:41 AM 56.2°F13.4°C 52.7°F11.5°C 88% 11.0 mph SSE17.7 kmh SSE 19.0 mph30.6 kmh 22.84 in773.5 mb 0.00 in0.0 mm 0.00 in0.0 mm 0.00 in0.0 mm
08:40 AM 56.2°F13.4°C 52.7°F11.5°C 88% 15.0 mph SSE24.1 kmh SSE 15.0 mph24.1 kmh 22.84 in773.5 mb 0.00 in0.0 mm 0.00 in0.0 mm 0.00 in0.0 mm
08:39 AM 56.1°F13.4°C 52.9°F11.6°C 89% 11.0 mph SE17.7 kmh SE 16.0 mph25.7 kmh 22.84 in773.5 mb 0.00 in0.0 mm 0.00 in0.0 mm 0.00 in0.0 mm
08:38 AM 56.0°F13.3°C 52.8°F11.6°C 89% 9.0 mph SSE14.5 kmh SSE 16.0 mph25.7 kmh 22.84 in773.5 mb 0.00 in0.0 mm 0.00 in0.0 mm 0.00 in0.0 mm
08:37 AM 55.8°F13.2°C 52.6°F11.4°C 89% 9.0 mph SE14.5 kmh SE 16.0 mph25.7 kmh 22.84 in773.5 mb 0.00 in0.0 mm 0.00 in0.0 mm 0.00 in0.0 mm
08:36 AM 55.6°F13.1°C 52.4°F11.3°C 89% 6.0 mph SE9.7 kmh SE 14.0 mph22.5 kmh 22.84 in773.5 mb 0.00 in0.0 mm 0.00 in0.0 mm 0.00 in0.0 mm
08:35 AM 55.4°F13.0°C 52.2°F11.2°C 89% 8.0 mph SSE12.9 kmh SSE 13.0 mph20.9 kmh 22.84 in773.5 mb 0.00 in0.0 mm 0.00 in0.0 mm 0.00 in0.0 mm
08:34 AM 55.3°F12.9°C 52.1°F11.2°C 89% 11.0 mph SSE17.7 kmh SSE 16.0 mph25.7 kmh 22.84 in773.5 mb 0.00 in0.0 mm 0.00 in0.0 mm 0.00 in0.0 mm
08:33 AM 55.2°F12.9°C 52.0°F11.1°C 89% 12.0 mph S19.3 kmh S 16.0 mph25.7 kmh 22.84 in773.5 mb 0.00 in0.0 mm 0.00 in0.0 mm 0.00 in0.0 mm
08:32 AM 55.1°F12.8°C 51.6°F10.9°C 88% 7.0 mph SSE11.3 kmh SSE 16.0 mph25.7 kmh 22.84 in773.5 mb 0.00 in0.0 mm 0.00 in0.0 mm 0.00 in0.0 mm
08:31 AM 55.1°F12.8°C 51.6°F10.9°C 88% 9.0 mph SSE14.5 kmh SSE 16.0 mph25.7 kmh 22.84 in773.5 mb 0.00 in0.0 mm 0.00 in0.0 mm 0.00 in0.0 mm
08:30 AM 55.1°F12.8°C 51.6°F10.9°C 88% 13.0 mph SE20.9 kmh SE 14.0 mph22.5 kmh 22.84 in773.5 mb 0.00 in0.0 mm 0.00 in0.0 mm 0.00 in0.0 mm
08:29 AM 55.2°F12.9°C 51.7°F10.9°C 88% 12.0 mph SE19.3 kmh SE 15.0 mph24.1 kmh 22.84 in773.5 mb 0.00 in0.0 mm 0.00 in0.0 mm 0.00 in0.0 mm
08:28 AM 55.2°F12.9°C 51.7°F10.9°C 88% 11.0 mph ESE17.7 kmh ESE 15.0 mph24.1 kmh 22.84 in773.5 mb 0.00 in0.0 mm 0.00 in0.0 mm 0.00 in0.0 mm
08:27 AM 55.2°F12.9°C 51.7°F10.9°C 88% 13.0 mph SE20.9 kmh SE 15.0 mph24.1 kmh 22.84 in773.5 mb 0.00 in0.0 mm 0.00 in0.0 mm 0.00 in0.0 mm
08:26 AM 55.2°F12.9°C 51.7°F10.9°C 88% 11.0 mph SE17.7 kmh SE 14.0 mph22.5 kmh 22.84 in773.5 mb 0.00 in0.0 mm 0.00 in0.0 mm 0.00 in0.0 mm
08:25 AM 55.2°F12.9°C 51.7°F10.9°C 88% 4.0 mph SSE6.4 kmh SSE 9.0 mph14.5 kmh 22.84 in773.5 mb 0.00 in0.0 mm 0.00 in0.0 mm 0.00 in0.0 mm
08:24 AM 55.2°F12.9°C 51.7°F10.9°C 88% 5.0 mph SE8.0 kmh SE 17.0 mph27.4 kmh 22.84 in773.5 mb 0.00 in0.0 mm 0.00 in0.0 mm 0.00 in0.0 mm
08:23 AM 55.3°F12.9°C 51.8°F11.0°C 88% 7.0 mph SSE11.3 kmh SSE 17.0 mph27.4 kmh 22.84 in773.5 mb 0.00 in0.0 mm 0.00 in0.0 mm 0.00 in0.0 mm
08:22 AM 55.3°F12.9°C 51.8°F11.0°C 88% 14.0 mph SE22.5 kmh SE 16.0 mph25.7 kmh 22.84 in773.5 mb 0.00 in0.0 mm 0.00 in0.0 mm 0.00 in0.0 mm
08:21 AM 55.3°F12.9°C 51.8°F11.0°C 88% 4.0 mph SSE6.4 kmh SSE 16.0 mph25.7 kmh 22.84 in773.5 mb 0.00 in0.0 mm 0.00 in0.0 mm 0.00 in0.0 mm
08:20 AM 55.4°F13.0°C 52.2°F11.2°C 89% 11.0 mph SSE17.7 kmh SSE 13.0 mph20.9 kmh 22.84 in773.5 mb 0.00 in0.0 mm 0.00 in0.0 mm 0.00 in0.0 mm
08:19 AM 55.3°F12.9°C 52.1°F11.2°C 89% 10.0 mph ESE16.1 kmh ESE 16.0 mph25.7 kmh 22.84 in773.5 mb 0.00 in0.0 mm 0.00 in0.0 mm 0.00 in0.0 mm
08:18 AM 55.3°F12.9°C 52.1°F11.2°C 89% 6.0 mph SSE9.7 kmh SSE 16.0 mph25.7 kmh 22.84 in773.5 mb 0.00 in0.0 mm 0.00 in0.0 mm 0.00 in0.0 mm
08:17 AM 55.3°F12.9°C 52.1°F11.2°C 89% 13.0 mph S20.9 kmh S 16.0 mph25.7 kmh 22.84 in773.5 mb 0.00 in0.0 mm 0.00 in0.0 mm 0.00 in0.0 mm
08:16 AM 55.2°F12.9°C 52.0°F11.1°C 89% 6.0 mph SE9.7 kmh SE 16.0 mph25.7 kmh 22.84 in773.5 mb 0.00 in0.0 mm 0.00 in0.0 mm 0.00 in0.0 mm
08:15 AM 55.1°F12.8°C 51.9°F11.1°C 89% 12.0 mph SE19.3 kmh SE 16.0 mph25.7 kmh 22.84 in773.5 mb 0.00 in0.0 mm 0.00 in0.0 mm 0.00 in0.0 mm
08:14 AM 55.0°F12.8°C 52.1°F11.2°C 90% 5.0 mph SSE8.0 kmh SSE 16.0 mph25.7 kmh 22.84 in773.5 mb 0.00 in0.0 mm 0.00 in0.0 mm 0.00 in0.0 mm
08:13 AM 54.9°F12.7°C 51.7°F10.9°C 89% 5.0 mph SSE8.0 kmh SSE 16.0 mph25.7 kmh 22.84 in773.5 mb 0.00 in0.0 mm 0.00 in0.0 mm 0.00 in0.0 mm
08:12 AM 54.9°F12.7°C 52.0°F11.1°C 90% 13.0 mph SSE20.9 kmh SSE 16.0 mph25.7 kmh 22.84 in773.5 mb 0.00 in0.0 mm 0.00 in0.0 mm 0.00 in0.0 mm
08:11 AM 54.8°F12.7°C 51.9°F11.1°C 90% 6.0 mph SE9.7 kmh SE 16.0 mph25.7 kmh 22.84 in773.5 mb 0.00 in0.0 mm 0.00 in0.0 mm 0.00 in0.0 mm
08:10 AM 54.7°F12.6°C 51.8°F11.0°C 90% 13.0 mph S20.9 kmh S 13.0 mph20.9 kmh 22.84 in773.5 mb 0.00 in0.0 mm 0.00 in0.0 mm 0.00 in0.0 mm
08:09 AM 54.6°F12.6°C 51.7°F10.9°C 90% 12.0 mph S19.3 kmh S 15.0 mph24.1 kmh 22.84 in773.5 mb 0.00 in0.0 mm 0.00 in0.0 mm 0.00 in0.0 mm
08:08 AM 54.5°F12.5°C 51.6°F10.9°C 90% 14.0 mph SSE22.5 kmh SSE 15.0 mph24.1 kmh 22.84 in773.5 mb 0.00 in0.0 mm 0.00 in0.0 mm 0.00 in0.0 mm
08:07 AM 54.4°F12.4°C 51.5°F10.8°C 90% 13.0 mph SE20.9 kmh SE 14.0 mph22.5 kmh 21.59 in731.1 mb 0.00 in0.0 mm 0.00 in0.0 mm 0.00 in0.0 mm
08:06 AM 54.3°F12.4°C 51.4°F10.8°C 90% 14.0 mph SSE22.5 kmh SSE 14.0 mph22.5 kmh 21.59 in731.1 mb 0.00 in0.0 mm 0.00 in0.0 mm 0.00 in0.0 mm
08:05 AM 54.2°F12.3°C 51.3°F10.7°C 90% 12.0 mph SSE19.3 kmh SSE 14.0 mph22.5 kmh 21.59 in731.1 mb 0.00 in0.0 mm 0.00 in0.0 mm 0.00 in0.0 mm
08:04 AM 54.2°F12.3°C 51.3°F10.7°C 90% 10.0 mph SSE16.1 kmh SSE 15.0 mph24.1 kmh 21.59 in731.1 mb 0.00 in0.0 mm 0.00 in0.0 mm 0.00 in0.0 mm
08:03 AM 54.1°F12.3°C 51.2°F10.7°C 90% 10.0 mph S16.1 kmh S 14.0 mph22.5 kmh 21.59 in731.1 mb 0.00 in0.0 mm 0.00 in0.0 mm 0.00 in0.0 mm
08:02 AM 54.1°F12.3°C 51.2°F10.7°C 90% 12.0 mph SSE19.3 kmh SSE 14.0 mph22.5 kmh 21.59 in731.1 mb 0.00 in0.0 mm 0.00 in0.0 mm 0.00 in0.0 mm
08:01 AM 54.0°F12.2°C 51.1°F10.6°C 90% 4.0 mph S6.4 kmh S 14.0 mph22.5 kmh 21.59 in731.1 mb 0.00 in0.0 mm 0.00 in0.0 mm 0.00 in0.0 mm
08:00 AM 54.0°F12.2°C 51.1°F10.6°C 90% 11.0 mph SE17.7 kmh SE 12.0 mph19.3 kmh 21.59 in731.1 mb 0.00 in0.0 mm 0.00 in0.0 mm 0.00 in0.0 mm
07:59 AM 53.9°F12.2°C 51.3°F10.7°C 91% 10.0 mph SSE16.1 kmh SSE 17.0 mph27.4 kmh 21.59 in731.1 mb 0.00 in0.0 mm 0.00 in0.0 mm 0.00 in0.0 mm
07:58 AM 53.9°F12.2°C 51.3°F10.7°C 91% 13.0 mph S20.9 kmh S 15.0 mph24.1 kmh 21.59 in731.1 mb 0.00 in0.0 mm 0.00 in0.0 mm 0.00 in0.0 mm
07:57 AM 53.8°F12.1°C 51.2°F10.7°C 91% 6.0 mph SE9.7 kmh SE 13.0 mph20.9 kmh 21.59 in731.1 mb 0.00 in0.0 mm 0.00 in0.0 mm 0.00 in0.0 mm
07:56 AM 53.8°F12.1°C 50.9°F10.5°C 90% 13.0 mph SSE20.9 kmh SSE 13.0 mph20.9 kmh 21.59 in731.1 mb 0.00 in0.0 mm 0.00 in0.0 mm 0.00 in0.0 mm
07:55 AM 53.8°F12.1°C 50.9°F10.5°C 90% 9.0 mph SE14.5 kmh SE 10.0 mph16.1 kmh 21.59 in731.1 mb 0.00 in0.0 mm 0.00 in0.0 mm 0.00 in0.0 mm
07:54 AM 53.8°F12.1°C 51.2°F10.7°C 91% 15.0 mph SE24.1 kmh SE 18.0 mph29.0 kmh 21.59 in731.1 mb 0.00 in0.0 mm 0.00 in0.0 mm 0.00 in0.0 mm
07:53 AM 53.8°F12.1°C 51.2°F10.7°C 91% 4.0 mph SSE6.4 kmh SSE 18.0 mph29.0 kmh 21.59 in731.1 mb 0.00 in0.0 mm 0.00 in0.0 mm 0.00 in0.0 mm
07:52 AM 53.8°F12.1°C 51.2°F10.7°C 91% 7.0 mph SSE11.3 kmh SSE 18.0 mph29.0 kmh 21.59 in731.1 mb 0.00 in0.0 mm 0.00 in0.0 mm 0.00 in0.0 mm
07:51 AM 53.8°F12.1°C 51.2°F10.7°C 91% 10.0 mph SSE16.1 kmh SSE 18.0 mph29.0 kmh 21.59 in731.1 mb 0.00 in0.0 mm 0.00 in0.0 mm 0.00 in0.0 mm
07:50 AM 53.8°F12.1°C 51.2°F10.7°C 91% 4.0 mph SSE6.4 kmh SSE 9.0 mph14.5 kmh 21.59 in731.1 mb 0.00 in0.0 mm 0.00 in0.0 mm 0.00 in0.0 mm
07:49 AM 53.7°F12.1°C 51.1°F10.6°C 91% 4.0 mph SSE6.4 kmh SSE 16.0 mph25.7 kmh 21.59 in731.1 mb 0.00 in0.0 mm 0.00 in0.0 mm 0.00 in0.0 mm
07:48 AM 53.8°F12.1°C 51.2°F10.7°C 91% 13.0 mph S20.9 kmh S 16.0 mph25.7 kmh 21.59 in731.1 mb 0.00 in0.0 mm 0.00 in0.0 mm 0.00 in0.0 mm
07:47 AM 53.7°F12.1°C 51.1°F10.6°C 91% 9.0 mph S14.5 kmh S 16.0 mph25.7 kmh 21.59 in731.1 mb 0.00 in0.0 mm 0.00 in0.0 mm 0.00 in0.0 mm
07:46 AM 53.7°F12.1°C 51.1°F10.6°C 91% 9.0 mph SE14.5 kmh SE 16.0 mph25.7 kmh 21.59 in731.1 mb 0.00 in0.0 mm 0.00 in0.0 mm 0.00 in0.0 mm
07:45 AM 53.8°F12.1°C 51.2°F10.7°C 91% 14.0 mph SSE22.5 kmh SSE 16.0 mph25.7 kmh 21.59 in731.1 mb 0.00 in0.0 mm 0.00 in0.0 mm 0.00 in0.0 mm
07:44 AM 53.8°F12.1°C 51.2°F10.7°C 91% 11.0 mph S17.7 kmh S 14.0 mph22.5 kmh 21.59 in731.1 mb 0.00 in0.0 mm 0.00 in0.0 mm 0.00 in0.0 mm
07:43 AM 53.8°F12.1°C 51.2°F10.7°C 91% 7.0 mph S11.3 kmh S 13.0 mph20.9 kmh 21.59 in731.1 mb 0.00 in0.0 mm 0.00 in0.0 mm 0.00 in0.0 mm
07:42 AM 53.8°F12.1°C 51.2°F10.7°C 91% 5.0 mph SE8.0 kmh SE 13.0 mph20.9 kmh 21.59 in731.1 mb 0.00 in0.0 mm 0.00 in0.0 mm 0.00 in0.0 mm
07:41 AM 53.7°F12.1°C 51.1°F10.6°C 91% 6.0 mph S9.7 kmh S 13.0 mph20.9 kmh 21.59 in731.1 mb 0.00 in0.0 mm 0.00 in0.0 mm 0.00 in0.0 mm
07:40 AM 53.7°F12.1°C 51.1°F10.6°C 91% 8.0 mph SSE12.9 kmh SSE 13.0 mph20.9 kmh 21.59 in731.1 mb 0.00 in0.0 mm 0.00 in0.0 mm 0.00 in0.0 mm
07:39 AM 53.6°F12.0°C 51.0°F10.6°C 91% 10.0 mph S16.1 kmh S 17.0 mph27.4 kmh 21.59 in731.1 mb 0.00 in0.0 mm 0.00 in0.0 mm 0.00 in0.0 mm
07:38 AM 53.6°F12.0°C 51.0°F10.6°C 91% 5.0 mph SSE8.0 kmh SSE 17.0 mph27.4 kmh 21.59 in731.1 mb 0.00 in0.0 mm 0.00 in0.0 mm 0.00 in0.0 mm
07:37 AM 53.6°F12.0°C 51.0°F10.6°C 91% 11.0 mph SE17.7 kmh SE 17.0 mph27.4 kmh 21.59 in731.1 mb 0.00 in0.0 mm 0.00 in0.0 mm 0.00 in0.0 mm
07:36 AM 53.6°F12.0°C 51.0°F10.6°C 91% 7.0 mph SSE11.3 kmh SSE 17.0 mph27.4 kmh 21.59 in731.1 mb 0.00 in0.0 mm 0.00 in0.0 mm 0.00 in0.0 mm
07:35 AM 53.6°F12.0°C 51.0°F10.6°C 91% 9.0 mph SE14.5 kmh SE 15.0 mph24.1 kmh 21.59 in731.1 mb 0.00 in0.0 mm 0.00 in0.0 mm 0.00 in0.0 mm
07:34 AM 53.6°F12.0°C 51.0°F10.6°C 91% 9.0 mph SSE14.5 kmh SSE 17.0 mph27.4 kmh 21.59 in731.1 mb 0.00 in0.0 mm 0.00 in0.0 mm 0.00 in0.0 mm
07:33 AM 53.6°F12.0°C 51.0°F10.6°C 91% 6.0 mph SSE9.7 kmh SSE 12.0 mph19.3 kmh 21.59 in731.1 mb 0.00 in0.0 mm 0.00 in0.0 mm 0.00 in0.0 mm
07:32 AM 53.6°F12.0°C 51.0°F10.6°C 91% 5.0 mph SSE8.0 kmh SSE 12.0 mph19.3 kmh 21.59 in731.1 mb 0.00 in0.0 mm 0.00 in0.0 mm 0.00 in0.0 mm
07:31 AM 53.5°F11.9°C 50.9°F10.5°C 91% 6.0 mph S9.7 kmh S 12.0 mph19.3 kmh 21.59 in731.1 mb 0.00 in0.0 mm 0.00 in0.0 mm 0.00 in0.0 mm
07:30 AM 53.5°F11.9°C 50.9°F10.5°C 91% 6.0 mph SE9.7 kmh SE 12.0 mph19.3 kmh 21.59 in731.1 mb 0.00 in0.0 mm 0.00 in0.0 mm 0.00 in0.0 mm
07:29 AM 53.5°F11.9°C 50.9°F10.5°C 91% 5.0 mph S8.0 kmh S 14.0 mph22.5 kmh 21.59 in731.1 mb 0.00 in0.0 mm 0.00 in0.0 mm 0.00 in0.0 mm
07:28 AM 53.5°F11.9°C 50.9°F10.5°C 91% 13.0 mph S20.9 kmh S 14.0 mph22.5 kmh 21.59 in731.1 mb 0.00 in0.0 mm 0.00 in0.0 mm 0.00 in0.0 mm
07:27 AM 53.5°F11.9°C 50.9°F10.5°C 91% 7.0 mph SE11.3 kmh SE 14.0 mph22.5 kmh 21.59 in731.1 mb 0.00 in0.0 mm 0.00 in0.0 mm 0.00 in0.0 mm
07:26 AM 53.5°F11.9°C 50.9°F10.5°C 91% 7.0 mph SSE11.3 kmh SSE 14.0 mph22.5 kmh 21.59 in731.1 mb 0.00 in0.0 mm 0.00 in0.0 mm 0.00 in0.0 mm
07:25 AM 53.5°F11.9°C 50.9°F10.5°C 91% 7.0 mph S11.3 kmh S 14.0 mph22.5 kmh 21.59 in731.1 mb 0.00 in0.0 mm 0.00 in0.0 mm 0.00 in0.0 mm
07:24 AM 53.5°F11.9°C 50.9°F10.5°C 91% 11.0 mph SSE17.7 kmh SSE 19.0 mph30.6 kmh 21.59 in731.1 mb 0.00 in0.0 mm 0.00 in0.0 mm 0.00 in0.0 mm
07:23 AM 53.5°F11.9°C 50.9°F10.5°C 91% 12.0 mph SE19.3 kmh SE 19.0 mph30.6 kmh 21.59 in731.1 mb 0.00 in0.0 mm 0.00 in0.0 mm 0.00 in0.0 mm
07:22 AM 53.5°F11.9°C 51.2°F10.7°C 92% 16.0 mph SW25.7 kmh SW 18.0 mph29.0 kmh 21.59 in731.1 mb 0.00 in0.0 mm 0.00 in0.0 mm 0.00 in0.0 mm
07:21 AM 53.4°F11.9°C 50.8°F10.4°C 91% 3.0 mph SSE4.8 kmh SSE 11.0 mph17.7 kmh 21.59 in731.1 mb 0.00 in0.0 mm 0.00 in0.0 mm 0.00 in0.0 mm
07:20 AM 53.4°F11.9°C 50.8°F10.4°C 91% 4.0 mph SSE6.4 kmh SSE 11.0 mph17.7 kmh 21.59 in731.1 mb 0.00 in0.0 mm 0.00 in0.0 mm 0.00 in0.0 mm
07:19 AM 53.4°F11.9°C 50.8°F10.4°C 91% 6.0 mph SSE9.7 kmh SSE 14.0 mph22.5 kmh 21.59 in731.1 mb 0.00 in0.0 mm 0.00 in0.0 mm 0.00 in0.0 mm
07:18 AM 53.4°F11.9°C 50.8°F10.4°C 91% 9.0 mph SSE14.5 kmh SSE 14.0 mph22.5 kmh 21.59 in731.1 mb 0.00 in0.0 mm 0.00 in0.0 mm 0.00 in0.0 mm
07:17 AM 53.4°F11.9°C 51.1°F10.6°C 92% 6.0 mph SSE9.7 kmh SSE 10.0 mph16.1 kmh 21.59 in731.1 mb 0.00 in0.0 mm 0.00 in0.0 mm 0.00 in0.0 mm
07:16 AM 53.3°F11.8°C 50.7°F10.4°C 91% 5.0 mph SSE8.0 kmh SSE 10.0 mph16.1 kmh 21.59 in731.1 mb 0.00 in0.0 mm 0.00 in0.0 mm 0.00 in0.0 mm
07:15 AM 53.3°F11.8°C 50.7°F10.4°C 91% 5.0 mph SSE8.0 kmh SSE 10.0 mph16.1 kmh 21.59 in731.1 mb 0.00 in0.0 mm 0.00 in0.0 mm 0.00 in0.0 mm
07:14 AM 53.3°F11.8°C 50.7°F10.4°C 91% 3.0 mph SSE4.8 kmh SSE 14.0 mph22.5 kmh 21.59 in731.1 mb 0.00 in0.0 mm 0.00 in0.0 mm 0.00 in0.0 mm
07:13 AM 53.2°F11.8°C 50.7°F10.4°C 91% 2.0 mph SSE3.2 kmh SSE 14.0 mph22.5 kmh 21.59 in731.1 mb 0.00 in0.0 mm 0.00 in0.0 mm 0.00 in0.0 mm
07:12 AM 53.2°F11.8°C 50.7°F10.4°C 91% 4.0 mph S6.4 kmh S 14.0 mph22.5 kmh 21.59 in731.1 mb 0.00 in0.0 mm 0.00 in0.0 mm 0.00 in0.0 mm
07:11 AM 53.2°F11.8°C 50.7°F10.4°C 91% 6.0 mph SSE9.7 kmh SSE 14.0 mph22.5 kmh 21.59 in731.1 mb 0.00 in0.0 mm 0.00 in0.0 mm 0.00 in0.0 mm
07:10 AM 53.2°F11.8°C 50.7°F10.4°C 91% 6.0 mph SSE9.7 kmh SSE 14.0 mph22.5 kmh 21.59 in731.1 mb 0.00 in0.0 mm 0.00 in0.0 mm 0.00 in0.0 mm
07:09 AM 53.2°F11.8°C 50.9°F10.5°C 92% 6.0 mph SE9.7 kmh SE 14.0 mph22.5 kmh 21.59 in731.1 mb 0.00 in0.0 mm 0.00 in0.0 mm 0.00 in0.0 mm
07:08 AM 53.2°F11.8°C 50.9°F10.5°C 92% 6.0 mph S9.7 kmh S 10.0 mph16.1 kmh 21.59 in731.1 mb 0.00 in0.0 mm 0.00 in0.0 mm 0.00 in0.0 mm
07:07 AM 53.1°F11.7°C 50.8°F10.4°C 92% 9.0 mph S14.5 kmh S 9.0 mph14.5 kmh 21.59 in731.1 mb 0.00 in0.0 mm 0.00 in0.0 mm 0.00 in0.0 mm
07:06 AM 53.1°F11.7°C 50.6°F10.3°C 91% 5.0 mph S8.0 kmh S 9.0 mph14.5 kmh 21.59 in731.1 mb 0.00 in0.0 mm 0.00 in0.0 mm 0.00 in0.0 mm
07:05 AM 53.1°F11.7°C 50.6°F10.3°C 91% 5.0 mph SSE8.0 kmh SSE 6.0 mph9.7 kmh 21.59 in731.1 mb 0.00 in0.0 mm 0.00 in0.0 mm 0.00 in0.0 mm
07:04 AM 53.0°F11.7°C 50.5°F10.3°C 91% 4.0 mph SSE6.4 kmh SSE 12.0 mph19.3 kmh 21.59 in731.1 mb 0.00 in0.0 mm 0.00 in0.0 mm 0.00 in0.0 mm
07:03 AM 53.0°F11.7°C 50.5°F10.3°C 91% 6.0 mph S9.7 kmh S 12.0 mph19.3 kmh 21.59 in731.1 mb 0.00 in0.0 mm 0.00 in0.0 mm 0.00 in0.0 mm
07:02 AM 53.0°F11.7°C 50.7°F10.4°C 92% 4.0 mph SSE6.4 kmh SSE 12.0 mph19.3 kmh 21.59 in731.1 mb 0.00 in0.0 mm 0.00 in0.0 mm 0.00 in0.0 mm
07:01 AM 53.0°F11.7°C 50.7°F10.4°C 92% 5.0 mph SSE8.0 kmh SSE 12.0 mph19.3 kmh 21.59 in731.1 mb 0.00 in0.0 mm 0.00 in0.0 mm 0.00 in0.0 mm
07:00 AM 53.0°F11.7°C 50.7°F10.4°C 92% 6.0 mph S9.7 kmh S 11.0 mph17.7 kmh 21.59 in731.1 mb 0.00 in0.0 mm 0.00 in0.0 mm 0.00 in0.0 mm
06:59 AM 53.0°F11.7°C 50.5°F10.3°C 91% 9.0 mph S14.5 kmh S 14.0 mph22.5 kmh 21.59 in731.1 mb 0.00 in0.0 mm 0.00 in0.0 mm 0.00 in0.0 mm
06:58 AM 52.9°F11.6°C 50.4°F10.2°C 91% 5.0 mph SSE8.0 kmh SSE 14.0 mph22.5 kmh 21.59 in731.1 mb 0.00 in0.0 mm 0.00 in0.0 mm 0.00 in0.0 mm
06:57 AM 52.9°F11.6°C 50.6°F10.3°C 92% 6.0 mph SSE9.7 kmh SSE 14.0 mph22.5 kmh 21.59 in731.1 mb 0.00 in0.0 mm 0.00 in0.0 mm 0.00 in0.0 mm
06:56 AM 52.9°F11.6°C 50.6°F10.3°C 92% 10.0 mph SSE16.1 kmh SSE 12.0 mph19.3 kmh 21.59 in731.1 mb 0.00 in0.0 mm 0.00 in0.0 mm 0.00 in0.0 mm
06:55 AM 52.9°F11.6°C 50.6°F10.3°C 92% 7.0 mph SE11.3 kmh SE 12.0 mph19.3 kmh 21.59 in731.1 mb 0.00 in0.0 mm 0.00 in0.0 mm 0.00 in0.0 mm
06:54 AM 52.9°F11.6°C 50.6°F10.3°C 92% 4.0 mph SE6.4 kmh SE 13.0 mph20.9 kmh 21.59 in731.1 mb 0.00 in0.0 mm 0.00 in0.0 mm 0.00 in0.0 mm
06:53 AM 52.9°F11.6°C 50.6°F10.3°C 92% 4.0 mph S6.4 kmh S 13.0 mph20.9 kmh 21.59 in731.1 mb 0.00 in0.0 mm 0.00 in0.0 mm 0.00 in0.0 mm
06:52 AM 52.9°F11.6°C 50.6°F10.3°C 92% 7.0 mph SE11.3 kmh SE 13.0 mph20.9 kmh 21.59 in731.1 mb 0.00 in0.0 mm 0.00 in0.0 mm 0.00 in0.0 mm
06:51 AM 52.9°F11.6°C 50.6°F10.3°C 92% 4.0 mph S6.4 kmh S 13.0 mph20.9 kmh 21.59 in731.1 mb 0.00 in0.0 mm 0.00 in0.0 mm 0.00 in0.0 mm
06:50 AM 52.8°F11.6°C 50.5°F10.3°C 92% 13.0 mph SE20.9 kmh SE 13.0 mph20.9 kmh 21.59 in731.1 mb 0.00 in0.0 mm 0.00 in0.0 mm 0.00 in0.0 mm
06:49 AM 52.8°F11.6°C 50.5°F10.3°C 92% 10.0 mph S16.1 kmh S 12.0 mph19.3 kmh 21.59 in731.1 mb 0.00 in0.0 mm 0.00 in0.0 mm 0.00 in0.0 mm
06:48 AM 52.8°F11.6°C 50.5°F10.3°C 92% 8.0 mph SE12.9 kmh SE 12.0 mph19.3 kmh 21.59 in731.1 mb 0.00 in0.0 mm 0.00 in0.0 mm 0.00 in0.0 mm
06:47 AM 52.8°F11.6°C 50.5°F10.3°C 92% 10.0 mph SE16.1 kmh SE 12.0 mph19.3 kmh 21.59 in731.1 mb 0.00 in0.0 mm 0.00 in0.0 mm 0.00 in0.0 mm
06:46 AM 52.8°F11.6°C 50.5°F10.3°C 92% 4.0 mph SSE6.4 kmh SSE 10.0 mph16.1 kmh 21.59 in731.1 mb 0.00 in0.0 mm 0.00 in0.0 mm 0.00 in0.0 mm
06:45 AM 52.8°F11.6°C 50.5°F10.3°C 92% 2.0 mph SSE3.2 kmh SSE 6.0 mph9.7 kmh 21.59 in731.1 mb 0.00 in0.0 mm 0.00 in0.0 mm 0.00 in0.0 mm
06:44 AM 52.8°F11.6°C 50.5°F10.3°C 92% 6.0 mph SE9.7 kmh SE 12.0 mph19.3 kmh 21.59 in731.1 mb 0.00 in0.0 mm 0.00 in0.0 mm 0.00 in0.0 mm
06:43 AM 52.8°F11.6°C 50.5°F10.3°C 92% 8.0 mph S12.9 kmh S 12.0 mph19.3 kmh 21.59 in731.1 mb 0.00 in0.0 mm 0.00 in0.0 mm 0.00 in0.0 mm
06:42 AM 52.7°F11.5°C 50.5°F10.3°C 92% 10.0 mph SSE16.1 kmh SSE 12.0 mph19.3 kmh 21.59 in731.1 mb 0.00 in0.0 mm 0.00 in0.0 mm 0.00 in0.0 mm
06:41 AM 52.7°F11.5°C 50.5°F10.3°C 92% 10.0 mph SSE16.1 kmh SSE 12.0 mph19.3 kmh 21.59 in731.1 mb 0.00 in0.0 mm 0.00 in0.0 mm 0.00 in0.0 mm
06:40 AM 52.7°F11.5°C 50.5°F10.3°C 92% 5.0 mph SE8.0 kmh SE 10.0 mph16.1 kmh 21.59 in731.1 mb 0.00 in0.0 mm 0.00 in0.0 mm 0.00 in0.0 mm
06:39 AM 52.7°F11.5°C 50.5°F10.3°C 92% 3.0 mph S4.8 kmh S 14.0 mph22.5 kmh 21.59 in731.1 mb 0.00 in0.0 mm 0.00 in0.0 mm 0.00 in0.0 mm
06:38 AM 52.6°F11.4°C 50.4°F10.2°C 92% 7.0 mph SSE11.3 kmh SSE 14.0 mph22.5 kmh 21.59 in731.1 mb 0.00 in0.0 mm 0.00 in0.0 mm 0.00 in0.0 mm
06:37 AM 52.6°F11.4°C 50.4°F10.2°C 92% 9.0 mph S14.5 kmh S 12.0 mph19.3 kmh 21.59 in731.1 mb 0.00 in0.0 mm 0.00 in0.0 mm 0.00 in0.0 mm
06:36 AM 52.6°F11.4°C 50.4°F10.2°C 92% 5.0 mph SE8.0 kmh SE 12.0 mph19.3 kmh 23.74 in803.9 mb 0.00 in0.0 mm 0.00 in0.0 mm 0.00 in0.0 mm
06:35 AM 52.6°F11.4°C 50.4°F10.2°C 92% 2.0 mph S3.2 kmh S 5.0 mph8.0 kmh 23.74 in803.9 mb 0.00 in0.0 mm 0.00 in0.0 mm 0.00 in0.0 mm
06:34 AM 52.6°F11.4°C 50.4°F10.2°C 92% 11.0 mph S17.7 kmh S 15.0 mph24.1 kmh 23.74 in803.9 mb 0.00 in0.0 mm 0.00 in0.0 mm 0.00 in0.0 mm
06:33 AM 52.6°F11.4°C 50.4°F10.2°C 92% 9.0 mph SSE14.5 kmh SSE 15.0 mph24.1 kmh 23.74 in803.9 mb 0.00 in0.0 mm 0.00 in0.0 mm 0.00 in0.0 mm
06:32 AM 52.5°F11.4°C 50.3°F10.2°C 92% 14.0 mph S22.5 kmh S 15.0 mph24.1 kmh 23.74 in803.9 mb 0.00 in0.0 mm 0.00 in0.0 mm 0.00 in0.0 mm
06:31 AM 52.5°F11.4°C 50.3°F10.2°C 92% 15.0 mph SSE24.1 kmh SSE 15.0 mph24.1 kmh 23.74 in803.9 mb 0.00 in0.0 mm 0.00 in0.0 mm 0.00 in0.0 mm
06:30 AM 52.4°F11.3°C 50.2°F10.1°C 92% 9.0 mph SSE14.5 kmh SSE 12.0 mph19.3 kmh 23.74 in803.9 mb 0.00 in0.0 mm 0.00 in0.0 mm 0.00 in0.0 mm
06:29 AM 52.4°F11.3°C 50.2°F10.1°C 92% 6.0 mph S9.7 kmh S 16.0 mph25.7 kmh 23.74 in803.9 mb 0.00 in0.0 mm 0.00 in0.0 mm 0.00 in0.0 mm
06:28 AM 52.4°F11.3°C 50.2°F10.1°C 92% 12.0 mph S19.3 kmh S 13.0 mph20.9 kmh 23.74 in803.9 mb 0.00 in0.0 mm 0.00 in0.0 mm 0.00 in0.0 mm
06:27 AM 52.4°F11.3°C 50.2°F10.1°C 92% 2.0 mph S3.2 kmh S 13.0 mph20.9 kmh 23.74 in803.9 mb 0.00 in0.0 mm 0.00 in0.0 mm 0.00 in0.0 mm
06:26 AM 52.3°F11.3°C 50.1°F10.1°C 92% 2.0 mph S3.2 kmh S 13.0 mph20.9 kmh 23.74 in803.9 mb 0.00 in0.0 mm 0.00 in0.0 mm 0.00 in0.0 mm
06:25 AM 52.3°F11.3°C 50.1°F10.1°C 92% 12.0 mph SSE19.3 kmh SSE 13.0 mph20.9 kmh 23.74 in803.9 mb 0.00 in0.0 mm 0.00 in0.0 mm 0.00 in0.0 mm
06:24 AM 52.3°F11.3°C 50.1°F10.1°C 92% 7.0 mph SSE11.3 kmh SSE 16.0 mph25.7 kmh 23.74 in803.9 mb 0.00 in0.0 mm 0.00 in0.0 mm 0.00 in0.0 mm
06:23 AM 52.3°F11.3°C 50.1°F10.1°C 92% 13.0 mph SSE20.9 kmh SSE 16.0 mph25.7 kmh 23.74 in803.9 mb 0.00 in0.0 mm 0.00 in0.0 mm 0.00 in0.0 mm
06:22 AM 52.3°F11.3°C 50.1°F10.1°C 92% 11.0 mph S17.7 kmh S 15.0 mph24.1 kmh 23.74 in803.9 mb 0.00 in0.0 mm 0.00 in0.0 mm 0.00 in0.0 mm
06:21 AM 52.3°F11.3°C 50.1°F10.1°C 92% 6.0 mph SSE9.7 kmh SSE 15.0 mph24.1 kmh 23.74 in803.9 mb 0.00 in0.0 mm 0.00 in0.0 mm 0.00 in0.0 mm
06:20 AM 52.3°F11.3°C 50.1°F10.1°C 92% 6.0 mph S9.7 kmh S 11.0 mph17.7 kmh 23.74 in803.9 mb 0.00 in0.0 mm 0.00 in0.0 mm 0.00 in0.0 mm
06:19 AM 52.4°F11.3°C 50.2°F10.1°C 92% 13.0 mph SE20.9 kmh SE 15.0 mph24.1 kmh 23.74 in803.9 mb 0.00 in0.0 mm 0.00 in0.0 mm 0.00 in0.0 mm
06:18 AM 52.4°F11.3°C 50.2°F10.1°C 92% 10.0 mph S16.1 kmh S 15.0 mph24.1 kmh 23.74 in803.9 mb 0.00 in0.0 mm 0.00 in0.0 mm 0.00 in0.0 mm
06:17 AM 52.4°F11.3°C 50.2°F10.1°C 92% 4.0 mph S6.4 kmh S 15.0 mph24.1 kmh 23.74 in803.9 mb 0.00 in0.0 mm 0.00 in0.0 mm 0.00 in0.0 mm
06:16 AM 52.4°F11.3°C 50.2°F10.1°C 92% 14.0 mph S22.5 kmh S 15.0 mph24.1 kmh 23.55 in797.5 mb 0.00 in0.0 mm 0.00 in0.0 mm 0.00 in0.0 mm
06:15 AM 52.4°F11.3°C 50.2°F10.1°C 92% 9.0 mph S14.5 kmh S 15.0 mph24.1 kmh 23.55 in797.5 mb 0.00 in0.0 mm 0.00 in0.0 mm 0.00 in0.0 mm
06:14 AM 52.4°F11.3°C 50.2°F10.1°C 92% 12.0 mph SE19.3 kmh SE 17.0 mph27.4 kmh 23.55 in797.5 mb 0.00 in0.0 mm 0.00 in0.0 mm 0.00 in0.0 mm
06:13 AM 52.4°F11.3°C 50.2°F10.1°C 92% 6.0 mph S9.7 kmh S 17.0 mph27.4 kmh 23.55 in797.5 mb 0.00 in0.0 mm 0.00 in0.0 mm 0.00 in0.0 mm
06:12 AM 52.4°F11.3°C 50.2°F10.1°C 92% 10.0 mph S16.1 kmh S 17.0 mph27.4 kmh 23.55 in797.5 mb 0.00 in0.0 mm 0.00 in0.0 mm 0.00 in0.0 mm
06:11 AM 52.4°F11.3°C 50.2°F10.1°C 92% 10.0 mph SSW16.1 kmh SSW 17.0 mph27.4 kmh 23.55 in797.5 mb 0.00 in0.0 mm 0.00 in0.0 mm 0.00 in0.0 mm
06:10 AM 52.4°F11.3°C 50.2°F10.1°C 92% 5.0 mph S8.0 kmh S 9.0 mph14.5 kmh 23.55 in797.5 mb 0.00 in0.0 mm 0.00 in0.0 mm 0.00 in0.0 mm
06:09 AM 52.4°F11.3°C 50.2°F10.1°C 92% 7.0 mph S11.3 kmh S 17.0 mph27.4 kmh 23.55 in797.5 mb 0.00 in0.0 mm 0.00 in0.0 mm 0.00 in0.0 mm
06:08 AM 52.4°F11.3°C 50.2°F10.1°C 92% 4.0 mph S6.4 kmh S 17.0 mph27.4 kmh 23.55 in797.5 mb 0.00 in0.0 mm 0.00 in0.0 mm 0.00 in0.0 mm
06:07 AM 52.4°F11.3°C 50.2°F10.1°C 92% 9.0 mph S14.5 kmh S 17.0 mph27.4 kmh 23.55 in797.5 mb 0.00 in0.0 mm 0.00 in0.0 mm 0.00 in0.0 mm
06:06 AM 52.4°F11.3°C 50.2°F10.1°C 92% 8.0 mph S12.9 kmh S 17.0 mph27.4 kmh 23.55 in797.5 mb 0.00 in0.0 mm 0.00 in0.0 mm 0.00 in0.0 mm
06:05 AM 52.4°F11.3°C 50.2°F10.1°C 92% 12.0 mph S19.3 kmh S 12.0 mph19.3 kmh 23.55 in797.5 mb 0.00 in0.0 mm 0.00 in0.0 mm 0.00 in0.0 mm
06:04 AM 52.4°F11.3°C 50.2°F10.1°C 92% 9.0 mph S14.5 kmh S 14.0 mph22.5 kmh 23.55 in797.5 mb 0.00 in0.0 mm 0.00 in0.0 mm 0.00 in0.0 mm
06:03 AM 52.4°F11.3°C 50.2°F10.1°C 92% 6.0 mph S9.7 kmh S 14.0 mph22.5 kmh 23.55 in797.5 mb 0.00 in0.0 mm 0.00 in0.0 mm 0.00 in0.0 mm
06:02 AM 52.4°F11.3°C 50.2°F10.1°C 92% 6.0 mph S9.7 kmh S 14.0 mph22.5 kmh 23.55 in797.5 mb 0.00 in0.0 mm 0.00 in0.0 mm 0.00 in0.0 mm
06:01 AM 52.4°F11.3°C 50.2°F10.1°C 92% 11.0 mph S17.7 kmh S 14.0 mph22.5 kmh 20.02 in678.0 mb 0.00 in0.0 mm 0.00 in0.0 mm 0.00 in0.0 mm
06:00 AM 52.4°F11.3°C 50.2°F10.1°C 92% 8.0 mph S12.9 kmh S 14.0 mph22.5 kmh 20.02 in678.0 mb 0.00 in0.0 mm 0.00 in0.0 mm 0.00 in0.0 mm
05:59 AM 52.4°F11.3°C 50.2°F10.1°C 92% 12.0 mph S19.3 kmh S 16.0 mph25.7 kmh 20.02 in678.0 mb 0.00 in0.0 mm 0.00 in0.0 mm 0.00 in0.0 mm
05:58 AM 52.4°F11.3°C 50.2°F10.1°C 92% 4.0 mph S6.4 kmh S 16.0 mph25.7 kmh 20.02 in678.0 mb 0.00 in0.0 mm 0.00 in0.0 mm 0.00 in0.0 mm
05:57 AM 52.3°F11.3°C 50.1°F10.1°C 92% 14.0 mph S22.5 kmh S 16.0 mph25.7 kmh 20.02 in678.0 mb 0.00 in0.0 mm 0.00 in0.0 mm 0.00 in0.0 mm
05:56 AM 52.3°F11.3°C 50.1°F10.1°C 92% 8.0 mph S12.9 kmh S 10.0 mph16.1 kmh 20.02 in678.0 mb 0.00 in0.0 mm 0.00 in0.0 mm 0.00 in0.0 mm
05:55 AM 52.3°F11.3°C 50.1°F10.1°C 92% 7.0 mph S11.3 kmh S 7.0 mph11.3 kmh 20.02 in678.0 mb 0.00 in0.0 mm 0.00 in0.0 mm 0.00 in0.0 mm
05:54 AM 52.3°F11.3°C 50.1°F10.1°C 92% 14.0 mph SSW22.5 kmh SSW 14.0 mph22.5 kmh 20.02 in678.0 mb 0.00 in0.0 mm 0.00 in0.0 mm 0.00 in0.0 mm
05:53 AM 52.3°F11.3°C 50.1°F10.1°C 92% 5.0 mph S8.0 kmh S 13.0 mph20.9 kmh 20.02 in678.0 mb 0.00 in0.0 mm 0.00 in0.0 mm 0.00 in0.0 mm
05:52 AM 52.3°F11.3°C 50.1°F10.1°C 92% 7.0 mph SSW11.3 kmh SSW 13.0 mph20.9 kmh 20.02 in678.0 mb 0.00 in0.0 mm 0.00 in0.0 mm 0.00 in0.0 mm
05:51 AM 52.3°F11.3°C 50.1°F10.1°C 92% 10.0 mph S16.1 kmh S 13.0 mph20.9 kmh 20.02 in678.0 mb 0.00 in0.0 mm 0.00 in0.0 mm 0.00 in0.0 mm
05:50 AM 52.3°F11.3°C 50.1°F10.1°C 92% 9.0 mph SSE14.5 kmh SSE 13.0 mph20.9 kmh 20.02 in678.0 mb 0.00 in0.0 mm 0.00 in0.0 mm 0.00 in0.0 mm
05:49 AM 52.3°F11.3°C 50.1°F10.1°C 92% 9.0 mph S14.5 kmh S 16.0 mph25.7 kmh 20.02 in678.0 mb 0.00 in0.0 mm 0.00 in0.0 mm 0.00 in0.0 mm
05:48 AM 52.3°F11.3°C 50.1°F10.1°C 92% 12.0 mph SE19.3 kmh SE 16.0 mph25.7 kmh 20.02 in678.0 mb 0.00 in0.0 mm 0.00 in0.0 mm 0.00 in0.0 mm
05:47 AM 52.3°F11.3°C 50.1°F10.1°C 92% 7.0 mph SE11.3 kmh SE 16.0 mph25.7 kmh 20.02 in678.0 mb 0.00 in0.0 mm 0.00 in0.0 mm 0.00 in0.0 mm
05:46 AM 52.3°F11.3°C 50.1°F10.1°C 92% 6.0 mph SSE9.7 kmh SSE 16.0 mph25.7 kmh 20.02 in678.0 mb 0.00 in0.0 mm 0.00 in0.0 mm 0.00 in0.0 mm
05:45 AM 52.3°F11.3°C 50.1°F10.1°C 92% 15.0 mph S24.1 kmh S 16.0 mph25.7 kmh 20.02 in678.0 mb 0.00 in0.0 mm 0.00 in0.0 mm 0.00 in0.0 mm
05:44 AM 52.2°F11.2°C 50.0°F10.0°C 92% 10.0 mph SSE16.1 kmh SSE 14.0 mph22.5 kmh 20.02 in678.0 mb 0.00 in0.0 mm 0.00 in0.0 mm 0.00 in0.0 mm
05:43 AM 52.3°F11.3°C 50.1°F10.1°C 92% 8.0 mph S12.9 kmh S 12.0 mph19.3 kmh 20.02 in678.0 mb 0.00 in0.0 mm 0.00 in0.0 mm 0.00 in0.0 mm
05:42 AM 52.3°F11.3°C 50.1°F10.1°C 92% 7.0 mph SE11.3 kmh SE 12.0 mph19.3 kmh 20.02 in678.0 mb 0.00 in0.0 mm 0.00 in0.0 mm 0.00 in0.0 mm
05:41 AM 52.3°F11.3°C 50.1°F10.1°C 92% 3.0 mph SSE4.8 kmh SSE 12.0 mph19.3 kmh 20.02 in678.0 mb 0.00 in0.0 mm 0.00 in0.0 mm 0.00 in0.0 mm
05:40 AM 52.3°F11.3°C 50.1°F10.1°C 92% 8.0 mph S12.9 kmh S 10.0 mph16.1 kmh 20.02 in678.0 mb 0.00 in0.0 mm 0.00 in0.0 mm 0.00 in0.0 mm
05:39 AM 52.3°F11.3°C 50.1°F10.1°C 92% 10.0 mph SSE16.1 kmh SSE 14.0 mph22.5 kmh 20.02 in678.0 mb 0.00 in0.0 mm 0.00 in0.0 mm 0.00 in0.0 mm
05:38 AM 52.3°F11.3°C 50.1°F10.1°C 92% 8.0 mph SSE12.9 kmh SSE 14.0 mph22.5 kmh 20.02 in678.0 mb 0.00 in0.0 mm 0.00 in0.0 mm 0.00 in0.0 mm
05:37 AM 52.3°F11.3°C 50.1°F10.1°C 92% 8.0 mph SE12.9 kmh SE 14.0 mph22.5 kmh 20.02 in678.0 mb 0.00 in0.0 mm 0.00 in0.0 mm 0.00 in0.0 mm
05:36 AM 52.3°F11.3°C 49.8°F9.9°C 91% 11.0 mph SSE17.7 kmh SSE 11.0 mph17.7 kmh 20.02 in678.0 mb 0.00 in0.0 mm 0.00 in0.0 mm 0.00 in0.0 mm
05:35 AM 52.4°F11.3°C 49.9°F9.9°C 91% 5.0 mph SSE8.0 kmh SSE 6.0 mph9.7 kmh 20.02 in678.0 mb 0.00 in0.0 mm 0.00 in0.0 mm 0.00 in0.0 mm
05:34 AM 52.3°F11.3°C 49.8°F9.9°C 91% 5.0 mph SSE8.0 kmh SSE 14.0 mph22.5 kmh 20.02 in678.0 mb 0.00 in0.0 mm 0.00 in0.0 mm 0.00 in0.0 mm
05:33 AM 52.4°F11.3°C 49.9°F9.9°C 91% 9.0 mph SSE14.5 kmh SSE 14.0 mph22.5 kmh 20.02 in678.0 mb 0.00 in0.0 mm 0.00 in0.0 mm 0.00 in0.0 mm
05:32 AM 52.4°F11.3°C 49.9°F9.9°C 91% 10.0 mph S16.1 kmh S 14.0 mph22.5 kmh 20.02 in678.0 mb 0.00 in0.0 mm 0.00 in0.0 mm 0.00 in0.0 mm
05:31 AM 52.4°F11.3°C 49.9°F9.9°C 91% 9.0 mph SE14.5 kmh SE 14.0 mph22.5 kmh 20.02 in678.0 mb 0.00 in0.0 mm 0.00 in0.0 mm 0.00 in0.0 mm
05:30 AM 52.4°F11.3°C 49.9°F9.9°C 91% 11.0 mph S17.7 kmh S 11.0 mph17.7 kmh 20.02 in678.0 mb 0.00 in0.0 mm 0.00 in0.0 mm 0.00 in0.0 mm
05:29 AM 52.4°F11.3°C 49.9°F9.9°C 91% 10.0 mph S16.1 kmh S 14.0 mph22.5 kmh 20.02 in678.0 mb 0.00 in0.0 mm 0.00 in0.0 mm 0.00 in0.0 mm
05:28 AM 52.4°F11.3°C 49.9°F9.9°C 91% 6.0 mph SE9.7 kmh SE 14.0 mph22.5 kmh 20.02 in678.0 mb 0.00 in0.0 mm 0.00 in0.0 mm 0.00 in0.0 mm
05:27 AM 52.4°F11.3°C 49.9°F9.9°C 91% 9.0 mph S14.5 kmh S 14.0 mph22.5 kmh 20.02 in678.0 mb 0.00 in0.0 mm 0.00 in0.0 mm 0.00 in0.0 mm
05:26 AM 52.4°F11.3°C 49.9°F9.9°C 91% 12.0 mph S19.3 kmh S 14.0 mph22.5 kmh 20.02 in678.0 mb 0.00 in0.0 mm 0.00 in0.0 mm 0.00 in0.0 mm
05:25 AM 52.4°F11.3°C 49.9°F9.9°C 91% 14.0 mph S22.5 kmh S 14.0 mph22.5 kmh 20.02 in678.0 mb 0.00 in0.0 mm 0.00 in0.0 mm 0.00 in0.0 mm
05:24 AM 52.4°F11.3°C 49.9°F9.9°C 91% 5.0 mph S8.0 kmh S 15.0 mph24.1 kmh 20.02 in678.0 mb 0.00 in0.0 mm 0.00 in0.0 mm 0.00 in0.0 mm
05:23 AM 52.4°F11.3°C 49.9°F9.9°C 91% 14.0 mph S22.5 kmh S 15.0 mph24.1 kmh 20.02 in678.0 mb 0.00 in0.0 mm 0.00 in0.0 mm 0.00 in0.0 mm
05:22 AM 52.4°F11.3°C 49.9°F9.9°C 91% 6.0 mph S9.7 kmh S 15.0 mph24.1 kmh 20.02 in678.0 mb 0.00 in0.0 mm 0.00 in0.0 mm 0.00 in0.0 mm
05:21 AM 52.4°F11.3°C 49.9°F9.9°C 91% 7.0 mph S11.3 kmh S 12.0 mph19.3 kmh 20.02 in678.0 mb 0.00 in0.0 mm 0.00 in0.0 mm 0.00 in0.0 mm
05:20 AM 52.4°F11.3°C 49.9°F9.9°C 91% 10.0 mph S16.1 kmh S 12.0 mph19.3 kmh 20.02 in678.0 mb 0.00 in0.0 mm 0.00 in0.0 mm 0.00 in0.0 mm
05:19 AM 52.4°F11.3°C 49.9°F9.9°C 91% 6.0 mph S9.7 kmh S 15.0 mph24.1 kmh 20.02 in678.0 mb 0.00 in0.0 mm 0.00 in0.0 mm 0.00 in0.0 mm
05:18 AM 52.5°F11.4°C 50.0°F10.0°C 91% 13.0 mph S20.9 kmh S 15.0 mph24.1 kmh 20.02 in678.0 mb 0.00 in0.0 mm 0.00 in0.0 mm 0.00 in0.0 mm
05:17 AM 52.5°F11.4°C 50.0°F10.0°C 91% 9.0 mph S14.5 kmh S 14.0 mph22.5 kmh 20.02 in678.0 mb 0.00 in0.0 mm 0.00 in0.0 mm 0.00 in0.0 mm
05:16 AM 52.5°F11.4°C 50.0°F10.0°C 91% 13.0 mph SSE20.9 kmh SSE 14.0 mph22.5 kmh 20.02 in678.0 mb 0.00 in0.0 mm 0.00 in0.0 mm 0.00 in0.0 mm
05:15 AM 52.5°F11.4°C 50.0°F10.0°C 91% 6.0 mph S9.7 kmh S 12.0 mph19.3 kmh 20.02 in678.0 mb 0.00 in0.0 mm 0.00 in0.0 mm 0.00 in0.0 mm
05:14 AM 52.5°F11.4°C 50.0°F10.0°C 91% 5.0 mph S8.0 kmh S 14.0 mph22.5 kmh 20.02 in678.0 mb 0.00 in0.0 mm 0.00 in0.0 mm 0.00 in0.0 mm
05:13 AM 52.5°F11.4°C 50.0°F10.0°C 91% 6.0 mph S9.7 kmh S 14.0 mph22.5 kmh 20.02 in678.0 mb 0.00 in0.0 mm 0.00 in0.0 mm 0.00 in0.0 mm
05:12 AM 52.5°F11.4°C 50.0°F10.0°C 91% 7.0 mph S11.3 kmh S 14.0 mph22.5 kmh 20.02 in678.0 mb 0.00 in0.0 mm 0.00 in0.0 mm 0.00 in0.0 mm
05:11 AM 52.5°F11.4°C 50.0°F10.0°C 91% 10.0 mph S16.1 kmh S 14.0 mph22.5 kmh 20.02 in678.0 mb 0.00 in0.0 mm 0.00 in0.0 mm 0.00 in0.0 mm
05:10 AM 52.5°F11.4°C 50.0°F10.0°C 91% 14.0 mph S22.5 kmh S 14.0 mph22.5 kmh 20.02 in678.0 mb 0.00 in0.0 mm 0.00 in0.0 mm 0.00 in0.0 mm
05:09 AM 52.5°F11.4°C 50.0°F10.0°C 91% 14.0 mph S22.5 kmh S 14.0 mph22.5 kmh 20.02 in678.0 mb 0.00 in0.0 mm 0.00 in0.0 mm 0.00 in0.0 mm
05:08 AM 52.5°F11.4°C 50.0°F10.0°C 91% 7.0 mph SSE11.3 kmh SSE 12.0 mph19.3 kmh 20.02 in678.0 mb 0.00 in0.0 mm 0.00 in0.0 mm 0.00 in0.0 mm
05:07 AM 52.5°F11.4°C 50.0°F10.0°C 91% 10.0 mph SSE16.1 kmh SSE 12.0 mph19.3 kmh 20.02 in678.0 mb 0.00 in0.0 mm 0.00 in0.0 mm 0.00 in0.0 mm
05:06 AM 52.5°F11.4°C 50.0°F10.0°C 91% 10.0 mph SSE16.1 kmh SSE 12.0 mph19.3 kmh 20.02 in678.0 mb 0.00 in0.0 mm 0.00 in0.0 mm 0.00 in0.0 mm
05:05 AM 52.5°F11.4°C 50.0°F10.0°C 91% 10.0 mph S16.1 kmh S 12.0 mph19.3 kmh 20.02 in678.0 mb 0.00 in0.0 mm 0.00 in0.0 mm 0.00 in0.0 mm
05:04 AM 52.5°F11.4°C 50.0°F10.0°C 91% 7.0 mph S11.3 kmh S 14.0 mph22.5 kmh 20.02 in678.0 mb 0.00 in0.0 mm 0.00 in0.0 mm 0.00 in0.0 mm
05:03 AM 52.5°F11.4°C 50.0°F10.0°C 91% 9.0 mph S14.5 kmh S 14.0 mph22.5 kmh 20.02 in678.0 mb 0.00 in0.0 mm 0.00 in0.0 mm 0.00 in0.0 mm
05:02 AM 52.5°F11.4°C 50.3°F10.2°C 92% 9.0 mph SSE14.5 kmh SSE 14.0 mph22.5 kmh 20.02 in678.0 mb 0.00 in0.0 mm 0.00 in0.0 mm 0.00 in0.0 mm
05:01 AM 52.5°F11.4°C 50.3°F10.2°C 92% 12.0 mph ESE19.3 kmh ESE 14.0 mph22.5 kmh 20.02 in678.0 mb 0.00 in0.0 mm 0.00 in0.0 mm 0.00 in0.0 mm
05:00 AM 52.5°F11.4°C 50.3°F10.2°C 92% 7.0 mph S11.3 kmh S 14.0 mph22.5 kmh 20.02 in678.0 mb 0.00 in0.0 mm 0.00 in0.0 mm 0.00 in0.0 mm
04:59 AM 52.5°F11.4°C 50.3°F10.2°C 92% 4.0 mph SSE6.4 kmh SSE 9.0 mph14.5 kmh 20.02 in678.0 mb 0.00 in0.0 mm 0.00 in0.0 mm 0.00 in0.0 mm
04:58 AM 52.5°F11.4°C 50.3°F10.2°C 92% 4.0 mph SSE6.4 kmh SSE 9.0 mph14.5 kmh 20.02 in678.0 mb 0.00 in0.0 mm 0.00 in0.0 mm 0.00 in0.0 mm
04:57 AM 52.6°F11.4°C 50.4°F10.2°C 92% 4.0 mph SSE6.4 kmh SSE 6.0 mph9.7 kmh 20.02 in678.0 mb 0.00 in0.0 mm 0.00 in0.0 mm 0.00 in0.0 mm
04:56 AM 52.6°F11.4°C 50.4°F10.2°C 92% 6.0 mph SSE9.7 kmh SSE 6.0 mph9.7 kmh 20.02 in678.0 mb 0.00 in0.0 mm 0.00 in0.0 mm 0.00 in0.0 mm
04:55 AM 52.5°F11.4°C 50.3°F10.2°C 92% 5.0 mph SSE8.0 kmh SSE 5.0 mph8.0 kmh 20.02 in678.0 mb 0.00 in0.0 mm 0.00 in0.0 mm 0.00 in0.0 mm
04:54 AM 52.6°F11.4°C 50.4°F10.2°C 92% 6.0 mph SSE9.7 kmh SSE 8.0 mph12.9 kmh 20.02 in678.0 mb 0.00 in0.0 mm 0.00 in0.0 mm 0.00 in0.0 mm
04:53 AM 52.6°F11.4°C 50.4°F10.2°C 92% 6.0 mph SSE9.7 kmh SSE 8.0 mph12.9 kmh 20.02 in678.0 mb 0.00 in0.0 mm 0.00 in0.0 mm 0.00 in0.0 mm
04:52 AM 52.6°F11.4°C 50.4°F10.2°C 92% 5.0 mph SE8.0 kmh SE 8.0 mph12.9 kmh 20.02 in678.0 mb 0.00 in0.0 mm 0.00 in0.0 mm 0.00 in0.0 mm
04:51 AM 52.6°F11.4°C 50.4°F10.2°C 92% 5.0 mph SE8.0 kmh SE 8.0 mph12.9 kmh 20.02 in678.0 mb 0.00 in0.0 mm 0.00 in0.0 mm 0.00 in0.0 mm
04:50 AM 52.6°F11.4°C 50.4°F10.2°C 92% 4.0 mph SSE6.4 kmh SSE 8.0 mph12.9 kmh 20.02 in678.0 mb 0.00 in0.0 mm 0.00 in0.0 mm 0.00 in0.0 mm
04:49 AM 52.6°F11.4°C 50.4°F10.2°C 92% 3.0 mph SSE4.8 kmh SSE 9.0 mph14.5 kmh 20.02 in678.0 mb 0.00 in0.0 mm 0.00 in0.0 mm 0.00 in0.0 mm
04:48 AM 52.6°F11.4°C 50.4°F10.2°C 92% 4.0 mph S6.4 kmh S 9.0 mph14.5 kmh 20.02 in678.0 mb 0.00 in0.0 mm 0.00 in0.0 mm 0.00 in0.0 mm
04:47 AM 52.6°F11.4°C 50.4°F10.2°C 92% 5.0 mph S8.0 kmh S 9.0 mph14.5 kmh 20.02 in678.0 mb 0.00 in0.0 mm 0.00 in0.0 mm 0.00 in0.0 mm
04:46 AM 52.6°F11.4°C 50.4°F10.2°C 92% 5.0 mph SSE8.0 kmh SSE 7.0 mph11.3 kmh 20.02 in678.0 mb 0.00 in0.0 mm 0.00 in0.0 mm 0.00 in0.0 mm
04:45 AM 52.6°F11.4°C 50.4°F10.2°C 92% 7.0 mph SSE11.3 kmh SSE 7.0 mph11.3 kmh 20.02 in678.0 mb 0.00 in0.0 mm 0.00 in0.0 mm 0.00 in0.0 mm
04:44 AM 52.6°F11.4°C 50.4°F10.2°C 92% 6.0 mph SSE9.7 kmh SSE 10.0 mph16.1 kmh 20.02 in678.0 mb 0.00 in0.0 mm 0.00 in0.0 mm 0.00 in0.0 mm
04:43 AM 52.6°F11.4°C 50.4°F10.2°C 92% 4.0 mph SSE6.4 kmh SSE 10.0 mph16.1 kmh 20.02 in678.0 mb 0.00 in0.0 mm 0.00 in0.0 mm 0.00 in0.0 mm
04:42 AM 52.6°F11.4°C 50.4°F10.2°C 92% 2.0 mph SSE3.2 kmh SSE 10.0 mph16.1 kmh 20.02 in678.0 mb 0.00 in0.0 mm 0.00 in0.0 mm 0.00 in0.0 mm
04:41 AM 52.6°F11.4°C 50.4°F10.2°C 92% 6.0 mph SSE9.7 kmh SSE 10.0 mph16.1 kmh 20.02 in678.0 mb 0.00 in0.0 mm 0.00 in0.0 mm 0.00 in0.0 mm
04:40 AM 52.6°F11.4°C 50.4°F10.2°C 92% 4.0 mph SE6.4 kmh SE 6.0 mph9.7 kmh 20.02 in678.0 mb 0.00 in0.0 mm 0.00 in0.0 mm 0.00 in0.0 mm
04:39 AM 52.7°F11.5°C 50.5°F10.3°C 92% 6.0 mph SE9.7 kmh SE 7.0 mph11.3 kmh 20.02 in678.0 mb 0.00 in0.0 mm 0.00 in0.0 mm 0.00 in0.0 mm
04:38 AM 52.7°F11.5°C 50.5°F10.3°C 92% 4.0 mph SE6.4 kmh SE 5.0 mph8.0 kmh 20.02 in678.0 mb 0.00 in0.0 mm 0.00 in0.0 mm 0.00 in0.0 mm
04:37 AM 52.7°F11.5°C 50.5°F10.3°C 92% 4.0 mph SE6.4 kmh SE 5.0 mph8.0 kmh 20.02 in678.0 mb 0.00 in0.0 mm 0.00 in0.0 mm 0.00 in0.0 mm
04:36 AM 52.7°F11.5°C 50.5°F10.3°C 92% 2.0 mph SE3.2 kmh SE 4.0 mph6.4 kmh 20.02 in678.0 mb 0.00 in0.0 mm 0.00 in0.0 mm 0.00 in0.0 mm
04:35 AM 52.7°F11.5°C 50.5°F10.3°C 92% Calm Calm 2.0 mph3.2 kmh 20.02 in678.0 mb 0.00 in0.0 mm 0.00 in0.0 mm 0.00 in0.0 mm
04:34 AM 52.7°F11.5°C 50.5°F10.3°C 92% 1.0 mph SE1.6 kmh SE 5.0 mph8.0 kmh 20.02 in678.0 mb 0.00 in0.0 mm 0.00 in0.0 mm 0.00 in0.0 mm
04:33 AM 52.7°F11.5°C 50.5°F10.3°C 92% 2.0 mph SE3.2 kmh SE 5.0 mph8.0 kmh 20.02 in678.0 mb 0.00 in0.0 mm 0.00 in0.0 mm 0.00 in0.0 mm
04:32 AM 52.7°F11.5°C 50.5°F10.3°C 92% 2.0 mph SE3.2 kmh SE 5.0 mph8.0 kmh 20.02 in678.0 mb 0.00 in0.0 mm 0.00 in0.0 mm 0.00 in0.0 mm
04:31 AM 52.7°F11.5°C 50.5°F10.3°C 92% 1.0 mph SE1.6 kmh SE 5.0 mph8.0 kmh 20.02 in678.0 mb 0.00 in0.0 mm 0.00 in0.0 mm 0.00 in0.0 mm
04:30 AM 52.7°F11.5°C 50.5°F10.3°C 92% 3.0 mph SE4.8 kmh SE 5.0 mph8.0 kmh 20.02 in678.0 mb 0.00 in0.0 mm 0.00 in0.0 mm 0.00 in0.0 mm
04:29 AM 52.7°F11.5°C 50.5°F10.3°C 92% 2.0 mph SE3.2 kmh SE 7.0 mph11.3 kmh 20.02 in678.0 mb 0.00 in0.0 mm 0.00 in0.0 mm 0.00 in0.0 mm
04:28 AM 52.8°F11.6°C 50.5°F10.3°C 92% 3.0 mph SE4.8 kmh SE 7.0 mph11.3 kmh 20.02 in678.0 mb 0.00 in0.0 mm 0.00 in0.0 mm 0.00 in0.0 mm
04:27 AM 52.8°F11.6°C 50.5°F10.3°C 92% 4.0 mph SE6.4 kmh SE 5.0 mph8.0 kmh 20.88 in707.1 mb 0.00 in0.0 mm 0.00 in0.0 mm 0.00 in0.0 mm
04:26 AM 52.8°F11.6°C 50.5°F10.3°C 92% 3.0 mph SE4.8 kmh SE 5.0 mph8.0 kmh 20.88 in707.1 mb 0.00 in0.0 mm 0.00 in0.0 mm 0.00 in0.0 mm
04:25 AM 52.8°F11.6°C 50.5°F10.3°C 92% 5.0 mph SE8.0 kmh SE 5.0 mph8.0 kmh 20.88 in707.1 mb 0.00 in0.0 mm 0.00 in0.0 mm 0.00 in0.0 mm
04:24 AM 52.8°F11.6°C 50.5°F10.3°C 92% 5.0 mph SE8.0 kmh SE 11.0 mph17.7 kmh 20.88 in707.1 mb 0.00 in0.0 mm 0.00 in0.0 mm 0.00 in0.0 mm
04:23 AM 52.8°F11.6°C 50.5°F10.3°C 92% 5.0 mph SE8.0 kmh SE 11.0 mph17.7 kmh 20.88 in707.1 mb 0.00 in0.0 mm 0.00 in0.0 mm 0.00 in0.0 mm
04:22 AM 52.8°F11.6°C 50.5°F10.3°C 92% 9.0 mph SE14.5 kmh SE 10.0 mph16.1 kmh 20.88 in707.1 mb 0.00 in0.0 mm 0.00 in0.0 mm 0.00 in0.0 mm
04:21 AM 52.8°F11.6°C 50.5°F10.3°C 92% 5.0 mph ESE8.0 kmh ESE 10.0 mph16.1 kmh 20.88 in707.1 mb 0.00 in0.0 mm 0.00 in0.0 mm 0.00 in0.0 mm
04:20 AM 52.8°F11.6°C 50.5°F10.3°C 92% 6.0 mph SE9.7 kmh SE 10.0 mph16.1 kmh 20.88 in707.1 mb 0.00 in0.0 mm 0.00 in0.0 mm 0.00 in0.0 mm
04:19 AM 52.8°F11.6°C 50.5°F10.3°C 92% 9.0 mph SE14.5 kmh SE 12.0 mph19.3 kmh 20.88 in707.1 mb 0.00 in0.0 mm 0.00 in0.0 mm 0.00 in0.0 mm
04:18 AM 52.8°F11.6°C 50.5°F10.3°C 92% 6.0 mph SE9.7 kmh SE 10.0 mph16.1 kmh 20.88 in707.1 mb 0.00 in0.0 mm 0.00 in0.0 mm 0.00 in0.0 mm
04:17 AM 52.8°F11.6°C 50.5°F10.3°C 92% 9.0 mph ESE14.5 kmh ESE 10.0 mph16.1 kmh 20.88 in707.1 mb 0.00 in0.0 mm 0.00 in0.0 mm 0.00 in0.0 mm
04:16 AM 52.8°F11.6°C 50.5°F10.3°C 92% 7.0 mph SE11.3 kmh SE 9.0 mph14.5 kmh 20.88 in707.1 mb 0.00 in0.0 mm 0.00 in0.0 mm 0.00 in0.0 mm
04:15 AM 52.8°F11.6°C 50.5°F10.3°C 92% 4.0 mph SE6.4 kmh SE 7.0 mph11.3 kmh 20.88 in707.1 mb 0.00 in0.0 mm 0.00 in0.0 mm 0.00 in0.0 mm
04:14 AM 52.8°F11.6°C 50.5°F10.3°C 92% 7.0 mph SE11.3 kmh SE 9.0 mph14.5 kmh 20.88 in707.1 mb 0.00 in0.0 mm 0.00 in0.0 mm 0.00 in0.0 mm
04:13 AM 52.8°F11.6°C 50.5°F10.3°C 92% 4.0 mph SE6.4 kmh SE 9.0 mph14.5 kmh 20.88 in707.1 mb 0.00 in0.0 mm 0.00 in0.0 mm 0.00 in0.0 mm
04:12 AM 52.8°F11.6°C 50.5°F10.3°C 92% 5.0 mph SE8.0 kmh SE 9.0 mph14.5 kmh 20.88 in707.1 mb 0.00 in0.0 mm 0.00 in0.0 mm 0.00 in0.0 mm
04:11 AM 52.8°F11.6°C 50.5°F10.3°C 92% 9.0 mph SE14.5 kmh SE 9.0 mph14.5 kmh 20.88 in707.1 mb 0.00 in0.0 mm 0.00 in0.0 mm 0.00 in0.0 mm
04:10 AM 52.8°F11.6°C 50.5°F10.3°C 92% 5.0 mph SE8.0 kmh SE 9.0 mph14.5 kmh 20.88 in707.1 mb 0.00 in0.0 mm 0.00 in0.0 mm 0.00 in0.0 mm
04:09 AM 52.8°F11.6°C 50.5°F10.3°C 92% 6.0 mph SE9.7 kmh SE 12.0 mph19.3 kmh 20.88 in707.1 mb 0.00 in0.0 mm 0.00 in0.0 mm 0.00 in0.0 mm
04:08 AM 52.8°F11.6°C 50.5°F10.3°C 92% 11.0 mph SE17.7 kmh SE 12.0 mph19.3 kmh 20.88 in707.1 mb 0.00 in0.0 mm 0.00 in0.0 mm 0.00 in0.0 mm
04:07 AM 52.8°F11.6°C 50.5°F10.3°C 92% 5.0 mph SE8.0 kmh SE 9.0 mph14.5 kmh 20.88 in707.1 mb 0.00 in0.0 mm 0.00 in0.0 mm 0.00 in0.0 mm
04:06 AM 52.8°F11.6°C 50.5°F10.3°C 92% 6.0 mph SE9.7 kmh SE 9.0 mph14.5 kmh 20.88 in707.1 mb 0.00 in0.0 mm 0.00 in0.0 mm 0.00 in0.0 mm
04:05 AM 52.8°F11.6°C 50.5°F10.3°C 92% 6.0 mph SE9.7 kmh SE 6.0 mph9.7 kmh 20.88 in707.1 mb 0.00 in0.0 mm 0.00 in0.0 mm 0.00 in0.0 mm
04:04 AM 52.8°F11.6°C 50.5°F10.3°C 92% 2.0 mph SE3.2 kmh SE 7.0 mph11.3 kmh 20.88 in707.1 mb 0.00 in0.0 mm 0.00 in0.0 mm 0.00 in0.0 mm
04:03 AM 52.8°F11.6°C 50.5°F10.3°C 92% 5.0 mph SE8.0 kmh SE 7.0 mph11.3 kmh 20.88 in707.1 mb 0.00 in0.0 mm 0.00 in0.0 mm 0.00 in0.0 mm
04:02 AM 52.8°F11.6°C 50.5°F10.3°C 92% 4.0 mph SE6.4 kmh SE 5.0 mph8.0 kmh 20.88 in707.1 mb 0.00 in0.0 mm 0.00 in0.0 mm 0.00 in0.0 mm
04:01 AM 52.8°F11.6°C 50.5°F10.3°C 92% 5.0 mph SE8.0 kmh SE 5.0 mph8.0 kmh 20.88 in707.1 mb 0.00 in0.0 mm 0.00 in0.0 mm 0.00 in0.0 mm
04:00 AM 52.9°F11.6°C 50.6°F10.3°C 92% 4.0 mph SE6.4 kmh SE 5.0 mph8.0 kmh 20.88 in707.1 mb 0.00 in0.0 mm 0.00 in0.0 mm 0.00 in0.0 mm
03:59 AM 52.8°F11.6°C 50.5°F10.3°C 92% 4.0 mph SE6.4 kmh SE 7.0 mph11.3 kmh 20.88 in707.1 mb 0.00 in0.0 mm 0.00 in0.0 mm 0.00 in0.0 mm
03:58 AM 52.8°F11.6°C 50.5°F10.3°C 92% 4.0 mph SE6.4 kmh SE 7.0 mph11.3 kmh 20.88 in707.1 mb 0.00 in0.0 mm 0.00 in0.0 mm 0.00 in0.0 mm
03:57 AM 52.8°F11.6°C 50.5°F10.3°C 92% 3.0 mph SE4.8 kmh SE 7.0 mph11.3 kmh 20.88 in707.1 mb 0.00 in0.0 mm 0.00 in0.0 mm 0.00 in0.0 mm
03:56 AM 52.8°F11.6°C 50.5°F10.3°C 92% 6.0 mph SE9.7 kmh SE 7.0 mph11.3 kmh 20.88 in707.1 mb 0.00 in0.0 mm 0.00 in0.0 mm 0.00 in0.0 mm
03:55 AM 52.8°F11.6°C 50.5°F10.3°C 92% 4.0 mph SE6.4 kmh SE 5.0 mph8.0 kmh 20.88 in707.1 mb 0.00 in0.0 mm 0.00 in0.0 mm 0.00 in0.0 mm
03:54 AM 52.8°F11.6°C 50.5°F10.3°C 92% 1.0 mph SE1.6 kmh SE 7.0 mph11.3 kmh 20.88 in707.1 mb 0.00 in0.0 mm 0.00 in0.0 mm 0.00 in0.0 mm
03:53 AM 52.9°F11.6°C 50.6°F10.3°C 92% 1.0 mph SE1.6 kmh SE 7.0 mph11.3 kmh 20.88 in707.1 mb 0.00 in0.0 mm 0.00 in0.0 mm 0.00 in0.0 mm
03:52 AM 52.8°F11.6°C 50.5°F10.3°C 92% 7.0 mph SE11.3 kmh SE 7.0 mph11.3 kmh 20.88 in707.1 mb 0.00 in0.0 mm 0.00 in0.0 mm 0.00 in0.0 mm
03:51 AM 52.8°F11.6°C 50.5°F10.3°C 92% 5.0 mph SE8.0 kmh SE 6.0 mph9.7 kmh 20.88 in707.1 mb 0.00 in0.0 mm 0.00 in0.0 mm 0.00 in0.0 mm
03:50 AM 52.9°F11.6°C 50.6°F10.3°C 92% 4.0 mph SE6.4 kmh SE 6.0 mph9.7 kmh 20.88 in707.1 mb 0.00 in0.0 mm 0.00 in0.0 mm 0.00 in0.0 mm
03:49 AM 52.9°F11.6°C 50.6°F10.3°C 92% 4.0 mph SE6.4 kmh SE 6.0 mph9.7 kmh 20.88 in707.1 mb 0.00 in0.0 mm 0.00 in0.0 mm 0.00 in0.0 mm
03:48 AM 52.9°F11.6°C 50.6°F10.3°C 92% 4.0 mph SE6.4 kmh SE 6.0 mph9.7 kmh 20.88 in707.1 mb 0.00 in0.0 mm 0.00 in0.0 mm 0.00 in0.0 mm
03:47 AM 52.9°F11.6°C 50.6°F10.3°C 92% 3.0 mph SE4.8 kmh SE 6.0 mph9.7 kmh 20.88 in707.1 mb 0.00 in0.0 mm 0.00 in0.0 mm 0.00 in0.0 mm
03:46 AM 52.9°F11.6°C 50.6°F10.3°C 92% 3.0 mph SE4.8 kmh SE 6.0 mph9.7 kmh 20.88 in707.1 mb 0.00 in0.0 mm 0.00 in0.0 mm 0.00 in0.0 mm
03:45 AM 52.9°F11.6°C 50.6°F10.3°C 92% 3.0 mph SE4.8 kmh SE 6.0 mph9.7 kmh 20.88 in707.1 mb 0.00 in0.0 mm 0.00 in0.0 mm 0.00 in0.0 mm
03:44 AM 52.9°F11.6°C 50.6°F10.3°C 92% 4.0 mph SE6.4 kmh SE 7.0 mph11.3 kmh 20.88 in707.1 mb 0.00 in0.0 mm 0.00 in0.0 mm 0.00 in0.0 mm
03:43 AM 52.9°F11.6°C 50.6°F10.3°C 92% 2.0 mph ESE3.2 kmh ESE 7.0 mph11.3 kmh 20.88 in707.1 mb 0.00 in0.0 mm 0.00 in0.0 mm 0.00 in0.0 mm
03:42 AM 52.9°F11.6°C 50.6°F10.3°C 92% 5.0 mph SE8.0 kmh SE 7.0 mph11.3 kmh 20.88 in707.1 mb 0.00 in0.0 mm 0.00 in0.0 mm 0.00 in0.0 mm
03:41 AM 52.9°F11.6°C 50.6°F10.3°C 92% 3.0 mph SE4.8 kmh SE 7.0 mph11.3 kmh 20.88 in707.1 mb 0.00 in0.0 mm 0.00 in0.0 mm 0.00 in0.0 mm
03:40 AM 52.9°F11.6°C 50.6°F10.3°C 92% 6.0 mph ESE9.7 kmh ESE 6.0 mph9.7 kmh 20.88 in707.1 mb 0.00 in0.0 mm 0.00 in0.0 mm 0.00 in0.0 mm
03:39 AM 52.9°F11.6°C 50.6°F10.3°C 92% 3.0 mph SE4.8 kmh SE 7.0 mph11.3 kmh 19.43 in658.0 mb 0.00 in0.0 mm 0.00 in0.0 mm 0.00 in0.0 mm
03:38 AM 52.9°F11.6°C 50.6°F10.3°C 92% 6.0 mph SE9.7 kmh SE 7.0 mph11.3 kmh 19.43 in658.0 mb 0.00 in0.0 mm 0.00 in0.0 mm 0.00 in0.0 mm
03:37 AM 52.9°F11.6°C 50.6°F10.3°C 92% 7.0 mph ESE11.3 kmh ESE 7.0 mph11.3 kmh 19.43 in658.0 mb 0.00 in0.0 mm 0.00 in0.0 mm 0.00 in0.0 mm
03:36 AM 53.0°F11.7°C 50.7°F10.4°C 92% 5.0 mph ESE8.0 kmh ESE 6.0 mph9.7 kmh 19.43 in658.0 mb 0.00 in0.0 mm 0.00 in0.0 mm 0.00 in0.0 mm
03:35 AM 52.9°F11.6°C 50.6°F10.3°C 92% 6.0 mph ESE9.7 kmh ESE 6.0 mph9.7 kmh 19.43 in658.0 mb 0.00 in0.0 mm 0.00 in0.0 mm 0.00 in0.0 mm
03:34 AM 53.0°F11.7°C 50.7°F10.4°C 92% 9.0 mph SE14.5 kmh SE 10.0 mph16.1 kmh 19.43 in658.0 mb 0.00 in0.0 mm 0.00 in0.0 mm 0.00 in0.0 mm
03:33 AM 53.0°F11.7°C 50.7°F10.4°C 92% 7.0 mph SE11.3 kmh SE 10.0 mph16.1 kmh 19.43 in658.0 mb 0.00 in0.0 mm 0.00 in0.0 mm 0.00 in0.0 mm
03:32 AM 53.0°F11.7°C 50.7°F10.4°C 92% 4.0 mph SE6.4 kmh SE 10.0 mph16.1 kmh 19.43 in658.0 mb 0.00 in0.0 mm 0.00 in0.0 mm 0.00 in0.0 mm
03:31 AM 53.0°F11.7°C 50.7°F10.4°C 92% 6.0 mph SE9.7 kmh SE 10.0 mph16.1 kmh 19.43 in658.0 mb 0.00 in0.0 mm 0.00 in0.0 mm 0.00 in0.0 mm
03:30 AM 53.0°F11.7°C 50.7°F10.4°C 92% 5.0 mph SE8.0 kmh SE 7.0 mph11.3 kmh 19.43 in658.0 mb 0.00 in0.0 mm 0.00 in0.0 mm 0.00 in0.0 mm
03:29 AM 53.0°F11.7°C 50.7°F10.4°C 92% 4.0 mph SE6.4 kmh SE 7.0 mph11.3 kmh 19.43 in658.0 mb 0.00 in0.0 mm 0.00 in0.0 mm 0.00 in0.0 mm
03:28 AM 53.0°F11.7°C 50.7°F10.4°C 92% 7.0 mph SE11.3 kmh SE 7.0 mph11.3 kmh 19.43 in658.0 mb 0.00 in0.0 mm 0.00 in0.0 mm 0.00 in0.0 mm
03:27 AM 53.0°F11.7°C 50.7°F10.4°C 92% 5.0 mph SE8.0 kmh SE 6.0 mph9.7 kmh 19.43 in658.0 mb 0.00 in0.0 mm 0.00 in0.0 mm 0.00 in0.0 mm
03:26 AM 53.0°F11.7°C 50.7°F10.4°C 92% 2.0 mph SE3.2 kmh SE 6.0 mph9.7 kmh 19.43 in658.0 mb 0.00 in0.0 mm 0.00 in0.0 mm 0.00 in0.0 mm
03:25 AM 53.0°F11.7°C 50.7°F10.4°C 92% 4.0 mph SE6.4 kmh SE 5.0 mph8.0 kmh 19.43 in658.0 mb 0.00 in0.0 mm 0.00 in0.0 mm 0.00 in0.0 mm
03:24 AM 53.0°F11.7°C 50.7°F10.4°C 92% 5.0 mph SE8.0 kmh SE 8.0 mph12.9 kmh 19.43 in658.0 mb 0.00 in0.0 mm 0.00 in0.0 mm 0.00 in0.0 mm
03:23 AM 53.0°F11.7°C 50.7°F10.4°C 92% 6.0 mph SE9.7 kmh SE 8.0 mph12.9 kmh 19.43 in658.0 mb 0.00 in0.0 mm 0.00 in0.0 mm 0.00 in0.0 mm
03:22 AM 53.0°F11.7°C 50.7°F10.4°C 92% 3.0 mph SE4.8 kmh SE 8.0 mph12.9 kmh 19.43 in658.0 mb 0.00 in0.0 mm 0.00 in0.0 mm 0.00 in0.0 mm
03:21 AM 53.0°F11.7°C 50.7°F10.4°C 92% 3.0 mph SE4.8 kmh SE 8.0 mph12.9 kmh 19.43 in658.0 mb 0.00 in0.0 mm 0.00 in0.0 mm 0.00 in0.0 mm
03:20 AM 53.0°F11.7°C 50.7°F10.4°C 92% 7.0 mph SE11.3 kmh SE 7.0 mph11.3 kmh 19.43 in658.0 mb 0.00 in0.0 mm 0.00 in0.0 mm 0.00 in0.0 mm
03:19 AM 53.0°F11.7°C 50.7°F10.4°C 92% 3.0 mph SE4.8 kmh SE 6.0 mph9.7 kmh 19.43 in658.0 mb 0.00 in0.0 mm 0.00 in0.0 mm 0.00 in0.0 mm
03:18 AM 53.0°F11.7°C 50.7°F10.4°C 92% 3.0 mph SE4.8 kmh SE 6.0 mph9.7 kmh 19.43 in658.0 mb 0.00 in0.0 mm 0.00 in0.0 mm 0.00 in0.0 mm
03:17 AM 53.0°F11.7°C 50.7°F10.4°C 92% 4.0 mph SE6.4 kmh SE 6.0 mph9.7 kmh 19.43 in658.0 mb 0.00 in0.0 mm 0.00 in0.0 mm 0.00 in0.0 mm
03:16 AM 53.0°F11.7°C 50.7°F10.4°C 92% 6.0 mph SE9.7 kmh SE 6.0 mph9.7 kmh 19.43 in658.0 mb 0.00 in0.0 mm 0.00 in0.0 mm 0.00 in0.0 mm
03:15 AM 53.0°F11.7°C 50.7°F10.4°C 92% 3.0 mph SE4.8 kmh SE 4.0 mph6.4 kmh 19.43 in658.0 mb 0.00 in0.0 mm 0.00 in0.0 mm 0.00 in0.0 mm
03:14 AM 53.0°F11.7°C 50.7°F10.4°C 92% 3.0 mph SE4.8 kmh SE 6.0 mph9.7 kmh 19.43 in658.0 mb 0.00 in0.0 mm 0.00 in0.0 mm 0.00 in0.0 mm
03:13 AM 53.0°F11.7°C 50.7°F10.4°C 92% 3.0 mph SE4.8 kmh SE 6.0 mph9.7 kmh 19.43 in658.0 mb 0.00 in0.0 mm 0.00 in0.0 mm 0.00 in0.0 mm
03:12 AM 53.1°F11.7°C 50.8°F10.4°C 92% 3.0 mph SE4.8 kmh SE 6.0 mph9.7 kmh 19.43 in658.0 mb 0.00 in0.0 mm 0.00 in0.0 mm 0.00 in0.0 mm
03:11 AM 53.1°F11.7°C 50.8°F10.4°C 92% 3.0 mph SE4.8 kmh SE 6.0 mph9.7 kmh 19.43 in658.0 mb 0.00 in0.0 mm 0.00 in0.0 mm 0.00 in0.0 mm
03:10 AM 53.1°F11.7°C 50.8°F10.4°C 92% 4.0 mph ESE6.4 kmh ESE 6.0 mph9.7 kmh 19.43 in658.0 mb 0.00 in0.0 mm 0.00 in0.0 mm 0.00 in0.0 mm
03:09 AM 53.1°F11.7°C 50.8°F10.4°C 92% 6.0 mph ESE9.7 kmh ESE 10.0 mph16.1 kmh 19.43 in658.0 mb 0.00 in0.0 mm 0.00 in0.0 mm 0.00 in0.0 mm
03:08 AM 53.1°F11.7°C 50.8°F10.4°C 92% 3.0 mph SE4.8 kmh SE 10.0 mph16.1 kmh 19.43 in658.0 mb 0.00 in0.0 mm 0.00 in0.0 mm 0.00 in0.0 mm
03:07 AM 53.1°F11.7°C 50.8°F10.4°C 92% 4.0 mph SE6.4 kmh SE 10.0 mph16.1 kmh 19.43 in658.0 mb 0.00 in0.0 mm 0.00 in0.0 mm 0.00 in0.0 mm
03:06 AM 53.2°F11.8°C 50.9°F10.5°C 92% 8.0 mph SE12.9 kmh SE 10.0 mph16.1 kmh 19.43 in658.0 mb 0.00 in0.0 mm 0.00 in0.0 mm 0.00 in0.0 mm
03:05 AM 53.2°F11.8°C 50.9°F10.5°C 92% 4.0 mph SE6.4 kmh SE 9.0 mph14.5 kmh 19.43 in658.0 mb 0.00 in0.0 mm 0.00 in0.0 mm 0.00 in0.0 mm
03:04 AM 53.2°F11.8°C 50.9°F10.5°C 92% 10.0 mph ESE16.1 kmh ESE 11.0 mph17.7 kmh 19.43 in658.0 mb 0.00 in0.0 mm 0.00 in0.0 mm 0.00 in0.0 mm
03:03 AM 53.3°F11.8°C 51.0°F10.6°C 92% 10.0 mph ESE16.1 kmh ESE 11.0 mph17.7 kmh 19.43 in658.0 mb 0.00 in0.0 mm 0.00 in0.0 mm 0.00 in0.0 mm
03:02 AM 53.3°F11.8°C 51.0°F10.6°C 92% 5.0 mph SE8.0 kmh SE 9.0 mph14.5 kmh 19.43 in658.0 mb 0.00 in0.0 mm 0.00 in0.0 mm 0.00 in0.0 mm
03:01 AM 53.3°F11.8°C 51.0°F10.6°C 92% 6.0 mph SE9.7 kmh SE 9.0 mph14.5 kmh 19.43 in658.0 mb 0.00 in0.0 mm 0.00 in0.0 mm 0.00 in0.0 mm
03:00 AM 53.4°F11.9°C 51.1°F10.6°C 92% 9.0 mph SE14.5 kmh SE 9.0 mph14.5 kmh 19.43 in658.0 mb 0.00 in0.0 mm 0.00 in0.0 mm 0.00 in0.0 mm
02:59 AM 53.5°F11.9°C 51.2°F10.7°C 92% 10.0 mph ESE16.1 kmh ESE 10.0 mph16.1 kmh 19.43 in658.0 mb 0.00 in0.0 mm 0.00 in0.0 mm 0.00 in0.0 mm
02:58 AM 53.5°F11.9°C 51.2°F10.7°C 92% 5.0 mph SE8.0 kmh SE 9.0 mph14.5 kmh 19.43 in658.0 mb 0.00 in0.0 mm 0.00 in0.0 mm 0.00 in0.0 mm
02:57 AM 53.5°F11.9°C 51.2°F10.7°C 92% 4.0 mph SE6.4 kmh SE 9.0 mph14.5 kmh 19.43 in658.0 mb 0.00 in0.0 mm 0.00 in0.0 mm 0.00 in0.0 mm
02:56 AM 53.5°F11.9°C 51.2°F10.7°C 92% 7.0 mph SE11.3 kmh SE 9.0 mph14.5 kmh 19.43 in658.0 mb 0.00 in0.0 mm 0.00 in0.0 mm 0.00 in0.0 mm
02:55 AM 53.6°F12.0°C 51.6°F10.9°C 93% 4.0 mph SE6.4 kmh SE 9.0 mph14.5 kmh 19.43 in658.0 mb 0.00 in0.0 mm 0.00 in0.0 mm 0.00 in0.0 mm
02:54 AM 53.6°F12.0°C 51.6°F10.9°C 93% 4.0 mph ESE6.4 kmh ESE 10.0 mph16.1 kmh 19.43 in658.0 mb 0.00 in0.0 mm 0.00 in0.0 mm 0.00 in0.0 mm
02:53 AM 53.7°F12.1°C 51.7°F10.9°C 93% 6.0 mph SE9.7 kmh SE 10.0 mph16.1 kmh 19.43 in658.0 mb 0.00 in0.0 mm 0.00 in0.0 mm 0.00 in0.0 mm
02:52 AM 53.7°F12.1°C 51.7°F10.9°C 93% 9.0 mph SE14.5 kmh SE 10.0 mph16.1 kmh 19.43 in658.0 mb 0.00 in0.0 mm 0.00 in0.0 mm 0.00 in0.0 mm
02:51 AM 53.7°F12.1°C 51.7°F10.9°C 93% 9.0 mph SE14.5 kmh SE 9.0 mph14.5 kmh 19.43 in658.0 mb 0.00 in0.0 mm 0.00 in0.0 mm 0.00 in0.0 mm
02:50 AM 53.7°F12.1°C 51.7°F10.9°C 93% 5.0 mph SE8.0 kmh SE 8.0 mph12.9 kmh 19.43 in658.0 mb 0.00 in0.0 mm 0.00 in0.0 mm 0.00 in0.0 mm
02:49 AM 53.8°F12.1°C 51.8°F11.0°C 93% 7.0 mph SE11.3 kmh SE 11.0 mph17.7 kmh 19.43 in658.0 mb 0.00 in0.0 mm 0.00 in0.0 mm 0.00 in0.0 mm
02:48 AM 53.8°F12.1°C 51.8°F11.0°C 93% 6.0 mph ESE9.7 kmh ESE 11.0 mph17.7 kmh 19.43 in658.0 mb 0.00 in0.0 mm 0.00 in0.0 mm 0.00 in0.0 mm
02:47 AM 53.8°F12.1°C 51.8°F11.0°C 93% 4.0 mph ESE6.4 kmh ESE 11.0 mph17.7 kmh 19.43 in658.0 mb 0.00 in0.0 mm 0.00 in0.0 mm 0.00 in0.0 mm
02:46 AM 53.8°F12.1°C 51.8°F11.0°C 93% 11.0 mph SE17.7 kmh SE 11.0 mph17.7 kmh 19.43 in658.0 mb 0.00 in0.0 mm 0.00 in0.0 mm 0.00 in0.0 mm
02:45 AM 53.8°F12.1°C 51.8°F11.0°C 93% 7.0 mph ESE11.3 kmh ESE 7.0 mph11.3 kmh 19.43 in658.0 mb 0.00 in0.0 mm 0.00 in0.0 mm 0.00 in0.0 mm
02:44 AM 53.9°F12.2°C 51.9°F11.1°C 93% 5.0 mph SE8.0 kmh SE 9.0 mph14.5 kmh 19.43 in658.0 mb 0.00 in0.0 mm 0.00 in0.0 mm 0.00 in0.0 mm
02:43 AM 53.9°F12.2°C 51.9°F11.1°C 93% 9.0 mph SE14.5 kmh SE 9.0 mph14.5 kmh 19.43 in658.0 mb 0.00 in0.0 mm 0.00 in0.0 mm 0.00 in0.0 mm
02:42 AM 53.8°F12.1°C 51.8°F11.0°C 93% 7.0 mph SE11.3 kmh SE 9.0 mph14.5 kmh 19.43 in658.0 mb 0.00 in0.0 mm 0.00 in0.0 mm 0.00 in0.0 mm
02:41 AM 53.9°F12.2°C 51.9°F11.1°C 93% 6.0 mph SE9.7 kmh SE 9.0 mph14.5 kmh 19.43 in658.0 mb 0.00 in0.0 mm 0.00 in0.0 mm 0.00 in0.0 mm
02:40 AM 53.9°F12.2°C 51.9°F11.1°C 93% 8.0 mph SE12.9 kmh SE 8.0 mph12.9 kmh 19.43 in658.0 mb 0.00 in0.0 mm 0.00 in0.0 mm 0.00 in0.0 mm
02:39 AM 53.9°F12.2°C 51.9°F11.1°C 93% 7.0 mph SE11.3 kmh SE 10.0 mph16.1 kmh 19.43 in658.0 mb 0.00 in0.0 mm 0.00 in0.0 mm 0.00 in0.0 mm
02:38 AM 53.9°F12.2°C 51.9°F11.1°C 93% 6.0 mph SE9.7 kmh SE 10.0 mph16.1 kmh 19.43 in658.0 mb 0.00 in0.0 mm 0.00 in0.0 mm 0.00 in0.0 mm
02:37 AM 53.9°F12.2°C 51.9°F11.1°C 93% 8.0 mph SE12.9 kmh SE 10.0 mph16.1 kmh 19.43 in658.0 mb 0.00 in0.0 mm 0.00 in0.0 mm 0.00 in0.0 mm
02:36 AM 53.9°F12.2°C 51.9°F11.1°C 93% 4.0 mph SE6.4 kmh SE 9.0 mph14.5 kmh 19.43 in658.0 mb 0.00 in0.0 mm 0.00 in0.0 mm 0.00 in0.0 mm
02:35 AM 53.9°F12.2°C 51.9°F11.1°C 93% 5.0 mph SE8.0 kmh SE 9.0 mph14.5 kmh 19.43 in658.0 mb 0.00 in0.0 mm 0.00 in0.0 mm 0.00 in0.0 mm
02:34 AM 53.9°F12.2°C 51.9°F11.1°C 93% 8.0 mph ESE12.9 kmh ESE 11.0 mph17.7 kmh 19.43 in658.0 mb 0.00 in0.0 mm 0.00 in0.0 mm 0.00 in0.0 mm
02:33 AM 53.9°F12.2°C 51.9°F11.1°C 93% 7.0 mph SE11.3 kmh SE 11.0 mph17.7 kmh 19.43 in658.0 mb 0.00 in0.0 mm 0.00 in0.0 mm 0.00 in0.0 mm
02:32 AM 53.9°F12.2°C 51.9°F11.1°C 93% 9.0 mph E14.5 kmh E 11.0 mph17.7 kmh 19.43 in658.0 mb 0.00 in0.0 mm 0.00 in0.0 mm 0.00 in0.0 mm
02:31 AM 53.9°F12.2°C 51.9°F11.1°C 93% 6.0 mph SE9.7 kmh SE 9.0 mph14.5 kmh 19.43 in658.0 mb 0.00 in0.0 mm 0.00 in0.0 mm 0.00 in0.0 mm
02:30 AM 53.9°F12.2°C 51.9°F11.1°C 93% 9.0 mph SE14.5 kmh SE 9.0 mph14.5 kmh 19.43 in658.0 mb 0.00 in0.0 mm 0.00 in0.0 mm 0.00 in0.0 mm
02:29 AM 53.9°F12.2°C 51.9°F11.1°C 93% 3.0 mph SE4.8 kmh SE 12.0 mph19.3 kmh 19.43 in658.0 mb 0.00 in0.0 mm 0.00 in0.0 mm 0.00 in0.0 mm
02:28 AM 53.9°F12.2°C 51.9°F11.1°C 93% 3.0 mph SE4.8 kmh SE 12.0 mph19.3 kmh 19.43 in658.0 mb 0.00 in0.0 mm 0.00 in0.0 mm 0.00 in0.0 mm
02:27 AM 53.9°F12.2°C 51.9°F11.1°C 93% 9.0 mph SE14.5 kmh SE 12.0 mph19.3 kmh 19.43 in658.0 mb 0.00 in0.0 mm 0.00 in0.0 mm 0.00 in0.0 mm
02:26 AM 53.9°F12.2°C 51.9°F11.1°C 93% 6.0 mph SE9.7 kmh SE 12.0 mph19.3 kmh 19.43 in658.0 mb 0.00 in0.0 mm 0.00 in0.0 mm 0.00 in0.0 mm
02:25 AM 53.9°F12.2°C 51.9°F11.1°C 93% 7.0 mph SE11.3 kmh SE 10.0 mph16.1 kmh 19.43 in658.0 mb 0.00 in0.0 mm 0.00 in0.0 mm 0.00 in0.0 mm
02:24 AM 54.0°F12.2°C 52.0°F11.1°C 93% 4.0 mph SE6.4 kmh SE 10.0 mph16.1 kmh 19.43 in658.0 mb 0.00 in0.0 mm 0.00 in0.0 mm 0.00 in0.0 mm
02:23 AM 54.0°F12.2°C 52.0°F11.1°C 93% 3.0 mph SE4.8 kmh SE 10.0 mph16.1 kmh 19.43 in658.0 mb 0.00 in0.0 mm 0.00 in0.0 mm 0.00 in0.0 mm
02:22 AM 54.0°F12.2°C 52.3°F11.3°C 94% 2.0 mph ESE3.2 kmh ESE 9.0 mph14.5 kmh 19.43 in658.0 mb 0.00 in0.0 mm 0.00 in0.0 mm 0.00 in0.0 mm
02:21 AM 54.0°F12.2°C 52.0°F11.1°C 93% 8.0 mph SE12.9 kmh SE 9.0 mph14.5 kmh 19.43 in658.0 mb 0.00 in0.0 mm 0.00 in0.0 mm 0.00 in0.0 mm
02:20 AM 54.0°F12.2°C 52.0°F11.1°C 93% 8.0 mph SE12.9 kmh SE 8.0 mph12.9 kmh 19.43 in658.0 mb 0.00 in0.0 mm 0.00 in0.0 mm 0.00 in0.0 mm
02:19 AM 54.0°F12.2°C 52.0°F11.1°C 93% 4.0 mph SE6.4 kmh SE 9.0 mph14.5 kmh 19.43 in658.0 mb 0.00 in0.0 mm 0.00 in0.0 mm 0.00 in0.0 mm
02:18 AM 54.0°F12.2°C 52.0°F11.1°C 93% 4.0 mph SE6.4 kmh SE 9.0 mph14.5 kmh 19.43 in658.0 mb 0.00 in0.0 mm 0.00 in0.0 mm 0.00 in0.0 mm
02:17 AM 53.9°F12.2°C 51.9°F11.1°C 93% 1.0 mph SE1.6 kmh SE 9.0 mph14.5 kmh 19.43 in658.0 mb 0.00 in0.0 mm 0.00 in0.0 mm 0.00 in0.0 mm
02:16 AM 54.0°F12.2°C 52.3°F11.3°C 94% 5.0 mph SE8.0 kmh SE 6.0 mph9.7 kmh 19.43 in658.0 mb 0.00 in0.0 mm 0.00 in0.0 mm 0.00 in0.0 mm
02:15 AM 53.9°F12.2°C 52.2°F11.2°C 94% 6.0 mph SE9.7 kmh SE 6.0 mph9.7 kmh 19.43 in658.0 mb 0.00 in0.0 mm 0.00 in0.0 mm 0.00 in0.0 mm
02:14 AM 54.0°F12.2°C 52.3°F11.3°C 94% 3.0 mph ESE4.8 kmh ESE 9.0 mph14.5 kmh 19.43 in658.0 mb 0.00 in0.0 mm 0.00 in0.0 mm 0.00 in0.0 mm
02:13 AM 53.9°F12.2°C 52.2°F11.2°C 94% 6.0 mph ESE9.7 kmh ESE 9.0 mph14.5 kmh 19.43 in658.0 mb 0.00 in0.0 mm 0.00 in0.0 mm 0.00 in0.0 mm
02:12 AM 53.9°F12.2°C 52.2°F11.2°C 94% 4.0 mph SE6.4 kmh SE 9.0 mph14.5 kmh 19.43 in658.0 mb 0.00 in0.0 mm 0.00 in0.0 mm 0.00 in0.0 mm
02:11 AM 53.9°F12.2°C 52.2°F11.2°C 94% 3.0 mph SE4.8 kmh SE 9.0 mph14.5 kmh 19.43 in658.0 mb 0.00 in0.0 mm 0.00 in0.0 mm 0.00 in0.0 mm
02:10 AM 53.9°F12.2°C 52.2°F11.2°C 94% 5.0 mph SE8.0 kmh SE 6.0 mph9.7 kmh 19.43 in658.0 mb 0.00 in0.0 mm 0.00 in0.0 mm 0.00 in0.0 mm
02:09 AM 53.9°F12.2°C 52.2°F11.2°C 94% 4.0 mph SE6.4 kmh SE 10.0 mph16.1 kmh 19.43 in658.0 mb 0.00 in0.0 mm 0.00 in0.0 mm 0.00 in0.0 mm
02:08 AM 53.9°F12.2°C 52.2°F11.2°C 94% Calm Calm 10.0 mph16.1 kmh 19.43 in658.0 mb 0.00 in0.0 mm 0.00 in0.0 mm 0.00 in0.0 mm
02:07 AM 53.9°F12.2°C 52.2°F11.2°C 94% 3.0 mph SE4.8 kmh SE 10.0 mph16.1 kmh 19.43 in658.0 mb 0.00 in0.0 mm 0.00 in0.0 mm 0.00 in0.0 mm
02:06 AM 53.9°F12.2°C 52.2°F11.2°C 94% 4.0 mph SE6.4 kmh SE 10.0 mph16.1 kmh 19.43 in658.0 mb 0.00 in0.0 mm 0.00 in0.0 mm 0.00 in0.0 mm
02:05 AM 53.9°F12.2°C 52.2°F11.2°C 94% Calm Calm 3.0 mph4.8 kmh 19.43 in658.0 mb 0.00 in0.0 mm 0.00 in0.0 mm 0.00 in0.0 mm
02:04 AM 53.8°F12.1°C 52.1°F11.2°C 94% Calm Calm 10.0 mph16.1 kmh 19.43 in658.0 mb 0.00 in0.0 mm 0.00 in0.0 mm 0.00 in0.0 mm
02:03 AM 53.8°F12.1°C 52.1°F11.2°C 94% 7.0 mph ESE11.3 kmh ESE 10.0 mph16.1 kmh 19.43 in658.0 mb 0.00 in0.0 mm 0.00 in0.0 mm 0.00 in0.0 mm
02:02 AM 53.9°F12.2°C 52.2°F11.2°C 94% 5.0 mph E8.0 kmh E 10.0 mph16.1 kmh 19.43 in658.0 mb 0.00 in0.0 mm 0.00 in0.0 mm 0.00 in0.0 mm
02:01 AM 53.8°F12.1°C 52.1°F11.2°C 94% 2.0 mph SE3.2 kmh SE 10.0 mph16.1 kmh 19.43 in658.0 mb 0.00 in0.0 mm 0.00 in0.0 mm 0.00 in0.0 mm
02:00 AM 53.8°F12.1°C 52.1°F11.2°C 94% 6.0 mph SE9.7 kmh SE 10.0 mph16.1 kmh 19.43 in658.0 mb 0.00 in0.0 mm 0.00 in0.0 mm 0.00 in0.0 mm
01:59 AM 53.8°F12.1°C 52.1°F11.2°C 94% Calm Calm 7.0 mph11.3 kmh 19.43 in658.0 mb 0.00 in0.0 mm 0.00 in0.0 mm 0.00 in0.0 mm
01:58 AM 53.8°F12.1°C 52.1°F11.2°C 94% 4.0 mph SE6.4 kmh SE 7.0 mph11.3 kmh 19.43 in658.0 mb 0.00 in0.0 mm 0.00 in0.0 mm 0.00 in0.0 mm
01:57 AM 53.9°F12.2°C 52.2°F11.2°C 94% 4.0 mph SE6.4 kmh SE 7.0 mph11.3 kmh 19.43 in658.0 mb 0.00 in0.0 mm 0.00 in0.0 mm 0.00 in0.0 mm
01:56 AM 53.8°F12.1°C 52.1°F11.2°C 94% 4.0 mph SE6.4 kmh SE 7.0 mph11.3 kmh 19.43 in658.0 mb 0.00 in0.0 mm 0.00 in0.0 mm 0.00 in0.0 mm
01:55 AM 53.8°F12.1°C 52.1°F11.2°C 94% Calm Calm 7.0 mph11.3 kmh 19.43 in658.0 mb 0.00 in0.0 mm 0.00 in0.0 mm 0.00 in0.0 mm
01:54 AM 53.8°F12.1°C 52.1°F11.2°C 94% 2.0 mph SE3.2 kmh SE 9.0 mph14.5 kmh 19.43 in658.0 mb 0.00 in0.0 mm 0.00 in0.0 mm 0.00 in0.0 mm
01:53 AM 53.8°F12.1°C 52.1°F11.2°C 94% 1.0 mph ESE1.6 kmh ESE 9.0 mph14.5 kmh 19.43 in658.0 mb 0.00 in0.0 mm 0.00 in0.0 mm 0.00 in0.0 mm
01:52 AM 53.8°F12.1°C 52.1°F11.2°C 94% 9.0 mph ESE14.5 kmh ESE 9.0 mph14.5 kmh 19.43 in658.0 mb 0.00 in0.0 mm 0.00 in0.0 mm 0.00 in0.0 mm
01:51 AM 53.8°F12.1°C 52.1°F11.2°C 94% 4.0 mph SE6.4 kmh SE 7.0 mph11.3 kmh 19.43 in658.0 mb 0.00 in0.0 mm 0.00 in0.0 mm 0.00 in0.0 mm
01:50 AM 53.8°F12.1°C 52.1°F11.2°C 94% 2.0 mph SE3.2 kmh SE 7.0 mph11.3 kmh 19.43 in658.0 mb 0.00 in0.0 mm 0.00 in0.0 mm 0.00 in0.0 mm
01:49 AM 53.8°F12.1°C 52.1°F11.2°C 94% 3.0 mph SE4.8 kmh SE 10.0 mph16.1 kmh 19.43 in658.0 mb 0.00 in0.0 mm 0.00 in0.0 mm 0.00 in0.0 mm
01:48 AM 53.8°F12.1°C 52.1°F11.2°C 94% 3.0 mph SE4.8 kmh SE 10.0 mph16.1 kmh 19.43 in658.0 mb 0.00 in0.0 mm 0.00 in0.0 mm 0.00 in0.0 mm
01:47 AM 53.8°F12.1°C 52.1°F11.2°C 94% 2.0 mph SE3.2 kmh SE 10.0 mph16.1 kmh 19.43 in658.0 mb 0.00 in0.0 mm 0.00 in0.0 mm 0.00 in0.0 mm
01:46 AM 53.8°F12.1°C 52.1°F11.2°C 94% 4.0 mph SSE6.4 kmh SSE 10.0 mph16.1 kmh 19.43 in658.0 mb 0.00 in0.0 mm 0.00 in0.0 mm 0.00 in0.0 mm
01:45 AM 53.8°F12.1°C 52.1°F11.2°C 94% Calm Calm 2.0 mph3.2 kmh 19.43 in658.0 mb 0.00 in0.0 mm 0.00 in0.0 mm 0.00 in0.0 mm
01:44 AM 53.8°F12.1°C 52.1°F11.2°C 94% 5.0 mph SE8.0 kmh SE 7.0 mph11.3 kmh 19.43 in658.0 mb 0.00 in0.0 mm 0.00 in0.0 mm 0.00 in0.0 mm
01:43 AM 53.8°F12.1°C 52.1°F11.2°C 94% 3.0 mph ESE4.8 kmh ESE 6.0 mph9.7 kmh 19.43 in658.0 mb 0.00 in0.0 mm 0.00 in0.0 mm 0.00 in0.0 mm
01:42 AM 53.8°F12.1°C 52.1°F11.2°C 94% 3.0 mph ESE4.8 kmh ESE 6.0 mph9.7 kmh 19.43 in658.0 mb 0.00 in0.0 mm 0.00 in0.0 mm 0.00 in0.0 mm
01:41 AM 53.7°F12.1°C 52.0°F11.1°C 94% Calm Calm 6.0 mph9.7 kmh 19.43 in658.0 mb 0.00 in0.0 mm 0.00 in0.0 mm 0.00 in0.0 mm
01:40 AM 53.7°F12.1°C 52.0°F11.1°C 94% Calm Calm 6.0 mph9.7 kmh 19.43 in658.0 mb 0.00 in0.0 mm 0.00 in0.0 mm 0.00 in0.0 mm
01:39 AM 53.7°F12.1°C 52.0°F11.1°C 94% 2.0 mph ESE3.2 kmh ESE 7.0 mph11.3 kmh 19.43 in658.0 mb 0.00 in0.0 mm 0.00 in0.0 mm 0.00 in0.0 mm
01:38 AM 53.7°F12.1°C 52.0°F11.1°C 94% 3.0 mph SE4.8 kmh SE 7.0 mph11.3 kmh 19.43 in658.0 mb 0.00 in0.0 mm 0.00 in0.0 mm 0.00 in0.0 mm
01:37 AM 53.7°F12.1°C 52.0°F11.1°C 94% Calm Calm 7.0 mph11.3 kmh 19.43 in658.0 mb 0.00 in0.0 mm 0.00 in0.0 mm 0.00 in0.0 mm
01:36 AM 53.7°F12.1°C 52.0°F11.1°C 94% Calm Calm 7.0 mph11.3 kmh 21.72 in735.5 mb 0.00 in0.0 mm 0.00 in0.0 mm 0.00 in0.0 mm
01:35 AM 53.7°F12.1°C 52.0°F11.1°C 94% 4.0 mph ESE6.4 kmh ESE 4.0 mph6.4 kmh 21.72 in735.5 mb 0.00 in0.0 mm 0.00 in0.0 mm 0.00 in0.0 mm
01:34 AM 53.8°F12.1°C 52.1°F11.2°C 94% 2.0 mph SE3.2 kmh SE 9.0 mph14.5 kmh 21.72 in735.5 mb 0.00 in0.0 mm 0.00 in0.0 mm 0.00 in0.0 mm
01:33 AM 53.7°F12.1°C 52.0°F11.1°C 94% 3.0 mph SE4.8 kmh SE 9.0 mph14.5 kmh 21.72 in735.5 mb 0.00 in0.0 mm 0.00 in0.0 mm 0.00 in0.0 mm
01:32 AM 53.7°F12.1°C 52.0°F11.1°C 94% 2.0 mph SE3.2 kmh SE 9.0 mph14.5 kmh 21.72 in735.5 mb 0.00 in0.0 mm 0.00 in0.0 mm 0.00 in0.0 mm
01:31 AM 53.8°F12.1°C 52.1°F11.2°C 94% 5.0 mph SE8.0 kmh SE 9.0 mph14.5 kmh 21.72 in735.5 mb 0.00 in0.0 mm 0.00 in0.0 mm 0.00 in0.0 mm
01:30 AM 53.8°F12.1°C 52.1°F11.2°C 94% Calm Calm 4.0 mph6.4 kmh 21.72 in735.5 mb 0.00 in0.0 mm 0.00 in0.0 mm 0.00 in0.0 mm
01:29 AM 53.8°F12.1°C 52.1°F11.2°C 94% 5.0 mph SE8.0 kmh SE 7.0 mph11.3 kmh 21.72 in735.5 mb 0.00 in0.0 mm 0.00 in0.0 mm 0.00 in0.0 mm
01:28 AM 53.8°F12.1°C 52.1°F11.2°C 94% 3.0 mph SE4.8 kmh SE 7.0 mph11.3 kmh 21.72 in735.5 mb 0.00 in0.0 mm 0.00 in0.0 mm 0.00 in0.0 mm
01:27 AM 53.8°F12.1°C 52.1°F11.2°C 94% Calm Calm 7.0 mph11.3 kmh 21.72 in735.5 mb 0.00 in0.0 mm 0.00 in0.0 mm 0.00 in0.0 mm
01:26 AM 53.8°F12.1°C 52.1°F11.2°C 94% 6.0 mph ESE9.7 kmh ESE 7.0 mph11.3 kmh 21.72 in735.5 mb 0.00 in0.0 mm 0.00 in0.0 mm 0.00 in0.0 mm
01:25 AM 53.8°F12.1°C 52.1°F11.2°C 94% 4.0 mph ESE6.4 kmh ESE 6.0 mph9.7 kmh 21.72 in735.5 mb 0.00 in0.0 mm 0.00 in0.0 mm 0.00 in0.0 mm
01:24 AM 53.9°F12.2°C 52.2°F11.2°C 94% 5.0 mph ESE8.0 kmh ESE 9.0 mph14.5 kmh 21.72 in735.5 mb 0.00 in0.0 mm 0.00 in0.0 mm 0.00 in0.0 mm
01:23 AM 53.9°F12.2°C 52.2°F11.2°C 94% 5.0 mph ESE8.0 kmh ESE 5.0 mph8.0 kmh 21.72 in735.5 mb 0.00 in0.0 mm 0.00 in0.0 mm 0.00 in0.0 mm
01:22 AM 53.9°F12.2°C 52.2°F11.2°C 94% Calm Calm 5.0 mph8.0 kmh 21.72 in735.5 mb 0.00 in0.0 mm 0.00 in0.0 mm 0.00 in0.0 mm
01:21 AM 53.8°F12.1°C 52.1°F11.2°C 94% Calm Calm 5.0 mph8.0 kmh 21.72 in735.5 mb 0.00 in0.0 mm 0.00 in0.0 mm 0.00 in0.0 mm
01:20 AM 53.9°F12.2°C 52.2°F11.2°C 94% 5.0 mph ESE8.0 kmh ESE 5.0 mph8.0 kmh 21.72 in735.5 mb 0.00 in0.0 mm 0.00 in0.0 mm 0.00 in0.0 mm
01:19 AM 53.9°F12.2°C 52.2°F11.2°C 94% 3.0 mph ESE4.8 kmh ESE 6.0 mph9.7 kmh 21.72 in735.5 mb 0.00 in0.0 mm 0.00 in0.0 mm 0.00 in0.0 mm
01:18 AM 53.9°F12.2°C 52.2°F11.2°C 94% Calm Calm 6.0 mph9.7 kmh 21.72 in735.5 mb 0.00 in0.0 mm 0.00 in0.0 mm 0.00 in0.0 mm
01:17 AM 53.9°F12.2°C 52.2°F11.2°C 94% 4.0 mph ESE6.4 kmh ESE 5.0 mph8.0 kmh 21.72 in735.5 mb 0.00 in0.0 mm 0.00 in0.0 mm 0.00 in0.0 mm
01:16 AM 53.9°F12.2°C 52.2°F11.2°C 94% 1.0 mph ESE1.6 kmh ESE 5.0 mph8.0 kmh 21.72 in735.5 mb 0.00 in0.0 mm 0.00 in0.0 mm 0.00 in0.0 mm
01:15 AM 53.9°F12.2°C 52.2°F11.2°C 94% 3.0 mph ESE4.8 kmh ESE 5.0 mph8.0 kmh 20.25 in685.7 mb 0.00 in0.0 mm 0.00 in0.0 mm 0.00 in0.0 mm
01:14 AM 53.9°F12.2°C 52.2°F11.2°C 94% Calm Calm 7.0 mph11.3 kmh 20.25 in685.7 mb 0.00 in0.0 mm 0.00 in0.0 mm 0.00 in0.0 mm
01:13 AM 53.9°F12.2°C 52.2°F11.2°C 94% 4.0 mph ESE6.4 kmh ESE 7.0 mph11.3 kmh 20.25 in685.7 mb 0.00 in0.0 mm 0.00 in0.0 mm 0.00 in0.0 mm
01:12 AM 53.9°F12.2°C 52.2°F11.2°C 94% Calm Calm 7.0 mph11.3 kmh 20.25 in685.7 mb 0.00 in0.0 mm 0.00 in0.0 mm 0.00 in0.0 mm
01:11 AM 53.9°F12.2°C 52.2°F11.2°C 94% 2.0 mph ESE3.2 kmh ESE 7.0 mph11.3 kmh 20.25 in685.7 mb 0.00 in0.0 mm 0.00 in0.0 mm 0.00 in0.0 mm
01:10 AM 54.0°F12.2°C 52.3°F11.3°C 94% 2.0 mph ESE3.2 kmh ESE 3.0 mph4.8 kmh 20.25 in685.7 mb 0.00 in0.0 mm 0.00 in0.0 mm 0.00 in0.0 mm
01:09 AM 54.0°F12.2°C 52.3°F11.3°C 94% Calm Calm 5.0 mph8.0 kmh 20.25 in685.7 mb 0.00 in0.0 mm 0.00 in0.0 mm 0.00 in0.0 mm
01:08 AM 54.0°F12.2°C 52.3°F11.3°C 94% Calm Calm 5.0 mph8.0 kmh 20.25 in685.7 mb 0.00 in0.0 mm 0.00 in0.0 mm 0.00 in0.0 mm
01:07 AM 54.0°F12.2°C 52.3°F11.3°C 94% Calm Calm 5.0 mph8.0 kmh 20.25 in685.7 mb 0.00 in0.0 mm 0.00 in0.0 mm 0.00 in0.0 mm
01:06 AM 54.1°F12.3°C 52.4°F11.3°C 94% Calm Calm 5.0 mph8.0 kmh 20.25 in685.7 mb 0.00 in0.0 mm 0.00 in0.0 mm 0.00 in0.0 mm
01:05 AM 54.0°F12.2°C 52.3°F11.3°C 94% Calm Calm 5.0 mph8.0 kmh 20.25 in685.7 mb 0.00 in0.0 mm 0.00 in0.0 mm 0.00 in0.0 mm
01:04 AM 54.1°F12.3°C 52.4°F11.3°C 94% Calm Calm 7.0 mph11.3 kmh 20.25 in685.7 mb 0.00 in0.0 mm 0.00 in0.0 mm 0.00 in0.0 mm
01:03 AM 54.1°F12.3°C 52.4°F11.3°C 94% 5.0 mph ESE8.0 kmh ESE 7.0 mph11.3 kmh 20.25 in685.7 mb 0.00 in0.0 mm 0.00 in0.0 mm 0.00 in0.0 mm
01:02 AM 54.1°F12.3°C 52.4°F11.3°C 94% Calm Calm 2.0 mph3.2 kmh 20.25 in685.7 mb 0.00 in0.0 mm 0.00 in0.0 mm 0.00 in0.0 mm
01:01 AM 54.1°F12.3°C 52.4°F11.3°C 94% Calm Calm 2.0 mph3.2 kmh 20.25 in685.7 mb 0.00 in0.0 mm 0.00 in0.0 mm 0.00 in0.0 mm
01:00 AM 54.1°F12.3°C 52.4°F11.3°C 94% Calm Calm 2.0 mph3.2 kmh 20.25 in685.7 mb 0.00 in0.0 mm 0.00 in0.0 mm 0.00 in0.0 mm
12:59 AM 54.1°F12.3°C 52.4°F11.3°C 94% Calm Calm 4.0 mph6.4 kmh 20.25 in685.7 mb 0.00 in0.0 mm 0.00 in0.0 mm 0.00 in0.0 mm
12:58 AM 54.1°F12.3°C 52.4°F11.3°C 94% 3.0 mph ESE4.8 kmh ESE 4.0 mph6.4 kmh 20.25 in685.7 mb 0.00 in0.0 mm 0.00 in0.0 mm 0.00 in0.0 mm
12:57 AM 54.0°F12.2°C 52.3°F11.3°C 94% Calm Calm 4.0 mph6.4 kmh 20.25 in685.7 mb 0.00 in0.0 mm 0.00 in0.0 mm 0.00 in0.0 mm
12:56 AM 54.0°F12.2°C 52.3°F11.3°C 94% Calm Calm -- 20.25 in685.7 mb 0.00 in0.0 mm 0.00 in0.0 mm 0.00 in0.0 mm
12:55 AM 54.0°F12.2°C 52.3°F11.3°C 94% Calm Calm -- 20.25 in685.7 mb 0.00 in0.0 mm 0.00 in0.0 mm 0.00 in0.0 mm
12:54 AM 54.0°F12.2°C 52.3°F11.3°C 94% Calm Calm 4.0 mph6.4 kmh 20.25 in685.7 mb 0.00 in0.0 mm 0.00 in0.0 mm 0.00 in0.0 mm
12:53 AM 54.0°F12.2°C 52.3°F11.3°C 94% Calm Calm 4.0 mph6.4 kmh 20.25 in685.7 mb 0.00 in0.0 mm 0.00 in0.0 mm 0.00 in0.0 mm
12:52 AM 54.0°F12.2°C 52.3°F11.3°C 94% Calm Calm 4.0 mph6.4 kmh 20.25 in685.7 mb 0.00 in0.0 mm 0.00 in0.0 mm 0.00 in0.0 mm
12:51 AM 54.1°F12.3°C 52.4°F11.3°C 94% Calm Calm 4.0 mph6.4 kmh 20.25 in685.7 mb 0.00 in0.0 mm 0.00 in0.0 mm 0.00 in0.0 mm
12:50 AM 54.1°F12.3°C 52.4°F11.3°C 94% Calm Calm 4.0 mph6.4 kmh 20.25 in685.7 mb 0.00 in0.0 mm 0.00 in0.0 mm 0.00 in0.0 mm
12:49 AM 54.0°F12.2°C 52.3°F11.3°C 94% 5.0 mph E8.0 kmh E 5.0 mph8.0 kmh 20.25 in685.7 mb 0.00 in0.0 mm 0.00 in0.0 mm 0.00 in0.0 mm
12:48 AM 54.1°F12.3°C 52.4°F11.3°C 94% 1.0 mph E1.6 kmh E 5.0 mph8.0 kmh 20.25 in685.7 mb 0.00 in0.0 mm 0.00 in0.0 mm 0.00 in0.0 mm
12:47 AM 54.1°F12.3°C 52.4°F11.3°C 94% 3.0 mph E4.8 kmh E 5.0 mph8.0 kmh 20.25 in685.7 mb 0.00 in0.0 mm 0.00 in0.0 mm 0.00 in0.0 mm
12:46 AM 54.1°F12.3°C 52.4°F11.3°C 94% 4.0 mph E6.4 kmh E 5.0 mph8.0 kmh 20.25 in685.7 mb 0.00 in0.0 mm 0.00 in0.0 mm 0.00 in0.0 mm
12:45 AM 54.1°F12.3°C 52.4°F11.3°C 94% 5.0 mph E8.0 kmh E 5.0 mph8.0 kmh 20.25 in685.7 mb 0.00 in0.0 mm 0.00 in0.0 mm 0.00 in0.0 mm
12:44 AM 54.1°F12.3°C 52.4°F11.3°C 94% 3.0 mph E4.8 kmh E 5.0 mph8.0 kmh 20.25 in685.7 mb 0.00 in0.0 mm 0.00 in0.0 mm 0.00 in0.0 mm
12:43 AM 54.1°F12.3°C 52.4°F11.3°C 94% 2.0 mph E3.2 kmh E 5.0 mph8.0 kmh 20.25 in685.7 mb 0.00 in0.0 mm 0.00 in0.0 mm 0.00 in0.0 mm
12:42 AM 54.1°F12.3°C 52.4°F11.3°C 94% 1.0 mph E1.6 kmh E 5.0 mph8.0 kmh 20.25 in685.7 mb 0.00 in0.0 mm 0.00 in0.0 mm 0.00 in0.0 mm
12:41 AM 54.1°F12.3°C 52.4°F11.3°C 94% 5.0 mph E8.0 kmh E 5.0 mph8.0 kmh 20.25 in685.7 mb 0.00 in0.0 mm 0.00 in0.0 mm 0.00 in0.0 mm
12:40 AM 54.2°F12.3°C 52.5°F11.4°C 94% 5.0 mph E8.0 kmh E 5.0 mph8.0 kmh 20.25 in685.7 mb 0.00 in0.0 mm 0.00 in0.0 mm 0.00 in0.0 mm
12:39 AM 54.2°F12.3°C 52.5°F11.4°C 94% 3.0 mph E4.8 kmh E 7.0 mph11.3 kmh 20.25 in685.7 mb 0.00 in0.0 mm 0.00 in0.0 mm 0.00 in0.0 mm
12:38 AM 54.2°F12.3°C 52.5°F11.4°C 94% 1.0 mph E1.6 kmh E 7.0 mph11.3 kmh 20.25 in685.7 mb 0.00 in0.0 mm 0.00 in0.0 mm 0.00 in0.0 mm
12:37 AM 54.2°F12.3°C 52.5°F11.4°C 94% 6.0 mph E9.7 kmh E 6.0 mph9.7 kmh 22.22 in752.5 mb 0.00 in0.0 mm 0.00 in0.0 mm 0.00 in0.0 mm
12:36 AM 54.2°F12.3°C 52.5°F11.4°C 94% Calm Calm 4.0 mph6.4 kmh 22.22 in752.5 mb 0.00 in0.0 mm 0.00 in0.0 mm 0.00 in0.0 mm
12:35 AM 54.2°F12.3°C 52.5°F11.4°C 94% 3.0 mph E4.8 kmh E 3.0 mph4.8 kmh 22.22 in752.5 mb 0.00 in0.0 mm 0.00 in0.0 mm 0.00 in0.0 mm
12:34 AM 54.2°F12.3°C 52.5°F11.4°C 94% Calm Calm 4.0 mph6.4 kmh 22.22 in752.5 mb 0.00 in0.0 mm 0.00 in0.0 mm 0.00 in0.0 mm
12:33 AM 54.2°F12.3°C 52.2°F11.2°C 93% 2.0 mph E3.2 kmh E 4.0 mph6.4 kmh 22.22 in752.5 mb 0.00 in0.0 mm 0.00 in0.0 mm 0.00 in0.0 mm
12:32 AM 54.3°F12.4°C 52.3°F11.3°C 93% 3.0 mph E4.8 kmh E 4.0 mph6.4 kmh 22.22 in752.5 mb 0.00 in0.0 mm 0.00 in0.0 mm 0.00 in0.0 mm
12:31 AM 54.3°F12.4°C 52.3°F11.3°C 93% 2.0 mph E3.2 kmh E 4.0 mph6.4 kmh 22.22 in752.5 mb 0.00 in0.0 mm 0.00 in0.0 mm 0.00 in0.0 mm
12:30 AM 54.3°F12.4°C 52.3°F11.3°C 93% 4.0 mph E6.4 kmh E 4.0 mph6.4 kmh 22.22 in752.5 mb 0.00 in0.0 mm 0.00 in0.0 mm 0.00 in0.0 mm
12:29 AM 54.4°F12.4°C 52.4°F11.3°C 93% 4.0 mph E6.4 kmh E 6.0 mph9.7 kmh 22.22 in752.5 mb 0.00 in0.0 mm 0.00 in0.0 mm 0.00 in0.0 mm
12:28 AM 54.4°F12.4°C 52.4°F11.3°C 93% 3.0 mph E4.8 kmh E 6.0 mph9.7 kmh 22.22 in752.5 mb 0.00 in0.0 mm 0.00 in0.0 mm 0.00 in0.0 mm
12:27 AM 54.4°F12.4°C 52.4°F11.3°C 93% 3.0 mph ESE4.8 kmh ESE 6.0 mph9.7 kmh 22.22 in752.5 mb 0.00 in0.0 mm 0.00 in0.0 mm 0.00 in0.0 mm
12:26 AM 54.5°F12.5°C 52.5°F11.4°C 93% 3.0 mph E4.8 kmh E 6.0 mph9.7 kmh 22.22 in752.5 mb 0.00 in0.0 mm 0.00 in0.0 mm 0.00 in0.0 mm
12:25 AM 54.5°F12.5°C 52.5°F11.4°C 93% Calm Calm -- 22.22 in752.5 mb 0.00 in0.0 mm 0.00 in0.0 mm 0.00 in0.0 mm
12:24 AM 54.5°F12.5°C 52.5°F11.4°C 93% 2.0 mph E3.2 kmh E 4.0 mph6.4 kmh 22.22 in752.5 mb 0.00 in0.0 mm 0.00 in0.0 mm 0.00 in0.0 mm
12:23 AM 54.5°F12.5°C 52.5°F11.4°C 93% Calm Calm 4.0 mph6.4 kmh 22.22 in752.5 mb 0.00 in0.0 mm 0.00 in0.0 mm 0.00 in0.0 mm
12:22 AM 54.5°F12.5°C 52.5°F11.4°C 93% 1.0 mph E1.6 kmh E 4.0 mph6.4 kmh 22.22 in752.5 mb 0.00 in0.0 mm 0.00 in0.0 mm 0.00 in0.0 mm
12:21 AM 54.5°F12.5°C 52.5°F11.4°C 93% 2.0 mph E3.2 kmh E 4.0 mph6.4 kmh 22.22 in752.5 mb 0.00 in0.0 mm 0.00 in0.0 mm 0.00 in0.0 mm
12:20 AM 54.5°F12.5°C 52.5°F11.4°C 93% 2.0 mph E3.2 kmh E 4.0 mph6.4 kmh 22.22 in752.5 mb 0.00 in0.0 mm 0.00 in0.0 mm 0.00 in0.0 mm
12:19 AM 54.5°F12.5°C 52.5°F11.4°C 93% Calm Calm 4.0 mph6.4 kmh 22.22 in752.5 mb 0.00 in0.0 mm 0.00 in0.0 mm 0.00 in0.0 mm
12:18 AM 54.5°F12.5°C 52.5°F11.4°C 93% Calm Calm 4.0 mph6.4 kmh 22.22 in752.5 mb 0.00 in0.0 mm 0.00 in0.0 mm 0.00 in0.0 mm
12:17 AM 54.5°F12.5°C 52.5°F11.4°C 93% 1.0 mph E1.6 kmh E 4.0 mph6.4 kmh 22.22 in752.5 mb 0.00 in0.0 mm 0.00 in0.0 mm 0.00 in0.0 mm
12:16 AM 54.5°F12.5°C 52.5°F11.4°C 93% 2.0 mph E3.2 kmh E 3.0 mph4.8 kmh 22.22 in752.5 mb 0.00 in0.0 mm 0.00 in0.0 mm 0.00 in0.0 mm
12:15 AM 54.6°F12.6°C 52.6°F11.4°C 93% 3.0 mph E4.8 kmh E 3.0 mph4.8 kmh 22.22 in752.5 mb 0.00 in0.0 mm 0.00 in0.0 mm 0.00 in0.0 mm
12:14 AM 54.5°F12.5°C 52.5°F11.4°C 93% 1.0 mph E1.6 kmh E 5.0 mph8.0 kmh 22.22 in752.5 mb 0.00 in0.0 mm 0.00 in0.0 mm 0.00 in0.0 mm
12:13 AM 54.6°F12.6°C 52.6°F11.4°C 93% Calm Calm 5.0 mph8.0 kmh 22.22 in752.5 mb 0.00 in0.0 mm 0.00 in0.0 mm 0.00 in0.0 mm
12:12 AM 54.6°F12.6°C 52.6°F11.4°C 93% 3.0 mph E4.8 kmh E 5.0 mph8.0 kmh 22.22 in752.5 mb 0.00 in0.0 mm 0.00 in0.0 mm 0.00 in0.0 mm
12:11 AM 54.6°F12.6°C 52.6°F11.4°C 93% 3.0 mph E4.8 kmh E 4.0 mph6.4 kmh 22.22 in752.5 mb 0.00 in0.0 mm 0.00 in0.0 mm 0.00 in0.0 mm
12:10 AM 54.6°F12.6°C 52.6°F11.4°C 93% 1.0 mph E1.6 kmh E 2.0 mph3.2 kmh 22.22 in752.5 mb 0.00 in0.0 mm 0.00 in0.0 mm 0.00 in0.0 mm
12:09 AM 54.7°F12.6°C 52.7°F11.5°C 93% 3.0 mph E4.8 kmh E 5.0 mph8.0 kmh 22.22 in752.5 mb 0.00 in0.0 mm 0.00 in0.0 mm 0.00 in0.0 mm
12:08 AM 54.7°F12.6°C 52.4°F11.3°C 92% Calm Calm 2.0 mph3.2 kmh 22.22 in752.5 mb 0.00 in0.0 mm 0.00 in0.0 mm 0.00 in0.0 mm
12:07 AM 54.8°F12.7°C 52.5°F11.4°C 92% Calm Calm 2.0 mph3.2 kmh 22.22 in752.5 mb 0.00 in0.0 mm 0.00 in0.0 mm 0.00 in0.0 mm
12:06 AM 54.7°F12.6°C 52.4°F11.3°C 92% 1.0 mph E1.6 kmh E 2.0 mph3.2 kmh 22.22 in752.5 mb 0.00 in0.0 mm 0.00 in0.0 mm 0.00 in0.0 mm
12:05 AM 54.8°F12.7°C 52.5°F11.4°C 92% 1.0 mph E1.6 kmh E 2.0 mph3.2 kmh 22.22 in752.5 mb 0.00 in0.0 mm 0.00 in0.0 mm 0.00 in0.0 mm
12:04 AM 54.8°F12.7°C 52.5°F11.4°C 92% Calm Calm 3.0 mph4.8 kmh 22.22 in752.5 mb 0.00 in0.0 mm 0.00 in0.0 mm 0.00 in0.0 mm
12:03 AM 54.8°F12.7°C 52.5°F11.4°C 92% Calm Calm 3.0 mph4.8 kmh 22.22 in752.5 mb 0.00 in0.0 mm 0.00 in0.0 mm 0.00 in0.0 mm
12:02 AM 54.9°F12.7°C 52.6°F11.4°C 92% Calm Calm 3.0 mph4.8 kmh 22.22 in752.5 mb 0.00 in0.0 mm 0.00 in0.0 mm 0.00 in0.0 mm
12:01 AM 54.9°F12.7°C 52.6°F11.4°C 92% Calm Calm 2.0 mph3.2 kmh 22.22 in752.5 mb 0.00 in0.0 mm 0.00 in0.0 mm 0.00 in0.0 mm
12:00 AM 54.9°F12.7°C 52.6°F11.4°C 92% Calm Calm -- 22.22 in752.5 mb 0.00 in0.0 mm 0.00 in0.0 mm 0.00 in0.0 mm